<?xml version="1.0" encoding="UTF-8" standalone="no" ?>
<gpx xmlns="http://www.topografix.com/GPX/1/1" xmlns:xsi="http://www.w3.org/2001/XMLSchema-instance" xsi:schemaLocation="http://www.topografix.com/GPX/1/1 http://www.topografix.com/GPX/1/1/gpx.xsd" version="1.1" creator="VisuGPX - https://www.visugpx.com">
  <metadata>
    <name>2024-05-23-46-ST JEAN DE LAUR </name>
    <desc><![CDATA[Belle boucle de 20km pour environ 350m de dénivelé positif. le circuit vous mènera sur des sentiers boisées à la rencontre d'un patrimoine de gariottes et de belles pierres sans oublier les églises, le long de deux ruisseaux et de leurs gouffres san]]></desc>
  </metadata>
  <trk>
    <name><![CDATA[ST JEAN DE LAUR BOB15MAI2024]]></name>
    <extensions>
      <line xmlns="http://www.topografix.com/GPX/gpx_style/0/2">
        <color>0000FF</color>
        <width>4</width>
      </line>
    </extensions>
    <trkseg>
      <trkpt lat="44.41965" lon="1.835">
        <ele>379.86</ele>
        <time>2024-05-15T07:40:11Z</time>
      </trkpt>
      <trkpt lat="44.41966" lon="1.835">
        <ele>380.82</ele>
        <time>2024-05-15T07:40:27Z</time>
      </trkpt>
      <trkpt lat="44.4197" lon="1.83506">
        <ele>380.34</ele>
        <time>2024-05-15T07:42:26Z</time>
      </trkpt>
      <trkpt lat="44.41971" lon="1.83517">
        <ele>381.3</ele>
        <time>2024-05-15T07:42:37Z</time>
      </trkpt>
      <trkpt lat="44.41967" lon="1.8353">
        <ele>382.26</ele>
        <time>2024-05-15T07:42:46Z</time>
      </trkpt>
      <trkpt lat="44.41958" lon="1.83537">
        <ele>382.74</ele>
        <time>2024-05-15T07:42:55Z</time>
      </trkpt>
      <trkpt lat="44.4196" lon="1.83547">
        <ele>383.22</ele>
        <time>2024-05-15T07:43:06Z</time>
      </trkpt>
      <trkpt lat="44.41964" lon="1.83558">
        <ele>383.22</ele>
        <time>2024-05-15T07:43:14Z</time>
      </trkpt>
      <trkpt lat="44.41967" lon="1.8357">
        <ele>384.18</ele>
        <time>2024-05-15T07:43:22Z</time>
      </trkpt>
      <trkpt lat="44.4197" lon="1.83585">
        <ele>384.66</ele>
        <time>2024-05-15T07:43:30Z</time>
      </trkpt>
      <trkpt lat="44.41974" lon="1.836">
        <ele>385.15</ele>
        <time>2024-05-15T07:43:38Z</time>
      </trkpt>
      <trkpt lat="44.41976" lon="1.83613">
        <ele>386.11</ele>
        <time>2024-05-15T07:43:50Z</time>
      </trkpt>
      <trkpt lat="44.4198" lon="1.83625">
        <ele>386.11</ele>
        <time>2024-05-15T07:43:59Z</time>
      </trkpt>
      <trkpt lat="44.41986" lon="1.83637">
        <ele>386.59</ele>
        <time>2024-05-15T07:44:07Z</time>
      </trkpt>
      <trkpt lat="44.41992" lon="1.83647">
        <ele>386.59</ele>
        <time>2024-05-15T07:44:14Z</time>
      </trkpt>
      <trkpt lat="44.41998" lon="1.83656">
        <ele>386.59</ele>
        <time>2024-05-15T07:44:21Z</time>
      </trkpt>
      <trkpt lat="44.42003" lon="1.83668">
        <ele>386.59</ele>
        <time>2024-05-15T07:44:30Z</time>
      </trkpt>
      <trkpt lat="44.42009" lon="1.8368">
        <ele>384.66</ele>
        <time>2024-05-15T07:44:38Z</time>
      </trkpt>
      <trkpt lat="44.42014" lon="1.83694">
        <ele>385.15</ele>
        <time>2024-05-15T07:44:53Z</time>
      </trkpt>
      <trkpt lat="44.42015" lon="1.83709">
        <ele>385.15</ele>
        <time>2024-05-15T07:45:02Z</time>
      </trkpt>
      <trkpt lat="44.42018" lon="1.83724">
        <ele>385.15</ele>
        <time>2024-05-15T07:45:11Z</time>
      </trkpt>
      <trkpt lat="44.42018" lon="1.83736">
        <ele>385.15</ele>
        <time>2024-05-15T07:45:19Z</time>
      </trkpt>
      <trkpt lat="44.42022" lon="1.83748">
        <ele>385.15</ele>
        <time>2024-05-15T07:45:27Z</time>
      </trkpt>
      <trkpt lat="44.42024" lon="1.83761">
        <ele>385.15</ele>
        <time>2024-05-15T07:45:35Z</time>
      </trkpt>
      <trkpt lat="44.42026" lon="1.83776">
        <ele>385.15</ele>
        <time>2024-05-15T07:45:44Z</time>
      </trkpt>
      <trkpt lat="44.42031" lon="1.8379">
        <ele>386.11</ele>
        <time>2024-05-15T07:45:52Z</time>
      </trkpt>
      <trkpt lat="44.42036" lon="1.83803">
        <ele>387.07</ele>
        <time>2024-05-15T07:46:00Z</time>
      </trkpt>
      <trkpt lat="44.42041" lon="1.83815">
        <ele>387.07</ele>
        <time>2024-05-15T07:46:07Z</time>
      </trkpt>
      <trkpt lat="44.42046" lon="1.83828">
        <ele>387.55</ele>
        <time>2024-05-15T07:46:15Z</time>
      </trkpt>
      <trkpt lat="44.42049" lon="1.83841">
        <ele>388.51</ele>
        <time>2024-05-15T07:46:22Z</time>
      </trkpt>
      <trkpt lat="44.42046" lon="1.83853">
        <ele>388.99</ele>
        <time>2024-05-15T07:46:29Z</time>
      </trkpt>
      <trkpt lat="44.42043" lon="1.83867">
        <ele>389.95</ele>
        <time>2024-05-15T07:46:37Z</time>
      </trkpt>
      <trkpt lat="44.42038" lon="1.83879">
        <ele>390.43</ele>
        <time>2024-05-15T07:46:45Z</time>
      </trkpt>
      <trkpt lat="44.42036" lon="1.83892">
        <ele>391.39</ele>
        <time>2024-05-15T07:46:53Z</time>
      </trkpt>
      <trkpt lat="44.42035" lon="1.83906">
        <ele>391.87</ele>
        <time>2024-05-15T07:47:01Z</time>
      </trkpt>
      <trkpt lat="44.42037" lon="1.83918">
        <ele>391.87</ele>
        <time>2024-05-15T07:47:09Z</time>
      </trkpt>
      <trkpt lat="44.42039" lon="1.83932">
        <ele>391.87</ele>
        <time>2024-05-15T07:47:17Z</time>
      </trkpt>
      <trkpt lat="44.42041" lon="1.83946">
        <ele>391.87</ele>
        <time>2024-05-15T07:47:25Z</time>
      </trkpt>
      <trkpt lat="44.42044" lon="1.8396">
        <ele>392.36</ele>
        <time>2024-05-15T07:47:34Z</time>
      </trkpt>
      <trkpt lat="44.42045" lon="1.83973">
        <ele>392.36</ele>
        <time>2024-05-15T07:47:41Z</time>
      </trkpt>
      <trkpt lat="44.42043" lon="1.83986">
        <ele>392.36</ele>
        <time>2024-05-15T07:47:49Z</time>
      </trkpt>
      <trkpt lat="44.42037" lon="1.83996">
        <ele>392.36</ele>
        <time>2024-05-15T07:47:57Z</time>
      </trkpt>
      <trkpt lat="44.4203" lon="1.84006">
        <ele>392.36</ele>
        <time>2024-05-15T07:48:05Z</time>
      </trkpt>
      <trkpt lat="44.42022" lon="1.84016">
        <ele>392.36</ele>
        <time>2024-05-15T07:48:13Z</time>
      </trkpt>
      <trkpt lat="44.42013" lon="1.84024">
        <ele>393.32</ele>
        <time>2024-05-15T07:48:21Z</time>
      </trkpt>
      <trkpt lat="44.42005" lon="1.84032">
        <ele>394.28</ele>
        <time>2024-05-15T07:48:30Z</time>
      </trkpt>
      <trkpt lat="44.41996" lon="1.8404">
        <ele>394.28</ele>
        <time>2024-05-15T07:48:38Z</time>
      </trkpt>
      <trkpt lat="44.41989" lon="1.84051">
        <ele>393.8</ele>
        <time>2024-05-15T07:48:46Z</time>
      </trkpt>
      <trkpt lat="44.41979" lon="1.8406">
        <ele>393.8</ele>
        <time>2024-05-15T07:48:55Z</time>
      </trkpt>
      <trkpt lat="44.4197" lon="1.84067">
        <ele>394.28</ele>
        <time>2024-05-15T07:49:03Z</time>
      </trkpt>
      <trkpt lat="44.41961" lon="1.84074">
        <ele>394.28</ele>
        <time>2024-05-15T07:49:11Z</time>
      </trkpt>
      <trkpt lat="44.41952" lon="1.8408">
        <ele>394.28</ele>
        <time>2024-05-15T07:49:19Z</time>
      </trkpt>
      <trkpt lat="44.41944" lon="1.8409">
        <ele>394.76</ele>
        <time>2024-05-15T07:49:27Z</time>
      </trkpt>
      <trkpt lat="44.41936" lon="1.84097">
        <ele>394.76</ele>
        <time>2024-05-15T07:49:35Z</time>
      </trkpt>
      <trkpt lat="44.41926" lon="1.84104">
        <ele>394.76</ele>
        <time>2024-05-15T07:49:44Z</time>
      </trkpt>
      <trkpt lat="44.41917" lon="1.84111">
        <ele>394.76</ele>
        <time>2024-05-15T07:49:52Z</time>
      </trkpt>
      <trkpt lat="44.4191" lon="1.8412">
        <ele>394.76</ele>
        <time>2024-05-15T07:50:00Z</time>
      </trkpt>
      <trkpt lat="44.41901" lon="1.84124">
        <ele>394.76</ele>
        <time>2024-05-15T07:50:08Z</time>
      </trkpt>
      <trkpt lat="44.4189" lon="1.8413">
        <ele>394.76</ele>
        <time>2024-05-15T07:50:17Z</time>
      </trkpt>
      <trkpt lat="44.4188" lon="1.84137">
        <ele>394.76</ele>
        <time>2024-05-15T07:50:25Z</time>
      </trkpt>
      <trkpt lat="44.4187" lon="1.84147">
        <ele>394.76</ele>
        <time>2024-05-15T07:50:34Z</time>
      </trkpt>
      <trkpt lat="44.41862" lon="1.84156">
        <ele>394.76</ele>
        <time>2024-05-15T07:50:43Z</time>
      </trkpt>
      <trkpt lat="44.41853" lon="1.84165">
        <ele>394.76</ele>
        <time>2024-05-15T07:50:52Z</time>
      </trkpt>
      <trkpt lat="44.41845" lon="1.84172">
        <ele>394.76</ele>
        <time>2024-05-15T07:51:00Z</time>
      </trkpt>
      <trkpt lat="44.41836" lon="1.8418">
        <ele>394.76</ele>
        <time>2024-05-15T07:51:07Z</time>
      </trkpt>
      <trkpt lat="44.41828" lon="1.84189">
        <ele>394.76</ele>
        <time>2024-05-15T07:51:15Z</time>
      </trkpt>
      <trkpt lat="44.41822" lon="1.84199">
        <ele>394.28</ele>
        <time>2024-05-15T07:51:23Z</time>
      </trkpt>
      <trkpt lat="44.41814" lon="1.84211">
        <ele>394.28</ele>
        <time>2024-05-15T07:51:32Z</time>
      </trkpt>
      <trkpt lat="44.41808" lon="1.84222">
        <ele>394.28</ele>
        <time>2024-05-15T07:51:39Z</time>
      </trkpt>
      <trkpt lat="44.41801" lon="1.84232">
        <ele>394.28</ele>
        <time>2024-05-15T07:51:46Z</time>
      </trkpt>
      <trkpt lat="44.41796" lon="1.84243">
        <ele>394.28</ele>
        <time>2024-05-15T07:51:56Z</time>
      </trkpt>
      <trkpt lat="44.4179" lon="1.84258">
        <ele>394.28</ele>
        <time>2024-05-15T07:52:05Z</time>
      </trkpt>
      <trkpt lat="44.41786" lon="1.84274">
        <ele>394.28</ele>
        <time>2024-05-15T07:52:13Z</time>
      </trkpt>
      <trkpt lat="44.41784" lon="1.8429">
        <ele>392.84</ele>
        <time>2024-05-15T07:52:22Z</time>
      </trkpt>
      <trkpt lat="44.41784" lon="1.84305">
        <ele>392.84</ele>
        <time>2024-05-15T07:52:31Z</time>
      </trkpt>
      <trkpt lat="44.41784" lon="1.84317">
        <ele>392.84</ele>
        <time>2024-05-15T07:52:39Z</time>
      </trkpt>
      <trkpt lat="44.41783" lon="1.84331">
        <ele>392.84</ele>
        <time>2024-05-15T07:52:47Z</time>
      </trkpt>
      <trkpt lat="44.41778" lon="1.84344">
        <ele>392.36</ele>
        <time>2024-05-15T07:52:55Z</time>
      </trkpt>
      <trkpt lat="44.41773" lon="1.84358">
        <ele>392.36</ele>
        <time>2024-05-15T07:53:03Z</time>
      </trkpt>
      <trkpt lat="44.41769" lon="1.84371">
        <ele>391.39</ele>
        <time>2024-05-15T07:53:12Z</time>
      </trkpt>
      <trkpt lat="44.41763" lon="1.84383">
        <ele>390.91</ele>
        <time>2024-05-15T07:53:21Z</time>
      </trkpt>
      <trkpt lat="44.41756" lon="1.84394">
        <ele>390.43</ele>
        <time>2024-05-15T07:53:30Z</time>
      </trkpt>
      <trkpt lat="44.41749" lon="1.84406">
        <ele>389.95</ele>
        <time>2024-05-15T07:53:39Z</time>
      </trkpt>
      <trkpt lat="44.41741" lon="1.84415">
        <ele>389.47</ele>
        <time>2024-05-15T07:53:48Z</time>
      </trkpt>
      <trkpt lat="44.41734" lon="1.84425">
        <ele>388.99</ele>
        <time>2024-05-15T07:53:57Z</time>
      </trkpt>
      <trkpt lat="44.41724" lon="1.84435">
        <ele>388.51</ele>
        <time>2024-05-15T07:54:07Z</time>
      </trkpt>
      <trkpt lat="44.41716" lon="1.84444">
        <ele>388.03</ele>
        <time>2024-05-15T07:54:17Z</time>
      </trkpt>
      <trkpt lat="44.41709" lon="1.84455">
        <ele>387.07</ele>
        <time>2024-05-15T07:54:26Z</time>
      </trkpt>
      <trkpt lat="44.41701" lon="1.84465">
        <ele>386.59</ele>
        <time>2024-05-15T07:54:35Z</time>
      </trkpt>
      <trkpt lat="44.41693" lon="1.84476">
        <ele>386.11</ele>
        <time>2024-05-15T07:54:44Z</time>
      </trkpt>
      <trkpt lat="44.41685" lon="1.84483">
        <ele>385.15</ele>
        <time>2024-05-15T07:54:53Z</time>
      </trkpt>
      <trkpt lat="44.41675" lon="1.84492">
        <ele>384.66</ele>
        <time>2024-05-15T07:55:03Z</time>
      </trkpt>
      <trkpt lat="44.41667" lon="1.84502">
        <ele>384.18</ele>
        <time>2024-05-15T07:55:12Z</time>
      </trkpt>
      <trkpt lat="44.41658" lon="1.8451">
        <ele>384.18</ele>
        <time>2024-05-15T07:55:22Z</time>
      </trkpt>
      <trkpt lat="44.4165" lon="1.84519">
        <ele>383.7</ele>
        <time>2024-05-15T07:55:31Z</time>
      </trkpt>
      <trkpt lat="44.41644" lon="1.84531">
        <ele>383.7</ele>
        <time>2024-05-15T07:55:40Z</time>
      </trkpt>
      <trkpt lat="44.41638" lon="1.84546">
        <ele>383.22</ele>
        <time>2024-05-15T07:55:49Z</time>
      </trkpt>
      <trkpt lat="44.41632" lon="1.8456">
        <ele>383.22</ele>
        <time>2024-05-15T07:55:59Z</time>
      </trkpt>
      <trkpt lat="44.41628" lon="1.84575">
        <ele>382.74</ele>
        <time>2024-05-15T07:56:08Z</time>
      </trkpt>
      <trkpt lat="44.41624" lon="1.8459">
        <ele>382.26</ele>
        <time>2024-05-15T07:56:17Z</time>
      </trkpt>
      <trkpt lat="44.4162" lon="1.84604">
        <ele>382.26</ele>
        <time>2024-05-15T07:56:25Z</time>
      </trkpt>
      <trkpt lat="44.41615" lon="1.84616">
        <ele>382.26</ele>
        <time>2024-05-15T07:56:34Z</time>
      </trkpt>
      <trkpt lat="44.41609" lon="1.84629">
        <ele>382.26</ele>
        <time>2024-05-15T07:56:44Z</time>
      </trkpt>
      <trkpt lat="44.41606" lon="1.84642">
        <ele>382.26</ele>
        <time>2024-05-15T07:56:53Z</time>
      </trkpt>
      <trkpt lat="44.41601" lon="1.84655">
        <ele>382.26</ele>
        <time>2024-05-15T07:57:01Z</time>
      </trkpt>
      <trkpt lat="44.41595" lon="1.84665">
        <ele>382.26</ele>
        <time>2024-05-15T07:57:09Z</time>
      </trkpt>
      <trkpt lat="44.41585" lon="1.84675">
        <ele>382.26</ele>
        <time>2024-05-15T07:57:20Z</time>
      </trkpt>
      <trkpt lat="44.41578" lon="1.84685">
        <ele>382.26</ele>
        <time>2024-05-15T07:57:29Z</time>
      </trkpt>
      <trkpt lat="44.41572" lon="1.84699">
        <ele>382.26</ele>
        <time>2024-05-15T07:57:41Z</time>
      </trkpt>
      <trkpt lat="44.41566" lon="1.84711">
        <ele>382.26</ele>
        <time>2024-05-15T07:57:50Z</time>
      </trkpt>
      <trkpt lat="44.41559" lon="1.84721">
        <ele>382.26</ele>
        <time>2024-05-15T07:58:00Z</time>
      </trkpt>
      <trkpt lat="44.41553" lon="1.84732">
        <ele>383.22</ele>
        <time>2024-05-15T07:58:10Z</time>
      </trkpt>
      <trkpt lat="44.41546" lon="1.84746">
        <ele>384.18</ele>
        <time>2024-05-15T07:58:20Z</time>
      </trkpt>
      <trkpt lat="44.41539" lon="1.84761">
        <ele>385.15</ele>
        <time>2024-05-15T07:58:30Z</time>
      </trkpt>
      <trkpt lat="44.41534" lon="1.84776">
        <ele>384.66</ele>
        <time>2024-05-15T07:58:41Z</time>
      </trkpt>
      <trkpt lat="44.41529" lon="1.84789">
        <ele>385.15</ele>
        <time>2024-05-15T07:58:51Z</time>
      </trkpt>
      <trkpt lat="44.41524" lon="1.84803">
        <ele>385.63</ele>
        <time>2024-05-15T07:59:01Z</time>
      </trkpt>
      <trkpt lat="44.41515" lon="1.84819">
        <ele>386.59</ele>
        <time>2024-05-15T07:59:13Z</time>
      </trkpt>
      <trkpt lat="44.41506" lon="1.84831">
        <ele>387.55</ele>
        <time>2024-05-15T07:59:26Z</time>
      </trkpt>
      <trkpt lat="44.41495" lon="1.84846">
        <ele>388.51</ele>
        <time>2024-05-15T07:59:38Z</time>
      </trkpt>
      <trkpt lat="44.41484" lon="1.84855">
        <ele>389.47</ele>
        <time>2024-05-15T07:59:50Z</time>
      </trkpt>
      <trkpt lat="44.41476" lon="1.84866">
        <ele>389.47</ele>
        <time>2024-05-15T08:00:01Z</time>
      </trkpt>
      <trkpt lat="44.41471" lon="1.84881">
        <ele>389.47</ele>
        <time>2024-05-15T08:00:13Z</time>
      </trkpt>
      <trkpt lat="44.4147" lon="1.849">
        <ele>389.47</ele>
        <time>2024-05-15T08:00:23Z</time>
      </trkpt>
      <trkpt lat="44.41469" lon="1.84919">
        <ele>388.03</ele>
        <time>2024-05-15T08:00:34Z</time>
      </trkpt>
      <trkpt lat="44.41468" lon="1.84936">
        <ele>388.03</ele>
        <time>2024-05-15T08:00:44Z</time>
      </trkpt>
      <trkpt lat="44.41471" lon="1.84953">
        <ele>388.03</ele>
        <time>2024-05-15T08:00:54Z</time>
      </trkpt>
      <trkpt lat="44.41471" lon="1.84969">
        <ele>387.55</ele>
        <time>2024-05-15T08:01:04Z</time>
      </trkpt>
      <trkpt lat="44.41466" lon="1.84984">
        <ele>387.55</ele>
        <time>2024-05-15T08:01:15Z</time>
      </trkpt>
      <trkpt lat="44.41452" lon="1.84996">
        <ele>387.07</ele>
        <time>2024-05-15T08:01:30Z</time>
      </trkpt>
      <trkpt lat="44.41439" lon="1.85003">
        <ele>386.11</ele>
        <time>2024-05-15T08:01:44Z</time>
      </trkpt>
      <trkpt lat="44.41427" lon="1.85008">
        <ele>385.63</ele>
        <time>2024-05-15T08:01:55Z</time>
      </trkpt>
      <trkpt lat="44.41415" lon="1.85013">
        <ele>384.66</ele>
        <time>2024-05-15T08:02:05Z</time>
      </trkpt>
      <trkpt lat="44.41402" lon="1.85023">
        <ele>384.18</ele>
        <time>2024-05-15T08:02:16Z</time>
      </trkpt>
      <trkpt lat="44.41392" lon="1.85034">
        <ele>382.74</ele>
        <time>2024-05-15T08:02:28Z</time>
      </trkpt>
      <trkpt lat="44.41382" lon="1.85048">
        <ele>382.26</ele>
        <time>2024-05-15T08:02:39Z</time>
      </trkpt>
      <trkpt lat="44.41373" lon="1.8506">
        <ele>381.3</ele>
        <time>2024-05-15T08:02:49Z</time>
      </trkpt>
      <trkpt lat="44.41365" lon="1.8507">
        <ele>380.82</ele>
        <time>2024-05-15T08:02:59Z</time>
      </trkpt>
      <trkpt lat="44.41358" lon="1.85083">
        <ele>379.38</ele>
        <time>2024-05-15T08:03:10Z</time>
      </trkpt>
      <trkpt lat="44.4135" lon="1.85094">
        <ele>379.38</ele>
        <time>2024-05-15T08:03:19Z</time>
      </trkpt>
      <trkpt lat="44.4134" lon="1.85108">
        <ele>378.42</ele>
        <time>2024-05-15T08:03:30Z</time>
      </trkpt>
      <trkpt lat="44.41335" lon="1.85127">
        <ele>377.94</ele>
        <time>2024-05-15T08:03:41Z</time>
      </trkpt>
      <trkpt lat="44.41331" lon="1.85145">
        <ele>377.45</ele>
        <time>2024-05-15T08:03:50Z</time>
      </trkpt>
      <trkpt lat="44.41325" lon="1.85157">
        <ele>377.45</ele>
        <time>2024-05-15T08:04:00Z</time>
      </trkpt>
      <trkpt lat="44.4132" lon="1.85171">
        <ele>376.97</ele>
        <time>2024-05-15T08:04:10Z</time>
      </trkpt>
      <trkpt lat="44.41315" lon="1.85183">
        <ele>376.01</ele>
        <time>2024-05-15T08:04:20Z</time>
      </trkpt>
      <trkpt lat="44.41308" lon="1.85199">
        <ele>375.53</ele>
        <time>2024-05-15T08:04:30Z</time>
      </trkpt>
      <trkpt lat="44.41303" lon="1.85213">
        <ele>374.57</ele>
        <time>2024-05-15T08:04:40Z</time>
      </trkpt>
      <trkpt lat="44.41299" lon="1.85231">
        <ele>374.09</ele>
        <time>2024-05-15T08:04:51Z</time>
      </trkpt>
      <trkpt lat="44.41298" lon="1.85249">
        <ele>373.61</ele>
        <time>2024-05-15T08:05:02Z</time>
      </trkpt>
      <trkpt lat="44.41296" lon="1.85265">
        <ele>373.61</ele>
        <time>2024-05-15T08:05:11Z</time>
      </trkpt>
      <trkpt lat="44.41295" lon="1.85283">
        <ele>372.65</ele>
        <time>2024-05-15T08:05:21Z</time>
      </trkpt>
      <trkpt lat="44.41295" lon="1.853">
        <ele>372.65</ele>
        <time>2024-05-15T08:05:31Z</time>
      </trkpt>
      <trkpt lat="44.41295" lon="1.85315">
        <ele>372.17</ele>
        <time>2024-05-15T08:05:43Z</time>
      </trkpt>
      <trkpt lat="44.41294" lon="1.85332">
        <ele>372.17</ele>
        <time>2024-05-15T08:05:54Z</time>
      </trkpt>
      <trkpt lat="44.41292" lon="1.85347">
        <ele>371.69</ele>
        <time>2024-05-15T08:06:04Z</time>
      </trkpt>
      <trkpt lat="44.41286" lon="1.85358">
        <ele>370.73</ele>
        <time>2024-05-15T08:06:13Z</time>
      </trkpt>
      <trkpt lat="44.41278" lon="1.85368">
        <ele>369.76</ele>
        <time>2024-05-15T08:06:22Z</time>
      </trkpt>
      <trkpt lat="44.41268" lon="1.85376">
        <ele>369.28</ele>
        <time>2024-05-15T08:06:32Z</time>
      </trkpt>
      <trkpt lat="44.41258" lon="1.85385">
        <ele>368.32</ele>
        <time>2024-05-15T08:06:43Z</time>
      </trkpt>
      <trkpt lat="44.41251" lon="1.85396">
        <ele>367.36</ele>
        <time>2024-05-15T08:06:54Z</time>
      </trkpt>
      <trkpt lat="44.41242" lon="1.8541">
        <ele>366.88</ele>
        <time>2024-05-15T08:08:18Z</time>
      </trkpt>
      <trkpt lat="44.41241" lon="1.85423">
        <ele>366.88</ele>
        <time>2024-05-15T08:08:29Z</time>
      </trkpt>
      <trkpt lat="44.41238" lon="1.85437">
        <ele>366.88</ele>
        <time>2024-05-15T08:08:39Z</time>
      </trkpt>
      <trkpt lat="44.41235" lon="1.8545">
        <ele>366.4</ele>
        <time>2024-05-15T08:08:47Z</time>
      </trkpt>
      <trkpt lat="44.41232" lon="1.85466">
        <ele>366.4</ele>
        <time>2024-05-15T08:08:59Z</time>
      </trkpt>
      <trkpt lat="44.41228" lon="1.85482">
        <ele>365.92</ele>
        <time>2024-05-15T08:09:09Z</time>
      </trkpt>
      <trkpt lat="44.41225" lon="1.85496">
        <ele>365.92</ele>
        <time>2024-05-15T08:09:18Z</time>
      </trkpt>
      <trkpt lat="44.41222" lon="1.85511">
        <ele>365.44</ele>
        <time>2024-05-15T08:09:28Z</time>
      </trkpt>
      <trkpt lat="44.41221" lon="1.85526">
        <ele>364.96</ele>
        <time>2024-05-15T08:09:38Z</time>
      </trkpt>
      <trkpt lat="44.41221" lon="1.85543">
        <ele>364.48</ele>
        <time>2024-05-15T08:09:47Z</time>
      </trkpt>
      <trkpt lat="44.41219" lon="1.8556">
        <ele>364.48</ele>
        <time>2024-05-15T08:09:56Z</time>
      </trkpt>
      <trkpt lat="44.41218" lon="1.85577">
        <ele>363.52</ele>
        <time>2024-05-15T08:10:06Z</time>
      </trkpt>
      <trkpt lat="44.41212" lon="1.85581">
        <ele>363.04</ele>
        <time>2024-05-15T08:10:18Z</time>
      </trkpt>
      <trkpt lat="44.41207" lon="1.85578">
        <ele>361.11</ele>
        <time>2024-05-15T08:10:57Z</time>
      </trkpt>
      <trkpt lat="44.41215" lon="1.85589">
        <ele>362.55</ele>
        <time>2024-05-15T08:11:12Z</time>
      </trkpt>
      <trkpt lat="44.41214" lon="1.85605">
        <ele>362.55</ele>
        <time>2024-05-15T08:11:20Z</time>
      </trkpt>
      <trkpt lat="44.41213" lon="1.8562">
        <ele>361.11</ele>
        <time>2024-05-15T08:11:28Z</time>
      </trkpt>
      <trkpt lat="44.41213" lon="1.85636">
        <ele>360.15</ele>
        <time>2024-05-15T08:11:36Z</time>
      </trkpt>
      <trkpt lat="44.41214" lon="1.85652">
        <ele>359.67</ele>
        <time>2024-05-15T08:11:45Z</time>
      </trkpt>
      <trkpt lat="44.41217" lon="1.85667">
        <ele>359.67</ele>
        <time>2024-05-15T08:11:54Z</time>
      </trkpt>
      <trkpt lat="44.4122" lon="1.85681">
        <ele>359.67</ele>
        <time>2024-05-15T08:12:02Z</time>
      </trkpt>
      <trkpt lat="44.4122" lon="1.85696">
        <ele>359.67</ele>
        <time>2024-05-15T08:12:10Z</time>
      </trkpt>
      <trkpt lat="44.4122" lon="1.8571">
        <ele>359.67</ele>
        <time>2024-05-15T08:12:18Z</time>
      </trkpt>
      <trkpt lat="44.4122" lon="1.85723">
        <ele>359.67</ele>
        <time>2024-05-15T08:12:26Z</time>
      </trkpt>
      <trkpt lat="44.41217" lon="1.85735">
        <ele>359.19</ele>
        <time>2024-05-15T08:12:34Z</time>
      </trkpt>
      <trkpt lat="44.41216" lon="1.85749">
        <ele>359.19</ele>
        <time>2024-05-15T08:12:42Z</time>
      </trkpt>
      <trkpt lat="44.41217" lon="1.85763">
        <ele>358.71</ele>
        <time>2024-05-15T08:12:50Z</time>
      </trkpt>
      <trkpt lat="44.41217" lon="1.85776">
        <ele>358.71</ele>
        <time>2024-05-15T08:12:58Z</time>
      </trkpt>
      <trkpt lat="44.41217" lon="1.85792">
        <ele>358.23</ele>
        <time>2024-05-15T08:13:07Z</time>
      </trkpt>
      <trkpt lat="44.41217" lon="1.85809">
        <ele>358.23</ele>
        <time>2024-05-15T08:13:16Z</time>
      </trkpt>
      <trkpt lat="44.41216" lon="1.85827">
        <ele>357.75</ele>
        <time>2024-05-15T08:13:25Z</time>
      </trkpt>
      <trkpt lat="44.41212" lon="1.85841">
        <ele>357.27</ele>
        <time>2024-05-15T08:13:33Z</time>
      </trkpt>
      <trkpt lat="44.41208" lon="1.85853">
        <ele>356.31</ele>
        <time>2024-05-15T08:13:41Z</time>
      </trkpt>
      <trkpt lat="44.41203" lon="1.85867">
        <ele>356.31</ele>
        <time>2024-05-15T08:13:49Z</time>
      </trkpt>
      <trkpt lat="44.41198" lon="1.8588">
        <ele>356.31</ele>
        <time>2024-05-15T08:13:58Z</time>
      </trkpt>
      <trkpt lat="44.41192" lon="1.85895">
        <ele>356.31</ele>
        <time>2024-05-15T08:14:07Z</time>
      </trkpt>
      <trkpt lat="44.41188" lon="1.85907">
        <ele>356.31</ele>
        <time>2024-05-15T08:14:15Z</time>
      </trkpt>
      <trkpt lat="44.41181" lon="1.85918">
        <ele>355.83</ele>
        <time>2024-05-15T08:14:24Z</time>
      </trkpt>
      <trkpt lat="44.41173" lon="1.85928">
        <ele>355.83</ele>
        <time>2024-05-15T08:14:32Z</time>
      </trkpt>
      <trkpt lat="44.41166" lon="1.85938">
        <ele>355.83</ele>
        <time>2024-05-15T08:14:41Z</time>
      </trkpt>
      <trkpt lat="44.41158" lon="1.8595">
        <ele>355.83</ele>
        <time>2024-05-15T08:14:50Z</time>
      </trkpt>
      <trkpt lat="44.41152" lon="1.85962">
        <ele>355.83</ele>
        <time>2024-05-15T08:14:58Z</time>
      </trkpt>
      <trkpt lat="44.41144" lon="1.85973">
        <ele>355.83</ele>
        <time>2024-05-15T08:15:07Z</time>
      </trkpt>
      <trkpt lat="44.41136" lon="1.85984">
        <ele>355.83</ele>
        <time>2024-05-15T08:15:16Z</time>
      </trkpt>
      <trkpt lat="44.41129" lon="1.85997">
        <ele>355.83</ele>
        <time>2024-05-15T08:15:26Z</time>
      </trkpt>
      <trkpt lat="44.41121" lon="1.86009">
        <ele>355.83</ele>
        <time>2024-05-15T08:15:36Z</time>
      </trkpt>
      <trkpt lat="44.41113" lon="1.86021">
        <ele>355.83</ele>
        <time>2024-05-15T08:15:46Z</time>
      </trkpt>
      <trkpt lat="44.41104" lon="1.86031">
        <ele>355.83</ele>
        <time>2024-05-15T08:15:56Z</time>
      </trkpt>
      <trkpt lat="44.41095" lon="1.86041">
        <ele>355.83</ele>
        <time>2024-05-15T08:16:05Z</time>
      </trkpt>
      <trkpt lat="44.41085" lon="1.8605">
        <ele>355.83</ele>
        <time>2024-05-15T08:16:14Z</time>
      </trkpt>
      <trkpt lat="44.41075" lon="1.86057">
        <ele>355.34</ele>
        <time>2024-05-15T08:16:23Z</time>
      </trkpt>
      <trkpt lat="44.41064" lon="1.86058">
        <ele>355.34</ele>
        <time>2024-05-15T08:16:32Z</time>
      </trkpt>
      <trkpt lat="44.41053" lon="1.86058">
        <ele>355.34</ele>
        <time>2024-05-15T08:16:40Z</time>
      </trkpt>
      <trkpt lat="44.4104" lon="1.86059">
        <ele>355.34</ele>
        <time>2024-05-15T08:18:03Z</time>
      </trkpt>
      <trkpt lat="44.41031" lon="1.86056">
        <ele>356.31</ele>
        <time>2024-05-15T08:18:12Z</time>
      </trkpt>
      <trkpt lat="44.41021" lon="1.86052">
        <ele>357.27</ele>
        <time>2024-05-15T08:18:20Z</time>
      </trkpt>
      <trkpt lat="44.41012" lon="1.86048">
        <ele>357.75</ele>
        <time>2024-05-15T08:18:28Z</time>
      </trkpt>
      <trkpt lat="44.41004" lon="1.86041">
        <ele>358.71</ele>
        <time>2024-05-15T08:18:36Z</time>
      </trkpt>
      <trkpt lat="44.40998" lon="1.86031">
        <ele>359.19</ele>
        <time>2024-05-15T08:18:44Z</time>
      </trkpt>
      <trkpt lat="44.40991" lon="1.86018">
        <ele>359.67</ele>
        <time>2024-05-15T08:18:53Z</time>
      </trkpt>
      <trkpt lat="44.40985" lon="1.86003">
        <ele>360.63</ele>
        <time>2024-05-15T08:19:04Z</time>
      </trkpt>
      <trkpt lat="44.40981" lon="1.85988">
        <ele>361.11</ele>
        <time>2024-05-15T08:19:26Z</time>
      </trkpt>
      <trkpt lat="44.40973" lon="1.85972">
        <ele>362.07</ele>
        <time>2024-05-15T08:19:38Z</time>
      </trkpt>
      <trkpt lat="44.40965" lon="1.85958">
        <ele>363.04</ele>
        <time>2024-05-15T08:19:47Z</time>
      </trkpt>
      <trkpt lat="44.40958" lon="1.85941">
        <ele>364</ele>
        <time>2024-05-15T08:20:04Z</time>
      </trkpt>
      <trkpt lat="44.40952" lon="1.85923">
        <ele>364.96</ele>
        <time>2024-05-15T08:20:17Z</time>
      </trkpt>
      <trkpt lat="44.40945" lon="1.85902">
        <ele>364.96</ele>
        <time>2024-05-15T08:20:27Z</time>
      </trkpt>
      <trkpt lat="44.40939" lon="1.85888">
        <ele>365.92</ele>
        <time>2024-05-15T08:20:38Z</time>
      </trkpt>
      <trkpt lat="44.40932" lon="1.85878">
        <ele>366.4</ele>
        <time>2024-05-15T08:20:47Z</time>
      </trkpt>
      <trkpt lat="44.40921" lon="1.85873">
        <ele>366.88</ele>
        <time>2024-05-15T08:20:59Z</time>
      </trkpt>
      <trkpt lat="44.40912" lon="1.85865">
        <ele>367.36</ele>
        <time>2024-05-15T08:21:07Z</time>
      </trkpt>
      <trkpt lat="44.40905" lon="1.85854">
        <ele>367.36</ele>
        <time>2024-05-15T08:21:15Z</time>
      </trkpt>
      <trkpt lat="44.409" lon="1.85844">
        <ele>367.36</ele>
        <time>2024-05-15T08:21:23Z</time>
      </trkpt>
      <trkpt lat="44.40891" lon="1.85835">
        <ele>366.4</ele>
        <time>2024-05-15T08:21:31Z</time>
      </trkpt>
      <trkpt lat="44.40883" lon="1.85827">
        <ele>366.4</ele>
        <time>2024-05-15T08:21:38Z</time>
      </trkpt>
      <trkpt lat="44.40876" lon="1.8582">
        <ele>366.4</ele>
        <time>2024-05-15T08:21:46Z</time>
      </trkpt>
      <trkpt lat="44.40868" lon="1.85811">
        <ele>365.92</ele>
        <time>2024-05-15T08:21:54Z</time>
      </trkpt>
      <trkpt lat="44.40861" lon="1.85801">
        <ele>365.44</ele>
        <time>2024-05-15T08:22:01Z</time>
      </trkpt>
      <trkpt lat="44.40854" lon="1.8579">
        <ele>364.96</ele>
        <time>2024-05-15T08:22:11Z</time>
      </trkpt>
      <trkpt lat="44.40848" lon="1.8578">
        <ele>364.48</ele>
        <time>2024-05-15T08:22:19Z</time>
      </trkpt>
      <trkpt lat="44.40841" lon="1.8577">
        <ele>364</ele>
        <time>2024-05-15T08:22:28Z</time>
      </trkpt>
      <trkpt lat="44.40836" lon="1.85757">
        <ele>364</ele>
        <time>2024-05-15T08:22:36Z</time>
      </trkpt>
      <trkpt lat="44.40827" lon="1.85755">
        <ele>364</ele>
        <time>2024-05-15T08:22:45Z</time>
      </trkpt>
      <trkpt lat="44.40824" lon="1.85763">
        <ele>364</ele>
        <time>2024-05-15T08:23:29Z</time>
      </trkpt>
      <trkpt lat="44.4082" lon="1.85766">
        <ele>365.44</ele>
        <time>2024-05-15T08:24:53Z</time>
      </trkpt>
      <trkpt lat="44.4082" lon="1.85778">
        <ele>365.92</ele>
        <time>2024-05-15T08:25:02Z</time>
      </trkpt>
      <trkpt lat="44.4082" lon="1.85792">
        <ele>366.4</ele>
        <time>2024-05-15T08:25:12Z</time>
      </trkpt>
      <trkpt lat="44.40818" lon="1.85804">
        <ele>367.36</ele>
        <time>2024-05-15T08:25:20Z</time>
      </trkpt>
      <trkpt lat="44.40817" lon="1.85817">
        <ele>368.32</ele>
        <time>2024-05-15T08:25:28Z</time>
      </trkpt>
      <trkpt lat="44.40816" lon="1.85831">
        <ele>369.28</ele>
        <time>2024-05-15T08:25:37Z</time>
      </trkpt>
      <trkpt lat="44.40815" lon="1.85844">
        <ele>369.76</ele>
        <time>2024-05-15T08:25:45Z</time>
      </trkpt>
      <trkpt lat="44.40815" lon="1.85859">
        <ele>370.73</ele>
        <time>2024-05-15T08:25:54Z</time>
      </trkpt>
      <trkpt lat="44.40815" lon="1.85873">
        <ele>371.21</ele>
        <time>2024-05-15T08:26:03Z</time>
      </trkpt>
      <trkpt lat="44.40814" lon="1.85887">
        <ele>372.17</ele>
        <time>2024-05-15T08:26:12Z</time>
      </trkpt>
      <trkpt lat="44.40812" lon="1.859">
        <ele>372.17</ele>
        <time>2024-05-15T08:26:20Z</time>
      </trkpt>
      <trkpt lat="44.40807" lon="1.85915">
        <ele>373.61</ele>
        <time>2024-05-15T08:26:29Z</time>
      </trkpt>
      <trkpt lat="44.40801" lon="1.85927">
        <ele>374.09</ele>
        <time>2024-05-15T08:26:38Z</time>
      </trkpt>
      <trkpt lat="44.40795" lon="1.85938">
        <ele>374.09</ele>
        <time>2024-05-15T08:26:47Z</time>
      </trkpt>
      <trkpt lat="44.4079" lon="1.8595">
        <ele>374.57</ele>
        <time>2024-05-15T08:26:55Z</time>
      </trkpt>
      <trkpt lat="44.40784" lon="1.85963">
        <ele>374.57</ele>
        <time>2024-05-15T08:27:04Z</time>
      </trkpt>
      <trkpt lat="44.4078" lon="1.85976">
        <ele>374.57</ele>
        <time>2024-05-15T08:27:12Z</time>
      </trkpt>
      <trkpt lat="44.40776" lon="1.85989">
        <ele>374.57</ele>
        <time>2024-05-15T08:27:25Z</time>
      </trkpt>
      <trkpt lat="44.40772" lon="1.86001">
        <ele>374.57</ele>
        <time>2024-05-15T08:27:38Z</time>
      </trkpt>
      <trkpt lat="44.40768" lon="1.86015">
        <ele>374.57</ele>
        <time>2024-05-15T08:27:46Z</time>
      </trkpt>
      <trkpt lat="44.40762" lon="1.86026">
        <ele>373.13</ele>
        <time>2024-05-15T08:27:54Z</time>
      </trkpt>
      <trkpt lat="44.40758" lon="1.86038">
        <ele>372.65</ele>
        <time>2024-05-15T08:28:02Z</time>
      </trkpt>
      <trkpt lat="44.40764" lon="1.86046">
        <ele>372.65</ele>
        <time>2024-05-15T08:28:11Z</time>
      </trkpt>
      <trkpt lat="44.40759" lon="1.86047">
        <ele>373.13</ele>
        <time>2024-05-15T08:28:25Z</time>
      </trkpt>
      <trkpt lat="44.4075" lon="1.86049">
        <ele>372.17</ele>
        <time>2024-05-15T08:28:33Z</time>
      </trkpt>
      <trkpt lat="44.40742" lon="1.86057">
        <ele>371.69</ele>
        <time>2024-05-15T08:28:41Z</time>
      </trkpt>
      <trkpt lat="44.40734" lon="1.86062">
        <ele>370.73</ele>
        <time>2024-05-15T08:28:52Z</time>
      </trkpt>
      <trkpt lat="44.40726" lon="1.8607">
        <ele>370.73</ele>
        <time>2024-05-15T08:29:07Z</time>
      </trkpt>
      <trkpt lat="44.4072" lon="1.8608">
        <ele>370.24</ele>
        <time>2024-05-15T08:29:15Z</time>
      </trkpt>
      <trkpt lat="44.40714" lon="1.8609">
        <ele>369.76</ele>
        <time>2024-05-15T08:29:22Z</time>
      </trkpt>
      <trkpt lat="44.40708" lon="1.861">
        <ele>369.28</ele>
        <time>2024-05-15T08:29:29Z</time>
      </trkpt>
      <trkpt lat="44.40702" lon="1.8611">
        <ele>368.8</ele>
        <time>2024-05-15T08:29:38Z</time>
      </trkpt>
      <trkpt lat="44.40695" lon="1.86121">
        <ele>368.32</ele>
        <time>2024-05-15T08:29:46Z</time>
      </trkpt>
      <trkpt lat="44.40688" lon="1.8613">
        <ele>367.84</ele>
        <time>2024-05-15T08:29:54Z</time>
      </trkpt>
      <trkpt lat="44.40681" lon="1.86138">
        <ele>367.36</ele>
        <time>2024-05-15T08:30:01Z</time>
      </trkpt>
      <trkpt lat="44.40673" lon="1.86148">
        <ele>366.4</ele>
        <time>2024-05-15T08:30:09Z</time>
      </trkpt>
      <trkpt lat="44.40666" lon="1.86157">
        <ele>365.92</ele>
        <time>2024-05-15T08:30:17Z</time>
      </trkpt>
      <trkpt lat="44.40662" lon="1.86168">
        <ele>364.96</ele>
        <time>2024-05-15T08:30:24Z</time>
      </trkpt>
      <trkpt lat="44.4066" lon="1.86183">
        <ele>364</ele>
        <time>2024-05-15T08:30:33Z</time>
      </trkpt>
      <trkpt lat="44.40655" lon="1.86197">
        <ele>363.04</ele>
        <time>2024-05-15T08:30:42Z</time>
      </trkpt>
      <trkpt lat="44.40649" lon="1.86208">
        <ele>361.59</ele>
        <time>2024-05-15T08:30:49Z</time>
      </trkpt>
      <trkpt lat="44.40643" lon="1.86219">
        <ele>361.11</ele>
        <time>2024-05-15T08:30:57Z</time>
      </trkpt>
      <trkpt lat="44.40638" lon="1.86231">
        <ele>359.67</ele>
        <time>2024-05-15T08:31:05Z</time>
      </trkpt>
      <trkpt lat="44.40634" lon="1.86243">
        <ele>359.19</ele>
        <time>2024-05-15T08:31:13Z</time>
      </trkpt>
      <trkpt lat="44.4063" lon="1.86256">
        <ele>358.23</ele>
        <time>2024-05-15T08:31:21Z</time>
      </trkpt>
      <trkpt lat="44.40626" lon="1.86269">
        <ele>356.79</ele>
        <time>2024-05-15T08:31:30Z</time>
      </trkpt>
      <trkpt lat="44.40622" lon="1.86286">
        <ele>355.83</ele>
        <time>2024-05-15T08:31:39Z</time>
      </trkpt>
      <trkpt lat="44.40619" lon="1.86299">
        <ele>355.34</ele>
        <time>2024-05-15T08:31:47Z</time>
      </trkpt>
      <trkpt lat="44.40615" lon="1.86313">
        <ele>353.9</ele>
        <time>2024-05-15T08:31:56Z</time>
      </trkpt>
      <trkpt lat="44.40611" lon="1.86328">
        <ele>353.42</ele>
        <time>2024-05-15T08:32:05Z</time>
      </trkpt>
      <trkpt lat="44.40607" lon="1.86343">
        <ele>352.94</ele>
        <time>2024-05-15T08:32:14Z</time>
      </trkpt>
      <trkpt lat="44.40604" lon="1.86357">
        <ele>351.98</ele>
        <time>2024-05-15T08:32:22Z</time>
      </trkpt>
      <trkpt lat="44.40601" lon="1.86371">
        <ele>351.5</ele>
        <time>2024-05-15T08:32:31Z</time>
      </trkpt>
      <trkpt lat="44.40599" lon="1.86385">
        <ele>351.02</ele>
        <time>2024-05-15T08:32:39Z</time>
      </trkpt>
      <trkpt lat="44.40597" lon="1.86399">
        <ele>350.54</ele>
        <time>2024-05-15T08:32:47Z</time>
      </trkpt>
      <trkpt lat="44.40593" lon="1.86413">
        <ele>350.06</ele>
        <time>2024-05-15T08:32:56Z</time>
      </trkpt>
      <trkpt lat="44.40591" lon="1.86428">
        <ele>349.1</ele>
        <time>2024-05-15T08:33:04Z</time>
      </trkpt>
      <trkpt lat="44.40589" lon="1.86442">
        <ele>348.62</ele>
        <time>2024-05-15T08:33:12Z</time>
      </trkpt>
      <trkpt lat="44.40586" lon="1.86457">
        <ele>347.65</ele>
        <time>2024-05-15T08:33:21Z</time>
      </trkpt>
      <trkpt lat="44.40582" lon="1.86472">
        <ele>347.17</ele>
        <time>2024-05-15T08:33:30Z</time>
      </trkpt>
      <trkpt lat="44.4058" lon="1.86486">
        <ele>346.69</ele>
        <time>2024-05-15T08:33:38Z</time>
      </trkpt>
      <trkpt lat="44.40578" lon="1.86501">
        <ele>346.21</ele>
        <time>2024-05-15T08:33:46Z</time>
      </trkpt>
      <trkpt lat="44.40577" lon="1.86516">
        <ele>345.25</ele>
        <time>2024-05-15T08:33:54Z</time>
      </trkpt>
      <trkpt lat="44.40577" lon="1.8653">
        <ele>344.77</ele>
        <time>2024-05-15T08:34:02Z</time>
      </trkpt>
      <trkpt lat="44.40577" lon="1.86547">
        <ele>344.29</ele>
        <time>2024-05-15T08:34:11Z</time>
      </trkpt>
      <trkpt lat="44.40575" lon="1.86562">
        <ele>343.81</ele>
        <time>2024-05-15T08:34:19Z</time>
      </trkpt>
      <trkpt lat="44.40574" lon="1.86577">
        <ele>343.33</ele>
        <time>2024-05-15T08:34:27Z</time>
      </trkpt>
      <trkpt lat="44.40571" lon="1.86591">
        <ele>343.33</ele>
        <time>2024-05-15T08:34:35Z</time>
      </trkpt>
      <trkpt lat="44.40566" lon="1.86602">
        <ele>342.85</ele>
        <time>2024-05-15T08:34:43Z</time>
      </trkpt>
      <trkpt lat="44.40559" lon="1.86613">
        <ele>342.37</ele>
        <time>2024-05-15T08:34:51Z</time>
      </trkpt>
      <trkpt lat="44.40553" lon="1.86624">
        <ele>342.37</ele>
        <time>2024-05-15T08:34:59Z</time>
      </trkpt>
      <trkpt lat="44.40548" lon="1.86637">
        <ele>342.37</ele>
        <time>2024-05-15T08:35:08Z</time>
      </trkpt>
      <trkpt lat="44.40548" lon="1.86653">
        <ele>342.37</ele>
        <time>2024-05-15T08:35:17Z</time>
      </trkpt>
      <trkpt lat="44.4055" lon="1.86668">
        <ele>342.37</ele>
        <time>2024-05-15T08:35:26Z</time>
      </trkpt>
      <trkpt lat="44.40554" lon="1.86683">
        <ele>342.37</ele>
        <time>2024-05-15T08:35:36Z</time>
      </trkpt>
      <trkpt lat="44.40558" lon="1.86696">
        <ele>342.37</ele>
        <time>2024-05-15T08:35:45Z</time>
      </trkpt>
      <trkpt lat="44.40562" lon="1.86709">
        <ele>342.37</ele>
        <time>2024-05-15T08:35:53Z</time>
      </trkpt>
      <trkpt lat="44.40567" lon="1.86718">
        <ele>344.29</ele>
        <time>2024-05-15T08:36:06Z</time>
      </trkpt>
      <trkpt lat="44.40573" lon="1.86727">
        <ele>341.41</ele>
        <time>2024-05-15T09:24:24Z</time>
      </trkpt>
      <trkpt lat="44.4058" lon="1.86737">
        <ele>341.41</ele>
        <time>2024-05-15T09:24:48Z</time>
      </trkpt>
      <trkpt lat="44.40587" lon="1.86748">
        <ele>341.41</ele>
        <time>2024-05-15T09:24:57Z</time>
      </trkpt>
      <trkpt lat="44.40594" lon="1.86758">
        <ele>342.37</ele>
        <time>2024-05-15T09:25:07Z</time>
      </trkpt>
      <trkpt lat="44.40603" lon="1.86768">
        <ele>342.37</ele>
        <time>2024-05-15T09:25:17Z</time>
      </trkpt>
      <trkpt lat="44.40612" lon="1.86781">
        <ele>342.37</ele>
        <time>2024-05-15T09:25:27Z</time>
      </trkpt>
      <trkpt lat="44.40624" lon="1.86796">
        <ele>342.85</ele>
        <time>2024-05-15T09:25:37Z</time>
      </trkpt>
      <trkpt lat="44.40632" lon="1.8681">
        <ele>342.85</ele>
        <time>2024-05-15T09:25:47Z</time>
      </trkpt>
      <trkpt lat="44.4064" lon="1.86822">
        <ele>342.85</ele>
        <time>2024-05-15T09:25:57Z</time>
      </trkpt>
      <trkpt lat="44.40651" lon="1.86834">
        <ele>343.33</ele>
        <time>2024-05-15T09:26:09Z</time>
      </trkpt>
      <trkpt lat="44.40661" lon="1.86845">
        <ele>343.33</ele>
        <time>2024-05-15T09:26:20Z</time>
      </trkpt>
      <trkpt lat="44.40673" lon="1.86854">
        <ele>343.33</ele>
        <time>2024-05-15T09:26:32Z</time>
      </trkpt>
      <trkpt lat="44.40683" lon="1.86864">
        <ele>343.33</ele>
        <time>2024-05-15T09:26:43Z</time>
      </trkpt>
      <trkpt lat="44.40694" lon="1.86874">
        <ele>343.33</ele>
        <time>2024-05-15T09:26:53Z</time>
      </trkpt>
      <trkpt lat="44.40706" lon="1.86885">
        <ele>343.33</ele>
        <time>2024-05-15T09:27:04Z</time>
      </trkpt>
      <trkpt lat="44.40714" lon="1.86893">
        <ele>343.33</ele>
        <time>2024-05-15T09:27:13Z</time>
      </trkpt>
      <trkpt lat="44.40724" lon="1.86902">
        <ele>343.33</ele>
        <time>2024-05-15T09:27:22Z</time>
      </trkpt>
      <trkpt lat="44.40734" lon="1.86911">
        <ele>343.33</ele>
        <time>2024-05-15T09:27:31Z</time>
      </trkpt>
      <trkpt lat="44.40746" lon="1.86914">
        <ele>343.33</ele>
        <time>2024-05-15T09:27:41Z</time>
      </trkpt>
      <trkpt lat="44.40754" lon="1.86903">
        <ele>343.33</ele>
        <time>2024-05-15T09:27:51Z</time>
      </trkpt>
      <trkpt lat="44.4076" lon="1.86891">
        <ele>343.33</ele>
        <time>2024-05-15T09:28:00Z</time>
      </trkpt>
      <trkpt lat="44.40769" lon="1.86883">
        <ele>342.37</ele>
        <time>2024-05-15T09:28:08Z</time>
      </trkpt>
      <trkpt lat="44.4078" lon="1.86888">
        <ele>342.37</ele>
        <time>2024-05-15T09:28:17Z</time>
      </trkpt>
      <trkpt lat="44.40789" lon="1.86897">
        <ele>341.89</ele>
        <time>2024-05-15T09:28:27Z</time>
      </trkpt>
      <trkpt lat="44.40799" lon="1.86905">
        <ele>341.89</ele>
        <time>2024-05-15T09:28:37Z</time>
      </trkpt>
      <trkpt lat="44.40809" lon="1.86913">
        <ele>341.89</ele>
        <time>2024-05-15T09:28:48Z</time>
      </trkpt>
      <trkpt lat="44.40819" lon="1.86923">
        <ele>341.41</ele>
        <time>2024-05-15T09:29:00Z</time>
      </trkpt>
      <trkpt lat="44.40831" lon="1.86934">
        <ele>341.41</ele>
        <time>2024-05-15T09:29:12Z</time>
      </trkpt>
      <trkpt lat="44.40843" lon="1.86943">
        <ele>342.85</ele>
        <time>2024-05-15T09:29:22Z</time>
      </trkpt>
      <trkpt lat="44.40853" lon="1.8695">
        <ele>343.33</ele>
        <time>2024-05-15T09:29:32Z</time>
      </trkpt>
      <trkpt lat="44.40865" lon="1.86958">
        <ele>343.33</ele>
        <time>2024-05-15T09:29:42Z</time>
      </trkpt>
      <trkpt lat="44.40874" lon="1.86966">
        <ele>343.81</ele>
        <time>2024-05-15T09:29:52Z</time>
      </trkpt>
      <trkpt lat="44.40884" lon="1.86973">
        <ele>344.29</ele>
        <time>2024-05-15T09:30:01Z</time>
      </trkpt>
      <trkpt lat="44.40895" lon="1.86981">
        <ele>344.77</ele>
        <time>2024-05-15T09:30:16Z</time>
      </trkpt>
      <trkpt lat="44.40905" lon="1.86989">
        <ele>344.77</ele>
        <time>2024-05-15T09:30:32Z</time>
      </trkpt>
      <trkpt lat="44.4091" lon="1.87002">
        <ele>344.77</ele>
        <time>2024-05-15T09:30:41Z</time>
      </trkpt>
      <trkpt lat="44.40911" lon="1.87015">
        <ele>344.77</ele>
        <time>2024-05-15T09:30:50Z</time>
      </trkpt>
      <trkpt lat="44.40912" lon="1.87029">
        <ele>342.85</ele>
        <time>2024-05-15T09:31:00Z</time>
      </trkpt>
      <trkpt lat="44.40919" lon="1.87038">
        <ele>341.41</ele>
        <time>2024-05-15T09:31:10Z</time>
      </trkpt>
      <trkpt lat="44.40929" lon="1.87044">
        <ele>339.96</ele>
        <time>2024-05-15T09:31:31Z</time>
      </trkpt>
      <trkpt lat="44.40938" lon="1.87041">
        <ele>339</ele>
        <time>2024-05-15T09:31:50Z</time>
      </trkpt>
      <trkpt lat="44.40951" lon="1.87038">
        <ele>337.08</ele>
        <time>2024-05-15T09:32:03Z</time>
      </trkpt>
      <trkpt lat="44.40963" lon="1.87036">
        <ele>335.16</ele>
        <time>2024-05-15T09:32:14Z</time>
      </trkpt>
      <trkpt lat="44.40975" lon="1.87032">
        <ele>333.71</ele>
        <time>2024-05-15T09:32:26Z</time>
      </trkpt>
      <trkpt lat="44.40987" lon="1.87031">
        <ele>331.79</ele>
        <time>2024-05-15T09:32:38Z</time>
      </trkpt>
      <trkpt lat="44.41" lon="1.8703">
        <ele>329.87</ele>
        <time>2024-05-15T09:32:52Z</time>
      </trkpt>
      <trkpt lat="44.41018" lon="1.87029">
        <ele>327.47</ele>
        <time>2024-05-15T09:33:07Z</time>
      </trkpt>
      <trkpt lat="44.41032" lon="1.87028">
        <ele>326.02</ele>
        <time>2024-05-15T09:33:20Z</time>
      </trkpt>
      <trkpt lat="44.41045" lon="1.87029">
        <ele>324.1</ele>
        <time>2024-05-15T09:33:34Z</time>
      </trkpt>
      <trkpt lat="44.41056" lon="1.8703">
        <ele>322.66</ele>
        <time>2024-05-15T09:33:45Z</time>
      </trkpt>
      <trkpt lat="44.41068" lon="1.87033">
        <ele>321.22</ele>
        <time>2024-05-15T09:33:57Z</time>
      </trkpt>
      <trkpt lat="44.41082" lon="1.87036">
        <ele>319.78</ele>
        <time>2024-05-15T09:34:07Z</time>
      </trkpt>
      <trkpt lat="44.41093" lon="1.8704">
        <ele>318.33</ele>
        <time>2024-05-15T09:34:17Z</time>
      </trkpt>
      <trkpt lat="44.41105" lon="1.8704">
        <ele>317.37</ele>
        <time>2024-05-15T09:34:27Z</time>
      </trkpt>
      <trkpt lat="44.41117" lon="1.87042">
        <ele>316.41</ele>
        <time>2024-05-15T09:34:37Z</time>
      </trkpt>
      <trkpt lat="44.41128" lon="1.87047">
        <ele>314.49</ele>
        <time>2024-05-15T09:34:47Z</time>
      </trkpt>
      <trkpt lat="44.41138" lon="1.87052">
        <ele>313.53</ele>
        <time>2024-05-15T09:34:57Z</time>
      </trkpt>
      <trkpt lat="44.41148" lon="1.87058">
        <ele>312.09</ele>
        <time>2024-05-15T09:35:07Z</time>
      </trkpt>
      <trkpt lat="44.41159" lon="1.87064">
        <ele>310.64</ele>
        <time>2024-05-15T09:35:18Z</time>
      </trkpt>
      <trkpt lat="44.41169" lon="1.8707">
        <ele>309.2</ele>
        <time>2024-05-15T09:35:28Z</time>
      </trkpt>
      <trkpt lat="44.4118" lon="1.87076">
        <ele>308.24</ele>
        <time>2024-05-15T09:35:39Z</time>
      </trkpt>
      <trkpt lat="44.41191" lon="1.87082">
        <ele>306.8</ele>
        <time>2024-05-15T09:35:49Z</time>
      </trkpt>
      <trkpt lat="44.412" lon="1.8709">
        <ele>306.32</ele>
        <time>2024-05-15T09:35:59Z</time>
      </trkpt>
      <trkpt lat="44.41209" lon="1.87097">
        <ele>305.36</ele>
        <time>2024-05-15T09:36:08Z</time>
      </trkpt>
      <trkpt lat="44.41218" lon="1.87104">
        <ele>304.39</ele>
        <time>2024-05-15T09:36:17Z</time>
      </trkpt>
      <trkpt lat="44.41228" lon="1.87113">
        <ele>303.43</ele>
        <time>2024-05-15T09:36:28Z</time>
      </trkpt>
      <trkpt lat="44.41238" lon="1.87124">
        <ele>301.51</ele>
        <time>2024-05-15T09:36:49Z</time>
      </trkpt>
      <trkpt lat="44.41248" lon="1.87137">
        <ele>301.03</ele>
        <time>2024-05-15T09:37:01Z</time>
      </trkpt>
      <trkpt lat="44.41257" lon="1.87146">
        <ele>299.11</ele>
        <time>2024-05-15T09:37:12Z</time>
      </trkpt>
      <trkpt lat="44.41267" lon="1.87155">
        <ele>298.63</ele>
        <time>2024-05-15T09:37:23Z</time>
      </trkpt>
      <trkpt lat="44.41275" lon="1.87165">
        <ele>296.7</ele>
        <time>2024-05-15T09:37:35Z</time>
      </trkpt>
      <trkpt lat="44.41285" lon="1.87173">
        <ele>294.3</ele>
        <time>2024-05-15T09:37:48Z</time>
      </trkpt>
      <trkpt lat="44.41296" lon="1.87179">
        <ele>292.86</ele>
        <time>2024-05-15T09:38:02Z</time>
      </trkpt>
      <trkpt lat="44.41308" lon="1.87177">
        <ele>291.42</ele>
        <time>2024-05-15T09:38:16Z</time>
      </trkpt>
      <trkpt lat="44.41325" lon="1.87175">
        <ele>289.97</ele>
        <time>2024-05-15T09:38:28Z</time>
      </trkpt>
      <trkpt lat="44.41342" lon="1.87171">
        <ele>287.57</ele>
        <time>2024-05-15T09:38:45Z</time>
      </trkpt>
      <trkpt lat="44.41356" lon="1.87166">
        <ele>285.17</ele>
        <time>2024-05-15T09:39:02Z</time>
      </trkpt>
      <trkpt lat="44.4137" lon="1.87164">
        <ele>283.73</ele>
        <time>2024-05-15T09:39:16Z</time>
      </trkpt>
      <trkpt lat="44.41384" lon="1.87163">
        <ele>282.28</ele>
        <time>2024-05-15T09:39:30Z</time>
      </trkpt>
      <trkpt lat="44.41397" lon="1.87167">
        <ele>279.88</ele>
        <time>2024-05-15T09:39:45Z</time>
      </trkpt>
      <trkpt lat="44.41414" lon="1.87179">
        <ele>277.48</ele>
        <time>2024-05-15T09:40:02Z</time>
      </trkpt>
      <trkpt lat="44.41427" lon="1.87188">
        <ele>275.07</ele>
        <time>2024-05-15T09:40:17Z</time>
      </trkpt>
      <trkpt lat="44.41442" lon="1.87201">
        <ele>273.63</ele>
        <time>2024-05-15T09:40:31Z</time>
      </trkpt>
      <trkpt lat="44.41453" lon="1.87208">
        <ele>272.19</ele>
        <time>2024-05-15T09:40:43Z</time>
      </trkpt>
      <trkpt lat="44.41463" lon="1.87222">
        <ele>271.23</ele>
        <time>2024-05-15T09:40:57Z</time>
      </trkpt>
      <trkpt lat="44.41476" lon="1.8723">
        <ele>270.75</ele>
        <time>2024-05-15T09:44:54Z</time>
      </trkpt>
      <trkpt lat="44.41491" lon="1.87225">
        <ele>270.75</ele>
        <time>2024-05-15T09:45:08Z</time>
      </trkpt>
      <trkpt lat="44.415" lon="1.87221">
        <ele>270.75</ele>
        <time>2024-05-15T09:45:17Z</time>
      </trkpt>
      <trkpt lat="44.41512" lon="1.87216">
        <ele>270.75</ele>
        <time>2024-05-15T09:45:28Z</time>
      </trkpt>
      <trkpt lat="44.41525" lon="1.87211">
        <ele>270.75</ele>
        <time>2024-05-15T09:45:39Z</time>
      </trkpt>
      <trkpt lat="44.41536" lon="1.87207">
        <ele>270.75</ele>
        <time>2024-05-15T09:45:49Z</time>
      </trkpt>
      <trkpt lat="44.41552" lon="1.87204">
        <ele>270.27</ele>
        <time>2024-05-15T09:46:00Z</time>
      </trkpt>
      <trkpt lat="44.41562" lon="1.87198">
        <ele>270.27</ele>
        <time>2024-05-15T09:46:10Z</time>
      </trkpt>
      <trkpt lat="44.41574" lon="1.87185">
        <ele>269.31</ele>
        <time>2024-05-15T09:46:21Z</time>
      </trkpt>
      <trkpt lat="44.41583" lon="1.8717">
        <ele>268.83</ele>
        <time>2024-05-15T09:46:31Z</time>
      </trkpt>
      <trkpt lat="44.41592" lon="1.87162">
        <ele>268.83</ele>
        <time>2024-05-15T09:46:40Z</time>
      </trkpt>
      <trkpt lat="44.41603" lon="1.87158">
        <ele>268.83</ele>
        <time>2024-05-15T09:46:50Z</time>
      </trkpt>
      <trkpt lat="44.41614" lon="1.87156">
        <ele>268.35</ele>
        <time>2024-05-15T09:46:59Z</time>
      </trkpt>
      <trkpt lat="44.41625" lon="1.87155">
        <ele>268.35</ele>
        <time>2024-05-15T09:47:08Z</time>
      </trkpt>
      <trkpt lat="44.41638" lon="1.87152">
        <ele>267.86</ele>
        <time>2024-05-15T09:47:21Z</time>
      </trkpt>
      <trkpt lat="44.41654" lon="1.87154">
        <ele>267.86</ele>
        <time>2024-05-15T09:47:32Z</time>
      </trkpt>
      <trkpt lat="44.41665" lon="1.87159">
        <ele>267.38</ele>
        <time>2024-05-15T09:47:41Z</time>
      </trkpt>
      <trkpt lat="44.41675" lon="1.87162">
        <ele>266.9</ele>
        <time>2024-05-15T09:47:50Z</time>
      </trkpt>
      <trkpt lat="44.41685" lon="1.87165">
        <ele>266.9</ele>
        <time>2024-05-15T09:47:59Z</time>
      </trkpt>
      <trkpt lat="44.41697" lon="1.87168">
        <ele>266.42</ele>
        <time>2024-05-15T09:48:09Z</time>
      </trkpt>
      <trkpt lat="44.41709" lon="1.87174">
        <ele>266.42</ele>
        <time>2024-05-15T09:48:18Z</time>
      </trkpt>
      <trkpt lat="44.41721" lon="1.87175">
        <ele>265.94</ele>
        <time>2024-05-15T09:48:26Z</time>
      </trkpt>
      <trkpt lat="44.41733" lon="1.87174">
        <ele>265.94</ele>
        <time>2024-05-15T09:48:35Z</time>
      </trkpt>
      <trkpt lat="44.41746" lon="1.87176">
        <ele>265.94</ele>
        <time>2024-05-15T09:48:44Z</time>
      </trkpt>
      <trkpt lat="44.41759" lon="1.87169">
        <ele>265.46</ele>
        <time>2024-05-15T09:48:55Z</time>
      </trkpt>
      <trkpt lat="44.41772" lon="1.87164">
        <ele>265.46</ele>
        <time>2024-05-15T09:49:05Z</time>
      </trkpt>
      <trkpt lat="44.41784" lon="1.87158">
        <ele>264.98</ele>
        <time>2024-05-15T09:49:16Z</time>
      </trkpt>
      <trkpt lat="44.41796" lon="1.87147">
        <ele>264.5</ele>
        <time>2024-05-15T09:49:26Z</time>
      </trkpt>
      <trkpt lat="44.41806" lon="1.87135">
        <ele>264.5</ele>
        <time>2024-05-15T09:49:37Z</time>
      </trkpt>
      <trkpt lat="44.41815" lon="1.87123">
        <ele>264.02</ele>
        <time>2024-05-15T09:49:45Z</time>
      </trkpt>
      <trkpt lat="44.41823" lon="1.87111">
        <ele>264.02</ele>
        <time>2024-05-15T09:49:54Z</time>
      </trkpt>
      <trkpt lat="44.41831" lon="1.87099">
        <ele>263.54</ele>
        <time>2024-05-15T09:50:04Z</time>
      </trkpt>
      <trkpt lat="44.4184" lon="1.87088">
        <ele>263.06</ele>
        <time>2024-05-15T09:50:13Z</time>
      </trkpt>
      <trkpt lat="44.41852" lon="1.87085">
        <ele>263.06</ele>
        <time>2024-05-15T09:50:24Z</time>
      </trkpt>
      <trkpt lat="44.41865" lon="1.87085">
        <ele>262.1</ele>
        <time>2024-05-15T09:50:33Z</time>
      </trkpt>
      <trkpt lat="44.41876" lon="1.87089">
        <ele>262.1</ele>
        <time>2024-05-15T09:50:42Z</time>
      </trkpt>
      <trkpt lat="44.41887" lon="1.87092">
        <ele>261.62</ele>
        <time>2024-05-15T09:50:51Z</time>
      </trkpt>
      <trkpt lat="44.41897" lon="1.87096">
        <ele>261.62</ele>
        <time>2024-05-15T09:50:59Z</time>
      </trkpt>
      <trkpt lat="44.41908" lon="1.87099">
        <ele>261.14</ele>
        <time>2024-05-15T09:51:09Z</time>
      </trkpt>
      <trkpt lat="44.41919" lon="1.87101">
        <ele>261.14</ele>
        <time>2024-05-15T09:51:19Z</time>
      </trkpt>
      <trkpt lat="44.41931" lon="1.87105">
        <ele>260.65</ele>
        <time>2024-05-15T09:51:28Z</time>
      </trkpt>
      <trkpt lat="44.41943" lon="1.87109">
        <ele>260.65</ele>
        <time>2024-05-15T09:51:39Z</time>
      </trkpt>
      <trkpt lat="44.41955" lon="1.87109">
        <ele>260.65</ele>
        <time>2024-05-15T09:51:48Z</time>
      </trkpt>
      <trkpt lat="44.41967" lon="1.87108">
        <ele>260.17</ele>
        <time>2024-05-15T09:51:57Z</time>
      </trkpt>
      <trkpt lat="44.41978" lon="1.87106">
        <ele>260.17</ele>
        <time>2024-05-15T09:52:05Z</time>
      </trkpt>
      <trkpt lat="44.41985" lon="1.871">
        <ele>260.17</ele>
        <time>2024-05-15T09:52:23Z</time>
      </trkpt>
      <trkpt lat="44.41985" lon="1.87097">
        <ele>260.17</ele>
        <time>2024-05-15T09:54:17Z</time>
      </trkpt>
      <trkpt lat="44.41996" lon="1.87092">
        <ele>260.17</ele>
        <time>2024-05-15T09:54:25Z</time>
      </trkpt>
      <trkpt lat="44.42008" lon="1.87087">
        <ele>260.17</ele>
        <time>2024-05-15T09:54:36Z</time>
      </trkpt>
      <trkpt lat="44.42022" lon="1.87079">
        <ele>259.69</ele>
        <time>2024-05-15T09:54:57Z</time>
      </trkpt>
      <trkpt lat="44.42032" lon="1.87077">
        <ele>259.69</ele>
        <time>2024-05-15T09:55:07Z</time>
      </trkpt>
      <trkpt lat="44.42044" lon="1.87074">
        <ele>260.17</ele>
        <time>2024-05-15T09:55:19Z</time>
      </trkpt>
      <trkpt lat="44.42055" lon="1.87071">
        <ele>260.17</ele>
        <time>2024-05-15T09:55:30Z</time>
      </trkpt>
      <trkpt lat="44.42068" lon="1.8707">
        <ele>260.17</ele>
        <time>2024-05-15T09:55:41Z</time>
      </trkpt>
      <trkpt lat="44.42082" lon="1.87073">
        <ele>260.17</ele>
        <time>2024-05-15T09:55:50Z</time>
      </trkpt>
      <trkpt lat="44.42093" lon="1.87079">
        <ele>260.17</ele>
        <time>2024-05-15T09:55:59Z</time>
      </trkpt>
      <trkpt lat="44.42104" lon="1.87085">
        <ele>260.17</ele>
        <time>2024-05-15T09:56:08Z</time>
      </trkpt>
      <trkpt lat="44.42114" lon="1.87092">
        <ele>260.17</ele>
        <time>2024-05-15T09:56:17Z</time>
      </trkpt>
      <trkpt lat="44.42124" lon="1.871">
        <ele>260.17</ele>
        <time>2024-05-15T09:56:27Z</time>
      </trkpt>
      <trkpt lat="44.42135" lon="1.87107">
        <ele>259.69</ele>
        <time>2024-05-15T09:56:35Z</time>
      </trkpt>
      <trkpt lat="44.42145" lon="1.87114">
        <ele>259.69</ele>
        <time>2024-05-15T09:56:44Z</time>
      </trkpt>
      <trkpt lat="44.42155" lon="1.87122">
        <ele>259.69</ele>
        <time>2024-05-15T09:56:52Z</time>
      </trkpt>
      <trkpt lat="44.42163" lon="1.87131">
        <ele>259.69</ele>
        <time>2024-05-15T09:57:00Z</time>
      </trkpt>
      <trkpt lat="44.42171" lon="1.87142">
        <ele>258.73</ele>
        <time>2024-05-15T09:57:08Z</time>
      </trkpt>
      <trkpt lat="44.42179" lon="1.87153">
        <ele>257.77</ele>
        <time>2024-05-15T09:57:17Z</time>
      </trkpt>
      <trkpt lat="44.42187" lon="1.87163">
        <ele>257.29</ele>
        <time>2024-05-15T09:57:25Z</time>
      </trkpt>
      <trkpt lat="44.42189" lon="1.87179">
        <ele>257.29</ele>
        <time>2024-05-15T09:57:35Z</time>
      </trkpt>
      <trkpt lat="44.42185" lon="1.87194">
        <ele>257.29</ele>
        <time>2024-05-15T09:57:46Z</time>
      </trkpt>
      <trkpt lat="44.42181" lon="1.87208">
        <ele>257.29</ele>
        <time>2024-05-15T09:57:55Z</time>
      </trkpt>
      <trkpt lat="44.42177" lon="1.87223">
        <ele>259.69</ele>
        <time>2024-05-15T09:58:05Z</time>
      </trkpt>
      <trkpt lat="44.42178" lon="1.87239">
        <ele>260.17</ele>
        <time>2024-05-15T09:58:14Z</time>
      </trkpt>
      <trkpt lat="44.42183" lon="1.87252">
        <ele>260.65</ele>
        <time>2024-05-15T09:58:23Z</time>
      </trkpt>
      <trkpt lat="44.42187" lon="1.87262">
        <ele>261.14</ele>
        <time>2024-05-15T09:58:33Z</time>
      </trkpt>
      <trkpt lat="44.42196" lon="1.87267">
        <ele>261.62</ele>
        <time>2024-05-15T09:58:43Z</time>
      </trkpt>
      <trkpt lat="44.42206" lon="1.87269">
        <ele>261.62</ele>
        <time>2024-05-15T09:58:53Z</time>
      </trkpt>
      <trkpt lat="44.42217" lon="1.87274">
        <ele>261.62</ele>
        <time>2024-05-15T09:59:04Z</time>
      </trkpt>
      <trkpt lat="44.42226" lon="1.87284">
        <ele>262.1</ele>
        <time>2024-05-15T09:59:27Z</time>
      </trkpt>
      <trkpt lat="44.42235" lon="1.87295">
        <ele>262.1</ele>
        <time>2024-05-15T09:59:38Z</time>
      </trkpt>
      <trkpt lat="44.42243" lon="1.87304">
        <ele>262.1</ele>
        <time>2024-05-15T09:59:47Z</time>
      </trkpt>
      <trkpt lat="44.42253" lon="1.87314">
        <ele>262.1</ele>
        <time>2024-05-15T10:00:07Z</time>
      </trkpt>
      <trkpt lat="44.42261" lon="1.87322">
        <ele>262.1</ele>
        <time>2024-05-15T10:00:15Z</time>
      </trkpt>
      <trkpt lat="44.42271" lon="1.87331">
        <ele>262.1</ele>
        <time>2024-05-15T10:00:24Z</time>
      </trkpt>
      <trkpt lat="44.4228" lon="1.8734">
        <ele>262.1</ele>
        <time>2024-05-15T10:00:32Z</time>
      </trkpt>
      <trkpt lat="44.4229" lon="1.87348">
        <ele>262.1</ele>
        <time>2024-05-15T10:00:40Z</time>
      </trkpt>
      <trkpt lat="44.42301" lon="1.87353">
        <ele>262.1</ele>
        <time>2024-05-15T10:00:49Z</time>
      </trkpt>
      <trkpt lat="44.42311" lon="1.87353">
        <ele>260.17</ele>
        <time>2024-05-15T10:00:57Z</time>
      </trkpt>
      <trkpt lat="44.42323" lon="1.87351">
        <ele>258.73</ele>
        <time>2024-05-15T10:01:07Z</time>
      </trkpt>
      <trkpt lat="44.42334" lon="1.87354">
        <ele>257.77</ele>
        <time>2024-05-15T10:01:16Z</time>
      </trkpt>
      <trkpt lat="44.42345" lon="1.87351">
        <ele>256.33</ele>
        <time>2024-05-15T10:01:25Z</time>
      </trkpt>
      <trkpt lat="44.42355" lon="1.87349">
        <ele>255.37</ele>
        <time>2024-05-15T10:01:34Z</time>
      </trkpt>
      <trkpt lat="44.42365" lon="1.87347">
        <ele>254.41</ele>
        <time>2024-05-15T10:01:42Z</time>
      </trkpt>
      <trkpt lat="44.42376" lon="1.87344">
        <ele>253.93</ele>
        <time>2024-05-15T10:01:50Z</time>
      </trkpt>
      <trkpt lat="44.42385" lon="1.87337">
        <ele>253.44</ele>
        <time>2024-05-15T10:01:59Z</time>
      </trkpt>
      <trkpt lat="44.42394" lon="1.8733">
        <ele>252.96</ele>
        <time>2024-05-15T10:02:07Z</time>
      </trkpt>
      <trkpt lat="44.42402" lon="1.87321">
        <ele>252.48</ele>
        <time>2024-05-15T10:02:17Z</time>
      </trkpt>
      <trkpt lat="44.42413" lon="1.87314">
        <ele>252.48</ele>
        <time>2024-05-15T10:02:26Z</time>
      </trkpt>
      <trkpt lat="44.42423" lon="1.8731">
        <ele>252.48</ele>
        <time>2024-05-15T10:02:35Z</time>
      </trkpt>
      <trkpt lat="44.42432" lon="1.87307">
        <ele>252.48</ele>
        <time>2024-05-15T10:02:42Z</time>
      </trkpt>
      <trkpt lat="44.42441" lon="1.87304">
        <ele>252.48</ele>
        <time>2024-05-15T10:02:50Z</time>
      </trkpt>
      <trkpt lat="44.42451" lon="1.87302">
        <ele>252.48</ele>
        <time>2024-05-15T10:02:58Z</time>
      </trkpt>
      <trkpt lat="44.4246" lon="1.87299">
        <ele>253.93</ele>
        <time>2024-05-15T10:03:06Z</time>
      </trkpt>
      <trkpt lat="44.42469" lon="1.87295">
        <ele>254.41</ele>
        <time>2024-05-15T10:03:16Z</time>
      </trkpt>
      <trkpt lat="44.4248" lon="1.8729">
        <ele>254.89</ele>
        <time>2024-05-15T10:03:25Z</time>
      </trkpt>
      <trkpt lat="44.42489" lon="1.87285">
        <ele>255.37</ele>
        <time>2024-05-15T10:03:34Z</time>
      </trkpt>
      <trkpt lat="44.42499" lon="1.87281">
        <ele>256.33</ele>
        <time>2024-05-15T10:03:43Z</time>
      </trkpt>
      <trkpt lat="44.42509" lon="1.87277">
        <ele>256.33</ele>
        <time>2024-05-15T10:03:52Z</time>
      </trkpt>
      <trkpt lat="44.42518" lon="1.87272">
        <ele>257.29</ele>
        <time>2024-05-15T10:04:03Z</time>
      </trkpt>
      <trkpt lat="44.42529" lon="1.87267">
        <ele>258.73</ele>
        <time>2024-05-15T10:04:14Z</time>
      </trkpt>
      <trkpt lat="44.4254" lon="1.87263">
        <ele>259.69</ele>
        <time>2024-05-15T10:04:26Z</time>
      </trkpt>
      <trkpt lat="44.42552" lon="1.87259">
        <ele>261.14</ele>
        <time>2024-05-15T10:04:39Z</time>
      </trkpt>
      <trkpt lat="44.42564" lon="1.87258">
        <ele>262.58</ele>
        <time>2024-05-15T10:04:52Z</time>
      </trkpt>
      <trkpt lat="44.42575" lon="1.87254">
        <ele>264.02</ele>
        <time>2024-05-15T10:05:05Z</time>
      </trkpt>
      <trkpt lat="44.42589" lon="1.87252">
        <ele>264.98</ele>
        <time>2024-05-15T10:05:19Z</time>
      </trkpt>
      <trkpt lat="44.426" lon="1.87256">
        <ele>266.42</ele>
        <time>2024-05-15T10:05:32Z</time>
      </trkpt>
      <trkpt lat="44.4261" lon="1.87258">
        <ele>267.38</ele>
        <time>2024-05-15T10:05:43Z</time>
      </trkpt>
      <trkpt lat="44.42621" lon="1.87257">
        <ele>268.35</ele>
        <time>2024-05-15T10:05:56Z</time>
      </trkpt>
      <trkpt lat="44.42633" lon="1.87254">
        <ele>269.31</ele>
        <time>2024-05-15T10:06:11Z</time>
      </trkpt>
      <trkpt lat="44.42645" lon="1.87254">
        <ele>270.75</ele>
        <time>2024-05-15T10:06:26Z</time>
      </trkpt>
      <trkpt lat="44.42656" lon="1.87252">
        <ele>272.19</ele>
        <time>2024-05-15T10:06:40Z</time>
      </trkpt>
      <trkpt lat="44.42668" lon="1.87251">
        <ele>273.63</ele>
        <time>2024-05-15T10:06:55Z</time>
      </trkpt>
      <trkpt lat="44.42679" lon="1.87249">
        <ele>275.56</ele>
        <time>2024-05-15T10:07:09Z</time>
      </trkpt>
      <trkpt lat="44.4269" lon="1.87246">
        <ele>277</ele>
        <time>2024-05-15T10:07:24Z</time>
      </trkpt>
      <trkpt lat="44.42702" lon="1.87245">
        <ele>278.44</ele>
        <time>2024-05-15T10:07:43Z</time>
      </trkpt>
      <trkpt lat="44.42713" lon="1.87238">
        <ele>280.36</ele>
        <time>2024-05-15T10:07:58Z</time>
      </trkpt>
      <trkpt lat="44.42723" lon="1.87231">
        <ele>281.8</ele>
        <time>2024-05-15T10:08:14Z</time>
      </trkpt>
      <trkpt lat="44.42734" lon="1.87226">
        <ele>283.25</ele>
        <time>2024-05-15T10:08:27Z</time>
      </trkpt>
      <trkpt lat="44.42742" lon="1.87218">
        <ele>285.17</ele>
        <time>2024-05-15T10:08:41Z</time>
      </trkpt>
      <trkpt lat="44.4275" lon="1.87209">
        <ele>286.61</ele>
        <time>2024-05-15T10:08:57Z</time>
      </trkpt>
      <trkpt lat="44.4276" lon="1.87203">
        <ele>288.05</ele>
        <time>2024-05-15T10:09:11Z</time>
      </trkpt>
      <trkpt lat="44.42769" lon="1.87196">
        <ele>290.46</ele>
        <time>2024-05-15T10:09:25Z</time>
      </trkpt>
      <trkpt lat="44.42777" lon="1.8718">
        <ele>292.38</ele>
        <time>2024-05-15T10:09:48Z</time>
      </trkpt>
      <trkpt lat="44.42783" lon="1.87166">
        <ele>293.82</ele>
        <time>2024-05-15T10:10:03Z</time>
      </trkpt>
      <trkpt lat="44.42793" lon="1.87161">
        <ele>296.22</ele>
        <time>2024-05-15T10:10:20Z</time>
      </trkpt>
      <trkpt lat="44.428" lon="1.87171">
        <ele>298.63</ele>
        <time>2024-05-15T10:10:35Z</time>
      </trkpt>
      <trkpt lat="44.42808" lon="1.87182">
        <ele>299.11</ele>
        <time>2024-05-15T10:10:48Z</time>
      </trkpt>
      <trkpt lat="44.42816" lon="1.87192">
        <ele>300.07</ele>
        <time>2024-05-15T10:11:01Z</time>
      </trkpt>
      <trkpt lat="44.42823" lon="1.87203">
        <ele>300.55</ele>
        <time>2024-05-15T10:11:12Z</time>
      </trkpt>
      <trkpt lat="44.42823" lon="1.87211">
        <ele>301.51</ele>
        <time>2024-05-15T10:12:52Z</time>
      </trkpt>
      <trkpt lat="44.42832" lon="1.8722">
        <ele>301.51</ele>
        <time>2024-05-15T10:13:02Z</time>
      </trkpt>
      <trkpt lat="44.42838" lon="1.87232">
        <ele>301.51</ele>
        <time>2024-05-15T10:13:12Z</time>
      </trkpt>
      <trkpt lat="44.42844" lon="1.87244">
        <ele>301.99</ele>
        <time>2024-05-15T10:13:21Z</time>
      </trkpt>
      <trkpt lat="44.42849" lon="1.87258">
        <ele>301.99</ele>
        <time>2024-05-15T10:13:30Z</time>
      </trkpt>
      <trkpt lat="44.42855" lon="1.87272">
        <ele>301.99</ele>
        <time>2024-05-15T10:13:40Z</time>
      </trkpt>
      <trkpt lat="44.4286" lon="1.87285">
        <ele>301.99</ele>
        <time>2024-05-15T10:13:49Z</time>
      </trkpt>
      <trkpt lat="44.42865" lon="1.87297">
        <ele>301.99</ele>
        <time>2024-05-15T10:13:58Z</time>
      </trkpt>
      <trkpt lat="44.42871" lon="1.87309">
        <ele>301.99</ele>
        <time>2024-05-15T10:14:07Z</time>
      </trkpt>
      <trkpt lat="44.42877" lon="1.8732">
        <ele>301.99</ele>
        <time>2024-05-15T10:14:16Z</time>
      </trkpt>
      <trkpt lat="44.42885" lon="1.8733">
        <ele>301.99</ele>
        <time>2024-05-15T10:14:25Z</time>
      </trkpt>
      <trkpt lat="44.42894" lon="1.87338">
        <ele>300.55</ele>
        <time>2024-05-15T10:14:34Z</time>
      </trkpt>
      <trkpt lat="44.42903" lon="1.87345">
        <ele>301.03</ele>
        <time>2024-05-15T10:14:42Z</time>
      </trkpt>
      <trkpt lat="44.42911" lon="1.87352">
        <ele>300.07</ele>
        <time>2024-05-15T10:14:50Z</time>
      </trkpt>
      <trkpt lat="44.4292" lon="1.87355">
        <ele>299.59</ele>
        <time>2024-05-15T10:14:58Z</time>
      </trkpt>
      <trkpt lat="44.42931" lon="1.87363">
        <ele>299.59</ele>
        <time>2024-05-15T10:15:07Z</time>
      </trkpt>
      <trkpt lat="44.42941" lon="1.8737">
        <ele>299.59</ele>
        <time>2024-05-15T10:15:17Z</time>
      </trkpt>
      <trkpt lat="44.42951" lon="1.87375">
        <ele>299.59</ele>
        <time>2024-05-15T10:15:27Z</time>
      </trkpt>
      <trkpt lat="44.42962" lon="1.87377">
        <ele>299.59</ele>
        <time>2024-05-15T10:15:36Z</time>
      </trkpt>
      <trkpt lat="44.42973" lon="1.8738">
        <ele>301.51</ele>
        <time>2024-05-15T10:15:52Z</time>
      </trkpt>
      <trkpt lat="44.4298" lon="1.87392">
        <ele>302.47</ele>
        <time>2024-05-15T10:16:04Z</time>
      </trkpt>
      <trkpt lat="44.42988" lon="1.87406">
        <ele>303.43</ele>
        <time>2024-05-15T10:16:15Z</time>
      </trkpt>
      <trkpt lat="44.42998" lon="1.87412">
        <ele>305.36</ele>
        <time>2024-05-15T10:16:27Z</time>
      </trkpt>
      <trkpt lat="44.43008" lon="1.87416">
        <ele>306.32</ele>
        <time>2024-05-15T10:16:37Z</time>
      </trkpt>
      <trkpt lat="44.43017" lon="1.87421">
        <ele>306.8</ele>
        <time>2024-05-15T10:16:46Z</time>
      </trkpt>
      <trkpt lat="44.43026" lon="1.87425">
        <ele>307.76</ele>
        <time>2024-05-15T10:16:55Z</time>
      </trkpt>
      <trkpt lat="44.43036" lon="1.8743">
        <ele>308.24</ele>
        <time>2024-05-15T10:17:04Z</time>
      </trkpt>
      <trkpt lat="44.43046" lon="1.87433">
        <ele>308.72</ele>
        <time>2024-05-15T10:17:13Z</time>
      </trkpt>
      <trkpt lat="44.43056" lon="1.87438">
        <ele>309.68</ele>
        <time>2024-05-15T10:17:23Z</time>
      </trkpt>
      <trkpt lat="44.43065" lon="1.87443">
        <ele>310.16</ele>
        <time>2024-05-15T10:17:31Z</time>
      </trkpt>
      <trkpt lat="44.43074" lon="1.87445">
        <ele>310.64</ele>
        <time>2024-05-15T10:17:40Z</time>
      </trkpt>
      <trkpt lat="44.43083" lon="1.87446">
        <ele>310.64</ele>
        <time>2024-05-15T10:17:49Z</time>
      </trkpt>
      <trkpt lat="44.43088" lon="1.87432">
        <ele>311.12</ele>
        <time>2024-05-15T10:18:13Z</time>
      </trkpt>
      <trkpt lat="44.4309" lon="1.87418">
        <ele>311.12</ele>
        <time>2024-05-15T10:18:22Z</time>
      </trkpt>
      <trkpt lat="44.43091" lon="1.87404">
        <ele>311.6</ele>
        <time>2024-05-15T10:18:30Z</time>
      </trkpt>
      <trkpt lat="44.43092" lon="1.87391">
        <ele>311.6</ele>
        <time>2024-05-15T10:18:38Z</time>
      </trkpt>
      <trkpt lat="44.43093" lon="1.87377">
        <ele>311.6</ele>
        <time>2024-05-15T10:18:46Z</time>
      </trkpt>
      <trkpt lat="44.43093" lon="1.87362">
        <ele>312.09</ele>
        <time>2024-05-15T10:18:55Z</time>
      </trkpt>
      <trkpt lat="44.43093" lon="1.87347">
        <ele>312.09</ele>
        <time>2024-05-15T10:19:04Z</time>
      </trkpt>
      <trkpt lat="44.43094" lon="1.87333">
        <ele>312.57</ele>
        <time>2024-05-15T10:19:13Z</time>
      </trkpt>
      <trkpt lat="44.43096" lon="1.87316">
        <ele>313.05</ele>
        <time>2024-05-15T10:19:23Z</time>
      </trkpt>
      <trkpt lat="44.43098" lon="1.87301">
        <ele>313.05</ele>
        <time>2024-05-15T10:19:32Z</time>
      </trkpt>
      <trkpt lat="44.43102" lon="1.87287">
        <ele>313.53</ele>
        <time>2024-05-15T10:19:41Z</time>
      </trkpt>
      <trkpt lat="44.43105" lon="1.87272">
        <ele>314.01</ele>
        <time>2024-05-15T10:19:50Z</time>
      </trkpt>
      <trkpt lat="44.43109" lon="1.87258">
        <ele>314.01</ele>
        <time>2024-05-15T10:19:59Z</time>
      </trkpt>
      <trkpt lat="44.43111" lon="1.87245">
        <ele>314.49</ele>
        <time>2024-05-15T10:20:08Z</time>
      </trkpt>
      <trkpt lat="44.43113" lon="1.87232">
        <ele>314.49</ele>
        <time>2024-05-15T10:20:16Z</time>
      </trkpt>
      <trkpt lat="44.43116" lon="1.87218">
        <ele>314.97</ele>
        <time>2024-05-15T10:20:24Z</time>
      </trkpt>
      <trkpt lat="44.43119" lon="1.87205">
        <ele>314.97</ele>
        <time>2024-05-15T10:20:32Z</time>
      </trkpt>
      <trkpt lat="44.43122" lon="1.87191">
        <ele>315.45</ele>
        <time>2024-05-15T10:20:40Z</time>
      </trkpt>
      <trkpt lat="44.43125" lon="1.87177">
        <ele>315.45</ele>
        <time>2024-05-15T10:20:48Z</time>
      </trkpt>
      <trkpt lat="44.4313" lon="1.87163">
        <ele>315.45</ele>
        <time>2024-05-15T10:20:57Z</time>
      </trkpt>
      <trkpt lat="44.43133" lon="1.87149">
        <ele>315.45</ele>
        <time>2024-05-15T10:21:05Z</time>
      </trkpt>
      <trkpt lat="44.43136" lon="1.87136">
        <ele>315.45</ele>
        <time>2024-05-15T10:21:13Z</time>
      </trkpt>
      <trkpt lat="44.43139" lon="1.87122">
        <ele>315.45</ele>
        <time>2024-05-15T10:21:22Z</time>
      </trkpt>
      <trkpt lat="44.43143" lon="1.87107">
        <ele>315.93</ele>
        <time>2024-05-15T10:21:31Z</time>
      </trkpt>
      <trkpt lat="44.43147" lon="1.87093">
        <ele>315.93</ele>
        <time>2024-05-15T10:21:39Z</time>
      </trkpt>
      <trkpt lat="44.43151" lon="1.87079">
        <ele>315.93</ele>
        <time>2024-05-15T10:21:48Z</time>
      </trkpt>
      <trkpt lat="44.43155" lon="1.87066">
        <ele>315.93</ele>
        <time>2024-05-15T10:21:56Z</time>
      </trkpt>
      <trkpt lat="44.43158" lon="1.87052">
        <ele>315.93</ele>
        <time>2024-05-15T10:22:04Z</time>
      </trkpt>
      <trkpt lat="44.43162" lon="1.87037">
        <ele>315.93</ele>
        <time>2024-05-15T10:22:12Z</time>
      </trkpt>
      <trkpt lat="44.43166" lon="1.87024">
        <ele>315.93</ele>
        <time>2024-05-15T10:22:21Z</time>
      </trkpt>
      <trkpt lat="44.43172" lon="1.87011">
        <ele>315.93</ele>
        <time>2024-05-15T10:22:29Z</time>
      </trkpt>
      <trkpt lat="44.43176" lon="1.86998">
        <ele>315.93</ele>
        <time>2024-05-15T10:22:37Z</time>
      </trkpt>
      <trkpt lat="44.43181" lon="1.86985">
        <ele>316.41</ele>
        <time>2024-05-15T10:22:45Z</time>
      </trkpt>
      <trkpt lat="44.43186" lon="1.86971">
        <ele>316.41</ele>
        <time>2024-05-15T10:22:54Z</time>
      </trkpt>
      <trkpt lat="44.43191" lon="1.86959">
        <ele>316.41</ele>
        <time>2024-05-15T10:23:02Z</time>
      </trkpt>
      <trkpt lat="44.43195" lon="1.86946">
        <ele>316.41</ele>
        <time>2024-05-15T10:23:10Z</time>
      </trkpt>
      <trkpt lat="44.432" lon="1.86933">
        <ele>316.41</ele>
        <time>2024-05-15T10:23:19Z</time>
      </trkpt>
      <trkpt lat="44.43206" lon="1.86921">
        <ele>316.41</ele>
        <time>2024-05-15T10:23:28Z</time>
      </trkpt>
      <trkpt lat="44.43212" lon="1.86907">
        <ele>316.41</ele>
        <time>2024-05-15T10:23:36Z</time>
      </trkpt>
      <trkpt lat="44.43217" lon="1.86894">
        <ele>316.41</ele>
        <time>2024-05-15T10:23:45Z</time>
      </trkpt>
      <trkpt lat="44.43224" lon="1.8688">
        <ele>316.41</ele>
        <time>2024-05-15T10:23:54Z</time>
      </trkpt>
      <trkpt lat="44.43231" lon="1.86869">
        <ele>315.45</ele>
        <time>2024-05-15T10:24:03Z</time>
      </trkpt>
      <trkpt lat="44.4324" lon="1.86859">
        <ele>315.45</ele>
        <time>2024-05-15T10:24:13Z</time>
      </trkpt>
      <trkpt lat="44.43248" lon="1.86851">
        <ele>314.97</ele>
        <time>2024-05-15T10:24:21Z</time>
      </trkpt>
      <trkpt lat="44.43256" lon="1.86846">
        <ele>314.49</ele>
        <time>2024-05-15T10:24:29Z</time>
      </trkpt>
      <trkpt lat="44.43266" lon="1.86839">
        <ele>314.49</ele>
        <time>2024-05-15T10:24:38Z</time>
      </trkpt>
      <trkpt lat="44.43276" lon="1.86833">
        <ele>314.01</ele>
        <time>2024-05-15T10:24:46Z</time>
      </trkpt>
      <trkpt lat="44.43287" lon="1.86826">
        <ele>313.53</ele>
        <time>2024-05-15T10:24:55Z</time>
      </trkpt>
      <trkpt lat="44.43296" lon="1.86818">
        <ele>312.57</ele>
        <time>2024-05-15T10:25:04Z</time>
      </trkpt>
      <trkpt lat="44.43305" lon="1.86812">
        <ele>312.09</ele>
        <time>2024-05-15T10:25:12Z</time>
      </trkpt>
      <trkpt lat="44.43315" lon="1.86806">
        <ele>311.6</ele>
        <time>2024-05-15T10:25:21Z</time>
      </trkpt>
      <trkpt lat="44.43325" lon="1.86798">
        <ele>311.12</ele>
        <time>2024-05-15T10:25:31Z</time>
      </trkpt>
      <trkpt lat="44.43334" lon="1.8679">
        <ele>310.16</ele>
        <time>2024-05-15T10:25:40Z</time>
      </trkpt>
      <trkpt lat="44.43344" lon="1.8678">
        <ele>309.68</ele>
        <time>2024-05-15T10:25:49Z</time>
      </trkpt>
      <trkpt lat="44.43353" lon="1.86771">
        <ele>309.2</ele>
        <time>2024-05-15T10:25:58Z</time>
      </trkpt>
      <trkpt lat="44.43362" lon="1.8676">
        <ele>309.2</ele>
        <time>2024-05-15T10:26:07Z</time>
      </trkpt>
      <trkpt lat="44.4337" lon="1.86749">
        <ele>309.2</ele>
        <time>2024-05-15T10:26:15Z</time>
      </trkpt>
      <trkpt lat="44.43377" lon="1.86738">
        <ele>309.2</ele>
        <time>2024-05-15T10:26:23Z</time>
      </trkpt>
      <trkpt lat="44.43384" lon="1.86727">
        <ele>310.16</ele>
        <time>2024-05-15T10:26:32Z</time>
      </trkpt>
      <trkpt lat="44.43392" lon="1.86715">
        <ele>310.16</ele>
        <time>2024-05-15T10:26:41Z</time>
      </trkpt>
      <trkpt lat="44.43399" lon="1.86704">
        <ele>310.64</ele>
        <time>2024-05-15T10:26:50Z</time>
      </trkpt>
      <trkpt lat="44.43408" lon="1.86695">
        <ele>311.12</ele>
        <time>2024-05-15T10:26:59Z</time>
      </trkpt>
      <trkpt lat="44.43418" lon="1.86687">
        <ele>311.6</ele>
        <time>2024-05-15T10:27:09Z</time>
      </trkpt>
      <trkpt lat="44.43428" lon="1.86678">
        <ele>312.09</ele>
        <time>2024-05-15T10:27:19Z</time>
      </trkpt>
      <trkpt lat="44.43438" lon="1.86672">
        <ele>312.57</ele>
        <time>2024-05-15T10:27:28Z</time>
      </trkpt>
      <trkpt lat="44.43448" lon="1.86665">
        <ele>313.05</ele>
        <time>2024-05-15T10:27:37Z</time>
      </trkpt>
      <trkpt lat="44.43457" lon="1.86659">
        <ele>314.01</ele>
        <time>2024-05-15T10:27:46Z</time>
      </trkpt>
      <trkpt lat="44.43468" lon="1.86653">
        <ele>314.49</ele>
        <time>2024-05-15T10:27:55Z</time>
      </trkpt>
      <trkpt lat="44.43477" lon="1.86647">
        <ele>314.97</ele>
        <time>2024-05-15T10:28:04Z</time>
      </trkpt>
      <trkpt lat="44.43487" lon="1.86642">
        <ele>315.45</ele>
        <time>2024-05-15T10:28:13Z</time>
      </trkpt>
      <trkpt lat="44.43498" lon="1.86637">
        <ele>315.45</ele>
        <time>2024-05-15T10:28:22Z</time>
      </trkpt>
      <trkpt lat="44.43507" lon="1.8663">
        <ele>315.93</ele>
        <time>2024-05-15T10:28:30Z</time>
      </trkpt>
      <trkpt lat="44.43515" lon="1.86625">
        <ele>315.93</ele>
        <time>2024-05-15T10:28:37Z</time>
      </trkpt>
      <trkpt lat="44.43524" lon="1.86619">
        <ele>315.93</ele>
        <time>2024-05-15T10:28:46Z</time>
      </trkpt>
      <trkpt lat="44.43534" lon="1.86613">
        <ele>315.93</ele>
        <time>2024-05-15T10:28:58Z</time>
      </trkpt>
      <trkpt lat="44.43543" lon="1.86611">
        <ele>315.93</ele>
        <time>2024-05-15T10:29:06Z</time>
      </trkpt>
      <trkpt lat="44.43552" lon="1.86607">
        <ele>315.93</ele>
        <time>2024-05-15T10:29:15Z</time>
      </trkpt>
      <trkpt lat="44.43564" lon="1.86603">
        <ele>315.93</ele>
        <time>2024-05-15T10:29:24Z</time>
      </trkpt>
      <trkpt lat="44.43574" lon="1.866">
        <ele>315.93</ele>
        <time>2024-05-15T10:29:33Z</time>
      </trkpt>
      <trkpt lat="44.43585" lon="1.866">
        <ele>315.93</ele>
        <time>2024-05-15T10:29:43Z</time>
      </trkpt>
      <trkpt lat="44.43596" lon="1.86599">
        <ele>314.49</ele>
        <time>2024-05-15T10:29:52Z</time>
      </trkpt>
      <trkpt lat="44.43607" lon="1.86597">
        <ele>314.01</ele>
        <time>2024-05-15T10:30:01Z</time>
      </trkpt>
      <trkpt lat="44.43619" lon="1.86596">
        <ele>313.53</ele>
        <time>2024-05-15T10:30:11Z</time>
      </trkpt>
      <trkpt lat="44.43632" lon="1.86596">
        <ele>312.09</ele>
        <time>2024-05-15T10:30:21Z</time>
      </trkpt>
      <trkpt lat="44.43642" lon="1.86598">
        <ele>310.64</ele>
        <time>2024-05-15T10:30:30Z</time>
      </trkpt>
      <trkpt lat="44.43652" lon="1.86606">
        <ele>309.68</ele>
        <time>2024-05-15T10:30:39Z</time>
      </trkpt>
      <trkpt lat="44.4366" lon="1.86616">
        <ele>309.2</ele>
        <time>2024-05-15T10:30:49Z</time>
      </trkpt>
      <trkpt lat="44.43668" lon="1.86627">
        <ele>309.2</ele>
        <time>2024-05-15T10:30:58Z</time>
      </trkpt>
      <trkpt lat="44.43676" lon="1.86638">
        <ele>308.72</ele>
        <time>2024-05-15T10:31:07Z</time>
      </trkpt>
      <trkpt lat="44.43685" lon="1.86649">
        <ele>307.76</ele>
        <time>2024-05-15T10:31:16Z</time>
      </trkpt>
      <trkpt lat="44.43694" lon="1.8666">
        <ele>307.76</ele>
        <time>2024-05-15T10:31:25Z</time>
      </trkpt>
      <trkpt lat="44.43702" lon="1.86671">
        <ele>307.28</ele>
        <time>2024-05-15T10:31:35Z</time>
      </trkpt>
      <trkpt lat="44.43711" lon="1.86681">
        <ele>306.8</ele>
        <time>2024-05-15T10:31:45Z</time>
      </trkpt>
      <trkpt lat="44.43721" lon="1.86689">
        <ele>305.84</ele>
        <time>2024-05-15T10:31:56Z</time>
      </trkpt>
      <trkpt lat="44.43733" lon="1.86697">
        <ele>304.39</ele>
        <time>2024-05-15T10:32:09Z</time>
      </trkpt>
      <trkpt lat="44.43745" lon="1.86693">
        <ele>302.95</ele>
        <time>2024-05-15T10:32:20Z</time>
      </trkpt>
      <trkpt lat="44.43754" lon="1.86688">
        <ele>301.99</ele>
        <time>2024-05-15T10:32:30Z</time>
      </trkpt>
      <trkpt lat="44.43764" lon="1.86684">
        <ele>300.55</ele>
        <time>2024-05-15T10:32:39Z</time>
      </trkpt>
      <trkpt lat="44.43774" lon="1.8668">
        <ele>300.07</ele>
        <time>2024-05-15T10:32:49Z</time>
      </trkpt>
      <trkpt lat="44.43786" lon="1.86676">
        <ele>299.11</ele>
        <time>2024-05-15T10:33:01Z</time>
      </trkpt>
      <trkpt lat="44.43797" lon="1.86671">
        <ele>298.15</ele>
        <time>2024-05-15T10:33:11Z</time>
      </trkpt>
      <trkpt lat="44.43808" lon="1.86667">
        <ele>297.18</ele>
        <time>2024-05-15T10:33:22Z</time>
      </trkpt>
      <trkpt lat="44.43818" lon="1.86662">
        <ele>296.7</ele>
        <time>2024-05-15T10:33:31Z</time>
      </trkpt>
      <trkpt lat="44.43828" lon="1.86659">
        <ele>295.74</ele>
        <time>2024-05-15T10:33:40Z</time>
      </trkpt>
      <trkpt lat="44.43838" lon="1.86653">
        <ele>295.26</ele>
        <time>2024-05-15T10:33:49Z</time>
      </trkpt>
      <trkpt lat="44.43844" lon="1.86645">
        <ele>294.3</ele>
        <time>2024-05-15T10:33:58Z</time>
      </trkpt>
      <trkpt lat="44.43852" lon="1.86638">
        <ele>293.82</ele>
        <time>2024-05-15T10:34:08Z</time>
      </trkpt>
      <trkpt lat="44.43863" lon="1.86638">
        <ele>293.34</ele>
        <time>2024-05-15T10:34:17Z</time>
      </trkpt>
      <trkpt lat="44.43872" lon="1.8664">
        <ele>292.86</ele>
        <time>2024-05-15T10:34:25Z</time>
      </trkpt>
      <trkpt lat="44.43883" lon="1.86641">
        <ele>292.38</ele>
        <time>2024-05-15T10:34:34Z</time>
      </trkpt>
      <trkpt lat="44.43893" lon="1.8664">
        <ele>291.9</ele>
        <time>2024-05-15T10:34:44Z</time>
      </trkpt>
      <trkpt lat="44.43904" lon="1.86638">
        <ele>290.94</ele>
        <time>2024-05-15T10:34:55Z</time>
      </trkpt>
      <trkpt lat="44.43915" lon="1.86636">
        <ele>289.97</ele>
        <time>2024-05-15T10:35:05Z</time>
      </trkpt>
      <trkpt lat="44.43927" lon="1.86634">
        <ele>289.01</ele>
        <time>2024-05-15T10:35:15Z</time>
      </trkpt>
      <trkpt lat="44.4394" lon="1.86629">
        <ele>286.61</ele>
        <time>2024-05-15T10:35:36Z</time>
      </trkpt>
      <trkpt lat="44.43952" lon="1.8663">
        <ele>285.65</ele>
        <time>2024-05-15T10:35:48Z</time>
      </trkpt>
      <trkpt lat="44.43963" lon="1.86636">
        <ele>284.21</ele>
        <time>2024-05-15T10:35:59Z</time>
      </trkpt>
      <trkpt lat="44.43974" lon="1.86645">
        <ele>282.77</ele>
        <time>2024-05-15T10:36:10Z</time>
      </trkpt>
      <trkpt lat="44.43984" lon="1.86655">
        <ele>281.8</ele>
        <time>2024-05-15T10:36:21Z</time>
      </trkpt>
      <trkpt lat="44.43994" lon="1.86668">
        <ele>280.84</ele>
        <time>2024-05-15T10:36:32Z</time>
      </trkpt>
      <trkpt lat="44.44002" lon="1.8668">
        <ele>280.36</ele>
        <time>2024-05-15T10:36:42Z</time>
      </trkpt>
      <trkpt lat="44.4401" lon="1.86691">
        <ele>278.92</ele>
        <time>2024-05-15T10:36:54Z</time>
      </trkpt>
      <trkpt lat="44.44022" lon="1.867">
        <ele>277</ele>
        <time>2024-05-15T10:37:08Z</time>
      </trkpt>
      <trkpt lat="44.44036" lon="1.86705">
        <ele>274.59</ele>
        <time>2024-05-15T10:37:23Z</time>
      </trkpt>
      <trkpt lat="44.44045" lon="1.86716">
        <ele>272.67</ele>
        <time>2024-05-15T10:37:37Z</time>
      </trkpt>
      <trkpt lat="44.44044" lon="1.8673">
        <ele>271.23</ele>
        <time>2024-05-15T10:37:49Z</time>
      </trkpt>
      <trkpt lat="44.44046" lon="1.86745">
        <ele>269.79</ele>
        <time>2024-05-15T10:38:01Z</time>
      </trkpt>
      <trkpt lat="44.44056" lon="1.86751">
        <ele>268.83</ele>
        <time>2024-05-15T10:38:14Z</time>
      </trkpt>
      <trkpt lat="44.44066" lon="1.86745">
        <ele>267.38</ele>
        <time>2024-05-15T10:38:25Z</time>
      </trkpt>
      <trkpt lat="44.44074" lon="1.86736">
        <ele>266.42</ele>
        <time>2024-05-15T10:38:35Z</time>
      </trkpt>
      <trkpt lat="44.44083" lon="1.86725">
        <ele>264.98</ele>
        <time>2024-05-15T10:38:46Z</time>
      </trkpt>
      <trkpt lat="44.4409" lon="1.86714">
        <ele>263.54</ele>
        <time>2024-05-15T10:38:56Z</time>
      </trkpt>
      <trkpt lat="44.44099" lon="1.86703">
        <ele>262.58</ele>
        <time>2024-05-15T10:39:07Z</time>
      </trkpt>
      <trkpt lat="44.4411" lon="1.86693">
        <ele>262.58</ele>
        <time>2024-05-15T10:39:19Z</time>
      </trkpt>
      <trkpt lat="44.44122" lon="1.86691">
        <ele>262.1</ele>
        <time>2024-05-15T10:39:29Z</time>
      </trkpt>
      <trkpt lat="44.44135" lon="1.86696">
        <ele>261.62</ele>
        <time>2024-05-15T10:39:41Z</time>
      </trkpt>
      <trkpt lat="44.44147" lon="1.86703">
        <ele>260.17</ele>
        <time>2024-05-15T10:39:53Z</time>
      </trkpt>
      <trkpt lat="44.44163" lon="1.86713">
        <ele>258.73</ele>
        <time>2024-05-15T10:40:09Z</time>
      </trkpt>
      <trkpt lat="44.44178" lon="1.86721">
        <ele>256.81</ele>
        <time>2024-05-15T10:40:24Z</time>
      </trkpt>
      <trkpt lat="44.44192" lon="1.86723">
        <ele>255.37</ele>
        <time>2024-05-15T10:40:36Z</time>
      </trkpt>
      <trkpt lat="44.44204" lon="1.8672">
        <ele>254.41</ele>
        <time>2024-05-15T10:40:47Z</time>
      </trkpt>
      <trkpt lat="44.44217" lon="1.86713">
        <ele>253.93</ele>
        <time>2024-05-15T10:40:59Z</time>
      </trkpt>
      <trkpt lat="44.44227" lon="1.86706">
        <ele>253.44</ele>
        <time>2024-05-15T10:41:10Z</time>
      </trkpt>
      <trkpt lat="44.44238" lon="1.86699">
        <ele>252.48</ele>
        <time>2024-05-15T10:41:20Z</time>
      </trkpt>
      <trkpt lat="44.44249" lon="1.86693">
        <ele>252</ele>
        <time>2024-05-15T10:41:31Z</time>
      </trkpt>
      <trkpt lat="44.4426" lon="1.86688">
        <ele>251.52</ele>
        <time>2024-05-15T10:41:41Z</time>
      </trkpt>
      <trkpt lat="44.44275" lon="1.86683">
        <ele>250.08</ele>
        <time>2024-05-15T10:41:55Z</time>
      </trkpt>
      <trkpt lat="44.44286" lon="1.8668">
        <ele>249.6</ele>
        <time>2024-05-15T10:42:06Z</time>
      </trkpt>
      <trkpt lat="44.44298" lon="1.86676">
        <ele>248.64</ele>
        <time>2024-05-15T10:42:16Z</time>
      </trkpt>
      <trkpt lat="44.44309" lon="1.86673">
        <ele>248.16</ele>
        <time>2024-05-15T10:42:25Z</time>
      </trkpt>
      <trkpt lat="44.4432" lon="1.86672">
        <ele>247.2</ele>
        <time>2024-05-15T10:42:36Z</time>
      </trkpt>
      <trkpt lat="44.44331" lon="1.86668">
        <ele>246.23</ele>
        <time>2024-05-15T10:42:47Z</time>
      </trkpt>
      <trkpt lat="44.44343" lon="1.86663">
        <ele>245.27</ele>
        <time>2024-05-15T10:43:00Z</time>
      </trkpt>
      <trkpt lat="44.44355" lon="1.86661">
        <ele>244.31</ele>
        <time>2024-05-15T10:43:10Z</time>
      </trkpt>
      <trkpt lat="44.44365" lon="1.86657">
        <ele>243.35</ele>
        <time>2024-05-15T10:43:19Z</time>
      </trkpt>
      <trkpt lat="44.44377" lon="1.86653">
        <ele>242.87</ele>
        <time>2024-05-15T10:43:30Z</time>
      </trkpt>
      <trkpt lat="44.4439" lon="1.86649">
        <ele>241.91</ele>
        <time>2024-05-15T10:43:40Z</time>
      </trkpt>
      <trkpt lat="44.44403" lon="1.86648">
        <ele>240.95</ele>
        <time>2024-05-15T10:43:51Z</time>
      </trkpt>
      <trkpt lat="44.44418" lon="1.86648">
        <ele>240.47</ele>
        <time>2024-05-15T10:44:05Z</time>
      </trkpt>
      <trkpt lat="44.44427" lon="1.86647">
        <ele>239.51</ele>
        <time>2024-05-15T10:44:15Z</time>
      </trkpt>
      <trkpt lat="44.44438" lon="1.86646">
        <ele>238.54</ele>
        <time>2024-05-15T10:44:25Z</time>
      </trkpt>
      <trkpt lat="44.44447" lon="1.86642">
        <ele>238.06</ele>
        <time>2024-05-15T10:44:34Z</time>
      </trkpt>
      <trkpt lat="44.44455" lon="1.86633">
        <ele>237.1</ele>
        <time>2024-05-15T10:44:43Z</time>
      </trkpt>
      <trkpt lat="44.44461" lon="1.8662">
        <ele>236.62</ele>
        <time>2024-05-15T10:44:53Z</time>
      </trkpt>
      <trkpt lat="44.44465" lon="1.86605">
        <ele>235.66</ele>
        <time>2024-05-15T10:45:02Z</time>
      </trkpt>
      <trkpt lat="44.44469" lon="1.86589">
        <ele>235.66</ele>
        <time>2024-05-15T10:45:18Z</time>
      </trkpt>
      <trkpt lat="44.44474" lon="1.86575">
        <ele>235.18</ele>
        <time>2024-05-15T10:45:27Z</time>
      </trkpt>
      <trkpt lat="44.44479" lon="1.86563">
        <ele>233.74</ele>
        <time>2024-05-15T10:45:36Z</time>
      </trkpt>
      <trkpt lat="44.44483" lon="1.86549">
        <ele>233.26</ele>
        <time>2024-05-15T10:45:45Z</time>
      </trkpt>
      <trkpt lat="44.44487" lon="1.86534">
        <ele>232.78</ele>
        <time>2024-05-15T10:45:54Z</time>
      </trkpt>
      <trkpt lat="44.44491" lon="1.8652">
        <ele>231.81</ele>
        <time>2024-05-15T10:46:03Z</time>
      </trkpt>
      <trkpt lat="44.44494" lon="1.86506">
        <ele>231.33</ele>
        <time>2024-05-15T10:46:12Z</time>
      </trkpt>
      <trkpt lat="44.44499" lon="1.86493">
        <ele>230.37</ele>
        <time>2024-05-15T10:46:21Z</time>
      </trkpt>
      <trkpt lat="44.44503" lon="1.86479">
        <ele>229.41</ele>
        <time>2024-05-15T10:46:32Z</time>
      </trkpt>
      <trkpt lat="44.44512" lon="1.86464">
        <ele>227.97</ele>
        <time>2024-05-15T10:46:43Z</time>
      </trkpt>
      <trkpt lat="44.4452" lon="1.86451">
        <ele>227.49</ele>
        <time>2024-05-15T10:46:55Z</time>
      </trkpt>
      <trkpt lat="44.44529" lon="1.8644">
        <ele>226.53</ele>
        <time>2024-05-15T10:47:04Z</time>
      </trkpt>
      <trkpt lat="44.44539" lon="1.8643">
        <ele>225.57</ele>
        <time>2024-05-15T10:47:13Z</time>
      </trkpt>
      <trkpt lat="44.44548" lon="1.86421">
        <ele>225.09</ele>
        <time>2024-05-15T10:47:27Z</time>
      </trkpt>
      <trkpt lat="44.44557" lon="1.86413">
        <ele>224.12</ele>
        <time>2024-05-15T10:47:36Z</time>
      </trkpt>
      <trkpt lat="44.44565" lon="1.86401">
        <ele>223.16</ele>
        <time>2024-05-15T10:47:44Z</time>
      </trkpt>
      <trkpt lat="44.44569" lon="1.86389">
        <ele>222.2</ele>
        <time>2024-05-15T10:47:53Z</time>
      </trkpt>
      <trkpt lat="44.44571" lon="1.86374">
        <ele>221.72</ele>
        <time>2024-05-15T10:48:02Z</time>
      </trkpt>
      <trkpt lat="44.44572" lon="1.8636">
        <ele>220.76</ele>
        <time>2024-05-15T10:48:11Z</time>
      </trkpt>
      <trkpt lat="44.44572" lon="1.86345">
        <ele>219.8</ele>
        <time>2024-05-15T10:48:20Z</time>
      </trkpt>
      <trkpt lat="44.44572" lon="1.8633">
        <ele>218.84</ele>
        <time>2024-05-15T10:48:29Z</time>
      </trkpt>
      <trkpt lat="44.44572" lon="1.86316">
        <ele>218.36</ele>
        <time>2024-05-15T10:48:37Z</time>
      </trkpt>
      <trkpt lat="44.44574" lon="1.86301">
        <ele>217.4</ele>
        <time>2024-05-15T10:48:47Z</time>
      </trkpt>
      <trkpt lat="44.44577" lon="1.86286">
        <ele>216.43</ele>
        <time>2024-05-15T10:48:56Z</time>
      </trkpt>
      <trkpt lat="44.4458" lon="1.86272">
        <ele>215.95</ele>
        <time>2024-05-15T10:49:05Z</time>
      </trkpt>
      <trkpt lat="44.44582" lon="1.86258">
        <ele>214.99</ele>
        <time>2024-05-15T10:49:14Z</time>
      </trkpt>
      <trkpt lat="44.44587" lon="1.86244">
        <ele>214.51</ele>
        <time>2024-05-15T10:49:23Z</time>
      </trkpt>
      <trkpt lat="44.4459" lon="1.8623">
        <ele>213.55</ele>
        <time>2024-05-15T10:49:33Z</time>
      </trkpt>
      <trkpt lat="44.44595" lon="1.86215">
        <ele>212.59</ele>
        <time>2024-05-15T10:49:42Z</time>
      </trkpt>
      <trkpt lat="44.44599" lon="1.86199">
        <ele>211.63</ele>
        <time>2024-05-15T10:49:51Z</time>
      </trkpt>
      <trkpt lat="44.44603" lon="1.86186">
        <ele>211.63</ele>
        <time>2024-05-15T10:49:59Z</time>
      </trkpt>
      <trkpt lat="44.44607" lon="1.86172">
        <ele>211.15</ele>
        <time>2024-05-15T10:50:08Z</time>
      </trkpt>
      <trkpt lat="44.44612" lon="1.8616">
        <ele>210.67</ele>
        <time>2024-05-15T10:50:17Z</time>
      </trkpt>
      <trkpt lat="44.44616" lon="1.86146">
        <ele>210.19</ele>
        <time>2024-05-15T10:50:25Z</time>
      </trkpt>
      <trkpt lat="44.44619" lon="1.86132">
        <ele>209.22</ele>
        <time>2024-05-15T10:50:34Z</time>
      </trkpt>
      <trkpt lat="44.44622" lon="1.86118">
        <ele>208.74</ele>
        <time>2024-05-15T10:50:43Z</time>
      </trkpt>
      <trkpt lat="44.44625" lon="1.86104">
        <ele>208.26</ele>
        <time>2024-05-15T10:50:52Z</time>
      </trkpt>
      <trkpt lat="44.4463" lon="1.86088">
        <ele>208.26</ele>
        <time>2024-05-15T10:51:01Z</time>
      </trkpt>
      <trkpt lat="44.44636" lon="1.86076">
        <ele>207.3</ele>
        <time>2024-05-15T10:51:10Z</time>
      </trkpt>
      <trkpt lat="44.44646" lon="1.86069">
        <ele>206.82</ele>
        <time>2024-05-15T10:51:19Z</time>
      </trkpt>
      <trkpt lat="44.44656" lon="1.86063">
        <ele>206.34</ele>
        <time>2024-05-15T10:51:28Z</time>
      </trkpt>
      <trkpt lat="44.44666" lon="1.86056">
        <ele>205.86</ele>
        <time>2024-05-15T10:51:39Z</time>
      </trkpt>
      <trkpt lat="44.44677" lon="1.86051">
        <ele>205.38</ele>
        <time>2024-05-15T10:51:48Z</time>
      </trkpt>
      <trkpt lat="44.44688" lon="1.86046">
        <ele>204.42</ele>
        <time>2024-05-15T10:51:57Z</time>
      </trkpt>
      <trkpt lat="44.447" lon="1.86044">
        <ele>204.42</ele>
        <time>2024-05-15T10:52:06Z</time>
      </trkpt>
      <trkpt lat="44.44715" lon="1.86046">
        <ele>203.94</ele>
        <time>2024-05-15T10:52:19Z</time>
      </trkpt>
      <trkpt lat="44.44728" lon="1.8605">
        <ele>203.46</ele>
        <time>2024-05-15T10:52:30Z</time>
      </trkpt>
      <trkpt lat="44.44741" lon="1.86048">
        <ele>202.98</ele>
        <time>2024-05-15T10:52:40Z</time>
      </trkpt>
      <trkpt lat="44.44753" lon="1.86043">
        <ele>202.49</ele>
        <time>2024-05-15T10:52:48Z</time>
      </trkpt>
      <trkpt lat="44.44766" lon="1.86033">
        <ele>202.49</ele>
        <time>2024-05-15T10:52:57Z</time>
      </trkpt>
      <trkpt lat="44.44774" lon="1.86022">
        <ele>202.01</ele>
        <time>2024-05-15T10:53:06Z</time>
      </trkpt>
      <trkpt lat="44.44781" lon="1.86008">
        <ele>201.53</ele>
        <time>2024-05-15T10:53:16Z</time>
      </trkpt>
      <trkpt lat="44.44789" lon="1.85997">
        <ele>200.57</ele>
        <time>2024-05-15T10:53:25Z</time>
      </trkpt>
      <trkpt lat="44.44797" lon="1.85986">
        <ele>199.61</ele>
        <time>2024-05-15T10:53:35Z</time>
      </trkpt>
      <trkpt lat="44.44804" lon="1.85973">
        <ele>198.65</ele>
        <time>2024-05-15T10:53:45Z</time>
      </trkpt>
      <trkpt lat="44.44809" lon="1.85957">
        <ele>198.17</ele>
        <time>2024-05-15T10:53:58Z</time>
      </trkpt>
      <trkpt lat="44.44814" lon="1.85942">
        <ele>197.21</ele>
        <time>2024-05-15T10:54:08Z</time>
      </trkpt>
      <trkpt lat="44.4482" lon="1.85928">
        <ele>196.73</ele>
        <time>2024-05-15T10:54:18Z</time>
      </trkpt>
      <trkpt lat="44.44825" lon="1.85914">
        <ele>196.25</ele>
        <time>2024-05-15T10:54:27Z</time>
      </trkpt>
      <trkpt lat="44.44831" lon="1.85899">
        <ele>195.28</ele>
        <time>2024-05-15T10:54:37Z</time>
      </trkpt>
      <trkpt lat="44.44838" lon="1.85884">
        <ele>194.8</ele>
        <time>2024-05-15T10:54:48Z</time>
      </trkpt>
      <trkpt lat="44.44845" lon="1.8587">
        <ele>193.84</ele>
        <time>2024-05-15T10:54:58Z</time>
      </trkpt>
      <trkpt lat="44.44852" lon="1.85855">
        <ele>192.88</ele>
        <time>2024-05-15T10:55:08Z</time>
      </trkpt>
      <trkpt lat="44.44858" lon="1.85842">
        <ele>192.88</ele>
        <time>2024-05-15T10:55:18Z</time>
      </trkpt>
      <trkpt lat="44.44866" lon="1.8583">
        <ele>192.4</ele>
        <time>2024-05-15T10:55:27Z</time>
      </trkpt>
      <trkpt lat="44.44874" lon="1.85817">
        <ele>192.4</ele>
        <time>2024-05-15T10:55:36Z</time>
      </trkpt>
      <trkpt lat="44.44881" lon="1.85805">
        <ele>191.92</ele>
        <time>2024-05-15T10:55:45Z</time>
      </trkpt>
      <trkpt lat="44.44889" lon="1.85794">
        <ele>190.96</ele>
        <time>2024-05-15T10:55:54Z</time>
      </trkpt>
      <trkpt lat="44.44897" lon="1.85783">
        <ele>190.48</ele>
        <time>2024-05-15T10:56:03Z</time>
      </trkpt>
      <trkpt lat="44.44904" lon="1.85771">
        <ele>190.48</ele>
        <time>2024-05-15T10:56:12Z</time>
      </trkpt>
      <trkpt lat="44.44913" lon="1.8576">
        <ele>190</ele>
        <time>2024-05-15T10:56:22Z</time>
      </trkpt>
      <trkpt lat="44.4492" lon="1.85748">
        <ele>190</ele>
        <time>2024-05-15T10:56:31Z</time>
      </trkpt>
      <trkpt lat="44.44928" lon="1.85738">
        <ele>189.52</ele>
        <time>2024-05-15T10:56:40Z</time>
      </trkpt>
      <trkpt lat="44.44936" lon="1.85727">
        <ele>189.52</ele>
        <time>2024-05-15T10:56:49Z</time>
      </trkpt>
      <trkpt lat="44.44944" lon="1.85716">
        <ele>188.56</ele>
        <time>2024-05-15T10:56:59Z</time>
      </trkpt>
      <trkpt lat="44.44952" lon="1.85705">
        <ele>188.08</ele>
        <time>2024-05-15T10:57:08Z</time>
      </trkpt>
      <trkpt lat="44.44959" lon="1.85695">
        <ele>188.08</ele>
        <time>2024-05-15T10:57:17Z</time>
      </trkpt>
      <trkpt lat="44.44966" lon="1.85685">
        <ele>188.08</ele>
        <time>2024-05-15T10:57:26Z</time>
      </trkpt>
      <trkpt lat="44.44974" lon="1.85675">
        <ele>187.59</ele>
        <time>2024-05-15T10:57:35Z</time>
      </trkpt>
      <trkpt lat="44.4498" lon="1.85666">
        <ele>187.11</ele>
        <time>2024-05-15T10:57:43Z</time>
      </trkpt>
      <trkpt lat="44.44988" lon="1.85656">
        <ele>186.63</ele>
        <time>2024-05-15T10:57:52Z</time>
      </trkpt>
      <trkpt lat="44.44996" lon="1.85646">
        <ele>186.15</ele>
        <time>2024-05-15T10:58:01Z</time>
      </trkpt>
      <trkpt lat="44.45005" lon="1.85639">
        <ele>185.67</ele>
        <time>2024-05-15T10:58:09Z</time>
      </trkpt>
      <trkpt lat="44.45014" lon="1.85631">
        <ele>185.19</ele>
        <time>2024-05-15T10:58:18Z</time>
      </trkpt>
      <trkpt lat="44.45025" lon="1.85623">
        <ele>185.19</ele>
        <time>2024-05-15T10:58:27Z</time>
      </trkpt>
      <trkpt lat="44.45036" lon="1.85618">
        <ele>184.71</ele>
        <time>2024-05-15T10:58:36Z</time>
      </trkpt>
      <trkpt lat="44.45048" lon="1.85617">
        <ele>184.71</ele>
        <time>2024-05-15T10:58:46Z</time>
      </trkpt>
      <trkpt lat="44.45063" lon="1.85615">
        <ele>184.23</ele>
        <time>2024-05-15T10:58:56Z</time>
      </trkpt>
      <trkpt lat="44.45076" lon="1.85613">
        <ele>183.27</ele>
        <time>2024-05-15T10:59:10Z</time>
      </trkpt>
      <trkpt lat="44.45087" lon="1.85614">
        <ele>183.27</ele>
        <time>2024-05-15T10:59:20Z</time>
      </trkpt>
      <trkpt lat="44.451" lon="1.85614">
        <ele>182.79</ele>
        <time>2024-05-15T10:59:31Z</time>
      </trkpt>
      <trkpt lat="44.45112" lon="1.85614">
        <ele>182.79</ele>
        <time>2024-05-15T10:59:40Z</time>
      </trkpt>
      <trkpt lat="44.45123" lon="1.85614">
        <ele>182.31</ele>
        <time>2024-05-15T10:59:50Z</time>
      </trkpt>
      <trkpt lat="44.45134" lon="1.85614">
        <ele>181.83</ele>
        <time>2024-05-15T10:59:59Z</time>
      </trkpt>
      <trkpt lat="44.45146" lon="1.85612">
        <ele>181.83</ele>
        <time>2024-05-15T11:00:08Z</time>
      </trkpt>
      <trkpt lat="44.45159" lon="1.85613">
        <ele>181.35</ele>
        <time>2024-05-15T11:00:18Z</time>
      </trkpt>
      <trkpt lat="44.45171" lon="1.85613">
        <ele>180.87</ele>
        <time>2024-05-15T11:00:28Z</time>
      </trkpt>
      <trkpt lat="44.45183" lon="1.85612">
        <ele>180.38</ele>
        <time>2024-05-15T11:00:39Z</time>
      </trkpt>
      <trkpt lat="44.45196" lon="1.85614">
        <ele>180.38</ele>
        <time>2024-05-15T11:00:49Z</time>
      </trkpt>
      <trkpt lat="44.45209" lon="1.85618">
        <ele>179.9</ele>
        <time>2024-05-15T11:01:00Z</time>
      </trkpt>
      <trkpt lat="44.45221" lon="1.85621">
        <ele>179.42</ele>
        <time>2024-05-15T11:01:11Z</time>
      </trkpt>
      <trkpt lat="44.45234" lon="1.85626">
        <ele>178.46</ele>
        <time>2024-05-15T11:01:22Z</time>
      </trkpt>
      <trkpt lat="44.45247" lon="1.8563">
        <ele>177.98</ele>
        <time>2024-05-15T11:01:32Z</time>
      </trkpt>
      <trkpt lat="44.4526" lon="1.85635">
        <ele>177.02</ele>
        <time>2024-05-15T11:01:43Z</time>
      </trkpt>
      <trkpt lat="44.45272" lon="1.85642">
        <ele>176.54</ele>
        <time>2024-05-15T11:01:54Z</time>
      </trkpt>
      <trkpt lat="44.45284" lon="1.8565">
        <ele>175.58</ele>
        <time>2024-05-15T11:02:04Z</time>
      </trkpt>
      <trkpt lat="44.45294" lon="1.85658">
        <ele>175.1</ele>
        <time>2024-05-15T11:02:15Z</time>
      </trkpt>
      <trkpt lat="44.45304" lon="1.85665">
        <ele>174.62</ele>
        <time>2024-05-15T11:02:25Z</time>
      </trkpt>
      <trkpt lat="44.45315" lon="1.85672">
        <ele>174.14</ele>
        <time>2024-05-15T11:02:35Z</time>
      </trkpt>
      <trkpt lat="44.45326" lon="1.8568">
        <ele>173.66</ele>
        <time>2024-05-15T11:02:44Z</time>
      </trkpt>
      <trkpt lat="44.45337" lon="1.85687">
        <ele>173.66</ele>
        <time>2024-05-15T11:02:54Z</time>
      </trkpt>
      <trkpt lat="44.45347" lon="1.85695">
        <ele>172.69</ele>
        <time>2024-05-15T11:03:04Z</time>
      </trkpt>
      <trkpt lat="44.45357" lon="1.85707">
        <ele>172.21</ele>
        <time>2024-05-15T11:03:17Z</time>
      </trkpt>
      <trkpt lat="44.45365" lon="1.85715">
        <ele>171.25</ele>
        <time>2024-05-15T11:03:27Z</time>
      </trkpt>
      <trkpt lat="44.45372" lon="1.85726">
        <ele>170.77</ele>
        <time>2024-05-15T11:03:37Z</time>
      </trkpt>
      <trkpt lat="44.45379" lon="1.85738">
        <ele>170.29</ele>
        <time>2024-05-15T11:03:45Z</time>
      </trkpt>
      <trkpt lat="44.45388" lon="1.8575">
        <ele>169.81</ele>
        <time>2024-05-15T11:03:54Z</time>
      </trkpt>
      <trkpt lat="44.45396" lon="1.85762">
        <ele>169.81</ele>
        <time>2024-05-15T11:04:03Z</time>
      </trkpt>
      <trkpt lat="44.45404" lon="1.8577">
        <ele>168.85</ele>
        <time>2024-05-15T11:04:12Z</time>
      </trkpt>
      <trkpt lat="44.45415" lon="1.85776">
        <ele>168.37</ele>
        <time>2024-05-15T11:04:24Z</time>
      </trkpt>
      <trkpt lat="44.4543" lon="1.85782">
        <ele>167.89</ele>
        <time>2024-05-15T11:04:34Z</time>
      </trkpt>
      <trkpt lat="44.45442" lon="1.85781">
        <ele>166.93</ele>
        <time>2024-05-15T11:04:45Z</time>
      </trkpt>
      <trkpt lat="44.45451" lon="1.85778">
        <ele>166.45</ele>
        <time>2024-05-15T11:04:59Z</time>
      </trkpt>
      <trkpt lat="44.45452" lon="1.85763">
        <ele>166.45</ele>
        <time>2024-05-15T11:05:09Z</time>
      </trkpt>
      <trkpt lat="44.45455" lon="1.85749">
        <ele>165.96</ele>
        <time>2024-05-15T11:05:18Z</time>
      </trkpt>
      <trkpt lat="44.45459" lon="1.85736">
        <ele>165.96</ele>
        <time>2024-05-15T11:05:26Z</time>
      </trkpt>
      <trkpt lat="44.45465" lon="1.85724">
        <ele>165.48</ele>
        <time>2024-05-15T11:05:35Z</time>
      </trkpt>
      <trkpt lat="44.45473" lon="1.85715">
        <ele>165.48</ele>
        <time>2024-05-15T11:05:44Z</time>
      </trkpt>
      <trkpt lat="44.45482" lon="1.85707">
        <ele>165.48</ele>
        <time>2024-05-15T11:05:52Z</time>
      </trkpt>
      <trkpt lat="44.45492" lon="1.85701">
        <ele>165</ele>
        <time>2024-05-15T11:06:01Z</time>
      </trkpt>
      <trkpt lat="44.45501" lon="1.85695">
        <ele>165</ele>
        <time>2024-05-15T11:06:09Z</time>
      </trkpt>
      <trkpt lat="44.45511" lon="1.85689">
        <ele>165</ele>
        <time>2024-05-15T11:06:17Z</time>
      </trkpt>
      <trkpt lat="44.45521" lon="1.85686">
        <ele>164.52</ele>
        <time>2024-05-15T11:06:27Z</time>
      </trkpt>
      <trkpt lat="44.45526" lon="1.85676">
        <ele>164.52</ele>
        <time>2024-05-15T11:06:35Z</time>
      </trkpt>
      <trkpt lat="44.45531" lon="1.85661">
        <ele>164.52</ele>
        <time>2024-05-15T11:06:47Z</time>
      </trkpt>
      <trkpt lat="44.45537" lon="1.85648">
        <ele>164.04</ele>
        <time>2024-05-15T11:06:53Z</time>
      </trkpt>
      <trkpt lat="44.45542" lon="1.8564">
        <ele>164.04</ele>
        <time>2024-05-15T11:06:58Z</time>
      </trkpt>
      <trkpt lat="44.45545" lon="1.85629">
        <ele>164.04</ele>
        <time>2024-05-15T11:07:08Z</time>
      </trkpt>
      <trkpt lat="44.45548" lon="1.85616">
        <ele>164.04</ele>
        <time>2024-05-15T11:07:16Z</time>
      </trkpt>
      <trkpt lat="44.45548" lon="1.85602">
        <ele>164.04</ele>
        <time>2024-05-15T11:07:23Z</time>
      </trkpt>
      <trkpt lat="44.4555" lon="1.85589">
        <ele>163.56</ele>
        <time>2024-05-15T11:07:31Z</time>
      </trkpt>
      <trkpt lat="44.45552" lon="1.85576">
        <ele>163.56</ele>
        <time>2024-05-15T11:07:39Z</time>
      </trkpt>
      <trkpt lat="44.45552" lon="1.85563">
        <ele>163.56</ele>
        <time>2024-05-15T11:07:46Z</time>
      </trkpt>
      <trkpt lat="44.45554" lon="1.8555">
        <ele>163.08</ele>
        <time>2024-05-15T11:07:54Z</time>
      </trkpt>
      <trkpt lat="44.45556" lon="1.85536">
        <ele>163.08</ele>
        <time>2024-05-15T11:08:03Z</time>
      </trkpt>
      <trkpt lat="44.45558" lon="1.85519">
        <ele>162.12</ele>
        <time>2024-05-15T11:08:15Z</time>
      </trkpt>
      <trkpt lat="44.45558" lon="1.85502">
        <ele>162.12</ele>
        <time>2024-05-15T11:08:23Z</time>
      </trkpt>
      <trkpt lat="44.45559" lon="1.85487">
        <ele>162.12</ele>
        <time>2024-05-15T11:08:31Z</time>
      </trkpt>
      <trkpt lat="44.4556" lon="1.85471">
        <ele>162.12</ele>
        <time>2024-05-15T11:08:41Z</time>
      </trkpt>
      <trkpt lat="44.45563" lon="1.85458">
        <ele>162.12</ele>
        <time>2024-05-15T11:08:49Z</time>
      </trkpt>
      <trkpt lat="44.45567" lon="1.85444">
        <ele>162.12</ele>
        <time>2024-05-15T11:08:58Z</time>
      </trkpt>
      <trkpt lat="44.45571" lon="1.85432">
        <ele>161.64</ele>
        <time>2024-05-15T11:09:06Z</time>
      </trkpt>
      <trkpt lat="44.45576" lon="1.8542">
        <ele>161.64</ele>
        <time>2024-05-15T11:09:14Z</time>
      </trkpt>
      <trkpt lat="44.45582" lon="1.8541">
        <ele>160.68</ele>
        <time>2024-05-15T11:09:22Z</time>
      </trkpt>
      <trkpt lat="44.45588" lon="1.85399">
        <ele>160.68</ele>
        <time>2024-05-15T11:09:30Z</time>
      </trkpt>
      <trkpt lat="44.45594" lon="1.85389">
        <ele>160.68</ele>
        <time>2024-05-15T11:09:38Z</time>
      </trkpt>
      <trkpt lat="44.45601" lon="1.85379">
        <ele>160.2</ele>
        <time>2024-05-15T11:09:46Z</time>
      </trkpt>
      <trkpt lat="44.45608" lon="1.85367">
        <ele>160.2</ele>
        <time>2024-05-15T11:09:55Z</time>
      </trkpt>
      <trkpt lat="44.45615" lon="1.85357">
        <ele>160.2</ele>
        <time>2024-05-15T11:10:10Z</time>
      </trkpt>
      <trkpt lat="44.45622" lon="1.85346">
        <ele>160.2</ele>
        <time>2024-05-15T11:10:19Z</time>
      </trkpt>
      <trkpt lat="44.45628" lon="1.85337">
        <ele>160.2</ele>
        <time>2024-05-15T11:10:27Z</time>
      </trkpt>
      <trkpt lat="44.45635" lon="1.85326">
        <ele>159.72</ele>
        <time>2024-05-15T11:10:35Z</time>
      </trkpt>
      <trkpt lat="44.45638" lon="1.85311">
        <ele>159.24</ele>
        <time>2024-05-15T11:10:45Z</time>
      </trkpt>
      <trkpt lat="44.45638" lon="1.85301">
        <ele>159.24</ele>
        <time>2024-05-15T11:10:57Z</time>
      </trkpt>
      <trkpt lat="44.45635" lon="1.8529">
        <ele>158.75</ele>
        <time>2024-05-15T11:11:07Z</time>
      </trkpt>
      <trkpt lat="44.45632" lon="1.85276">
        <ele>158.75</ele>
        <time>2024-05-15T11:11:15Z</time>
      </trkpt>
      <trkpt lat="44.45628" lon="1.85263">
        <ele>158.27</ele>
        <time>2024-05-15T11:11:24Z</time>
      </trkpt>
      <trkpt lat="44.45625" lon="1.85247">
        <ele>158.27</ele>
        <time>2024-05-15T11:11:33Z</time>
      </trkpt>
      <trkpt lat="44.45623" lon="1.8523">
        <ele>158.27</ele>
        <time>2024-05-15T11:11:43Z</time>
      </trkpt>
      <trkpt lat="44.45622" lon="1.85215">
        <ele>158.27</ele>
        <time>2024-05-15T11:11:52Z</time>
      </trkpt>
      <trkpt lat="44.45625" lon="1.85199">
        <ele>157.79</ele>
        <time>2024-05-15T11:12:01Z</time>
      </trkpt>
      <trkpt lat="44.4563" lon="1.85186">
        <ele>157.79</ele>
        <time>2024-05-15T11:12:10Z</time>
      </trkpt>
      <trkpt lat="44.45636" lon="1.85172">
        <ele>157.79</ele>
        <time>2024-05-15T11:12:21Z</time>
      </trkpt>
      <trkpt lat="44.45643" lon="1.85157">
        <ele>157.79</ele>
        <time>2024-05-15T11:12:32Z</time>
      </trkpt>
      <trkpt lat="44.45649" lon="1.85144">
        <ele>159.24</ele>
        <time>2024-05-15T11:12:42Z</time>
      </trkpt>
      <trkpt lat="44.45654" lon="1.85129">
        <ele>160.2</ele>
        <time>2024-05-15T11:12:52Z</time>
      </trkpt>
      <trkpt lat="44.45661" lon="1.85115">
        <ele>161.16</ele>
        <time>2024-05-15T11:13:01Z</time>
      </trkpt>
      <trkpt lat="44.45667" lon="1.85102">
        <ele>161.64</ele>
        <time>2024-05-15T11:13:11Z</time>
      </trkpt>
      <trkpt lat="44.45669" lon="1.85089">
        <ele>162.12</ele>
        <time>2024-05-15T11:13:20Z</time>
      </trkpt>
      <trkpt lat="44.45672" lon="1.85076">
        <ele>162.6</ele>
        <time>2024-05-15T11:13:30Z</time>
      </trkpt>
      <trkpt lat="44.45676" lon="1.85063">
        <ele>163.08</ele>
        <time>2024-05-15T11:13:39Z</time>
      </trkpt>
      <trkpt lat="44.45682" lon="1.85051">
        <ele>163.56</ele>
        <time>2024-05-15T11:13:48Z</time>
      </trkpt>
      <trkpt lat="44.45692" lon="1.85044">
        <ele>163.56</ele>
        <time>2024-05-15T11:14:00Z</time>
      </trkpt>
      <trkpt lat="44.45702" lon="1.85038">
        <ele>161.64</ele>
        <time>2024-05-15T11:14:11Z</time>
      </trkpt>
      <trkpt lat="44.45714" lon="1.85038">
        <ele>159.72</ele>
        <time>2024-05-15T11:14:22Z</time>
      </trkpt>
      <trkpt lat="44.45721" lon="1.85047">
        <ele>157.79</ele>
        <time>2024-05-15T11:14:34Z</time>
      </trkpt>
      <trkpt lat="44.45727" lon="1.85049">
        <ele>156.83</ele>
        <time>2024-05-15T11:16:12Z</time>
      </trkpt>
      <trkpt lat="44.45735" lon="1.85036">
        <ele>156.83</ele>
        <time>2024-05-15T11:16:25Z</time>
      </trkpt>
      <trkpt lat="44.45745" lon="1.85031">
        <ele>156.83</ele>
        <time>2024-05-15T11:16:38Z</time>
      </trkpt>
      <trkpt lat="44.4575" lon="1.85034">
        <ele>156.83</ele>
        <time>2024-05-15T11:17:24Z</time>
      </trkpt>
      <trkpt lat="44.45744" lon="1.85022">
        <ele>156.83</ele>
        <time>2024-05-15T11:17:41Z</time>
      </trkpt>
      <trkpt lat="44.45744" lon="1.85028">
        <ele>159.72</ele>
        <time>2024-05-15T11:50:10Z</time>
      </trkpt>
      <trkpt lat="44.45735" lon="1.85033">
        <ele>159.72</ele>
        <time>2024-05-15T11:50:20Z</time>
      </trkpt>
      <trkpt lat="44.45724" lon="1.85036">
        <ele>160.2</ele>
        <time>2024-05-15T11:50:30Z</time>
      </trkpt>
      <trkpt lat="44.45713" lon="1.85038">
        <ele>161.64</ele>
        <time>2024-05-15T11:50:40Z</time>
      </trkpt>
      <trkpt lat="44.45704" lon="1.8504">
        <ele>163.08</ele>
        <time>2024-05-15T11:50:51Z</time>
      </trkpt>
      <trkpt lat="44.45695" lon="1.85044">
        <ele>164.52</ele>
        <time>2024-05-15T11:51:03Z</time>
      </trkpt>
      <trkpt lat="44.45689" lon="1.8504">
        <ele>165.96</ele>
        <time>2024-05-15T11:51:19Z</time>
      </trkpt>
      <trkpt lat="44.45695" lon="1.85028">
        <ele>165.96</ele>
        <time>2024-05-15T11:51:30Z</time>
      </trkpt>
      <trkpt lat="44.45702" lon="1.85018">
        <ele>165.96</ele>
        <time>2024-05-15T11:51:41Z</time>
      </trkpt>
      <trkpt lat="44.45711" lon="1.85008">
        <ele>165.48</ele>
        <time>2024-05-15T11:51:51Z</time>
      </trkpt>
      <trkpt lat="44.45721" lon="1.85">
        <ele>164.52</ele>
        <time>2024-05-15T11:52:01Z</time>
      </trkpt>
      <trkpt lat="44.45729" lon="1.84991">
        <ele>163.08</ele>
        <time>2024-05-15T11:52:11Z</time>
      </trkpt>
      <trkpt lat="44.45736" lon="1.8498">
        <ele>162.6</ele>
        <time>2024-05-15T11:52:21Z</time>
      </trkpt>
      <trkpt lat="44.45743" lon="1.8497">
        <ele>161.64</ele>
        <time>2024-05-15T11:52:30Z</time>
      </trkpt>
      <trkpt lat="44.45751" lon="1.84959">
        <ele>161.64</ele>
        <time>2024-05-15T11:52:40Z</time>
      </trkpt>
      <trkpt lat="44.45758" lon="1.84947">
        <ele>161.64</ele>
        <time>2024-05-15T11:52:49Z</time>
      </trkpt>
      <trkpt lat="44.45764" lon="1.84932">
        <ele>161.64</ele>
        <time>2024-05-15T11:52:59Z</time>
      </trkpt>
      <trkpt lat="44.45769" lon="1.84918">
        <ele>160.68</ele>
        <time>2024-05-15T11:53:09Z</time>
      </trkpt>
      <trkpt lat="44.45772" lon="1.84905">
        <ele>160.68</ele>
        <time>2024-05-15T11:53:19Z</time>
      </trkpt>
      <trkpt lat="44.45773" lon="1.84891">
        <ele>160.68</ele>
        <time>2024-05-15T11:53:28Z</time>
      </trkpt>
      <trkpt lat="44.45773" lon="1.84877">
        <ele>160.68</ele>
        <time>2024-05-15T11:53:38Z</time>
      </trkpt>
      <trkpt lat="44.45772" lon="1.84861">
        <ele>160.68</ele>
        <time>2024-05-15T11:53:48Z</time>
      </trkpt>
      <trkpt lat="44.4577" lon="1.84846">
        <ele>160.2</ele>
        <time>2024-05-15T11:53:57Z</time>
      </trkpt>
      <trkpt lat="44.45766" lon="1.84833">
        <ele>160.2</ele>
        <time>2024-05-15T11:54:05Z</time>
      </trkpt>
      <trkpt lat="44.45761" lon="1.84822">
        <ele>160.2</ele>
        <time>2024-05-15T11:54:13Z</time>
      </trkpt>
      <trkpt lat="44.45754" lon="1.8481">
        <ele>160.2</ele>
        <time>2024-05-15T11:54:22Z</time>
      </trkpt>
      <trkpt lat="44.45748" lon="1.84799">
        <ele>160.2</ele>
        <time>2024-05-15T11:54:33Z</time>
      </trkpt>
      <trkpt lat="44.45743" lon="1.84788">
        <ele>160.2</ele>
        <time>2024-05-15T11:54:41Z</time>
      </trkpt>
      <trkpt lat="44.45736" lon="1.84777">
        <ele>160.2</ele>
        <time>2024-05-15T11:54:50Z</time>
      </trkpt>
      <trkpt lat="44.45728" lon="1.84771">
        <ele>160.2</ele>
        <time>2024-05-15T11:55:20Z</time>
      </trkpt>
      <trkpt lat="44.4572" lon="1.8478">
        <ele>160.2</ele>
        <time>2024-05-15T11:55:30Z</time>
      </trkpt>
      <trkpt lat="44.45711" lon="1.84784">
        <ele>160.2</ele>
        <time>2024-05-15T11:55:41Z</time>
      </trkpt>
      <trkpt lat="44.45703" lon="1.84792">
        <ele>160.2</ele>
        <time>2024-05-15T11:55:53Z</time>
      </trkpt>
      <trkpt lat="44.45694" lon="1.84799">
        <ele>160.2</ele>
        <time>2024-05-15T11:56:07Z</time>
      </trkpt>
      <trkpt lat="44.45685" lon="1.84804">
        <ele>160.2</ele>
        <time>2024-05-15T11:56:25Z</time>
      </trkpt>
      <trkpt lat="44.45676" lon="1.84803">
        <ele>160.2</ele>
        <time>2024-05-15T11:56:36Z</time>
      </trkpt>
      <trkpt lat="44.45667" lon="1.84802">
        <ele>160.2</ele>
        <time>2024-05-15T11:56:46Z</time>
      </trkpt>
      <trkpt lat="44.45659" lon="1.84807">
        <ele>160.2</ele>
        <time>2024-05-15T11:56:56Z</time>
      </trkpt>
      <trkpt lat="44.45651" lon="1.84814">
        <ele>160.2</ele>
        <time>2024-05-15T11:57:06Z</time>
      </trkpt>
      <trkpt lat="44.45642" lon="1.84821">
        <ele>160.2</ele>
        <time>2024-05-15T11:57:21Z</time>
      </trkpt>
      <trkpt lat="44.45633" lon="1.84827">
        <ele>159.72</ele>
        <time>2024-05-15T11:57:37Z</time>
      </trkpt>
      <trkpt lat="44.45624" lon="1.84832">
        <ele>160.68</ele>
        <time>2024-05-15T11:57:51Z</time>
      </trkpt>
      <trkpt lat="44.45617" lon="1.84839">
        <ele>160.68</ele>
        <time>2024-05-15T11:58:01Z</time>
      </trkpt>
      <trkpt lat="44.45609" lon="1.84841">
        <ele>161.16</ele>
        <time>2024-05-15T11:58:15Z</time>
      </trkpt>
      <trkpt lat="44.456" lon="1.84842">
        <ele>161.16</ele>
        <time>2024-05-15T11:58:24Z</time>
      </trkpt>
      <trkpt lat="44.45591" lon="1.84842">
        <ele>161.64</ele>
        <time>2024-05-15T11:58:33Z</time>
      </trkpt>
      <trkpt lat="44.45581" lon="1.84842">
        <ele>162.12</ele>
        <time>2024-05-15T11:58:42Z</time>
      </trkpt>
      <trkpt lat="44.45571" lon="1.84845">
        <ele>162.6</ele>
        <time>2024-05-15T11:58:52Z</time>
      </trkpt>
      <trkpt lat="44.45561" lon="1.84847">
        <ele>163.08</ele>
        <time>2024-05-15T11:59:01Z</time>
      </trkpt>
      <trkpt lat="44.45552" lon="1.84848">
        <ele>163.08</ele>
        <time>2024-05-15T11:59:11Z</time>
      </trkpt>
      <trkpt lat="44.45543" lon="1.84849">
        <ele>163.08</ele>
        <time>2024-05-15T11:59:29Z</time>
      </trkpt>
      <trkpt lat="44.45534" lon="1.8485">
        <ele>163.08</ele>
        <time>2024-05-15T11:59:39Z</time>
      </trkpt>
      <trkpt lat="44.45528" lon="1.8485">
        <ele>163.08</ele>
        <time>2024-05-15T12:00:42Z</time>
      </trkpt>
      <trkpt lat="44.45521" lon="1.84844">
        <ele>162.12</ele>
        <time>2024-05-15T12:01:10Z</time>
      </trkpt>
      <trkpt lat="44.45511" lon="1.8484">
        <ele>162.12</ele>
        <time>2024-05-15T12:01:23Z</time>
      </trkpt>
      <trkpt lat="44.45502" lon="1.84843">
        <ele>162.12</ele>
        <time>2024-05-15T12:01:34Z</time>
      </trkpt>
      <trkpt lat="44.45493" lon="1.84844">
        <ele>162.12</ele>
        <time>2024-05-15T12:01:44Z</time>
      </trkpt>
      <trkpt lat="44.45483" lon="1.84844">
        <ele>162.12</ele>
        <time>2024-05-15T12:01:54Z</time>
      </trkpt>
      <trkpt lat="44.45474" lon="1.84842">
        <ele>162.12</ele>
        <time>2024-05-15T12:02:06Z</time>
      </trkpt>
      <trkpt lat="44.45464" lon="1.84843">
        <ele>162.12</ele>
        <time>2024-05-15T12:02:17Z</time>
      </trkpt>
      <trkpt lat="44.45455" lon="1.8484">
        <ele>162.12</ele>
        <time>2024-05-15T12:02:27Z</time>
      </trkpt>
      <trkpt lat="44.45446" lon="1.84836">
        <ele>162.12</ele>
        <time>2024-05-15T12:02:36Z</time>
      </trkpt>
      <trkpt lat="44.45438" lon="1.8483">
        <ele>162.12</ele>
        <time>2024-05-15T12:02:44Z</time>
      </trkpt>
      <trkpt lat="44.45429" lon="1.84825">
        <ele>162.12</ele>
        <time>2024-05-15T12:02:52Z</time>
      </trkpt>
      <trkpt lat="44.4542" lon="1.8482">
        <ele>162.12</ele>
        <time>2024-05-15T12:03:01Z</time>
      </trkpt>
      <trkpt lat="44.45412" lon="1.84814">
        <ele>163.08</ele>
        <time>2024-05-15T12:03:10Z</time>
      </trkpt>
      <trkpt lat="44.45405" lon="1.84804">
        <ele>163.08</ele>
        <time>2024-05-15T12:03:19Z</time>
      </trkpt>
      <trkpt lat="44.45397" lon="1.84796">
        <ele>163.08</ele>
        <time>2024-05-15T12:03:28Z</time>
      </trkpt>
      <trkpt lat="44.45389" lon="1.8479">
        <ele>163.08</ele>
        <time>2024-05-15T12:03:38Z</time>
      </trkpt>
      <trkpt lat="44.45383" lon="1.8478">
        <ele>163.08</ele>
        <time>2024-05-15T12:03:48Z</time>
      </trkpt>
      <trkpt lat="44.45377" lon="1.84772">
        <ele>163.08</ele>
        <time>2024-05-15T12:04:00Z</time>
      </trkpt>
      <trkpt lat="44.45367" lon="1.84767">
        <ele>163.08</ele>
        <time>2024-05-15T12:04:12Z</time>
      </trkpt>
      <trkpt lat="44.45357" lon="1.84764">
        <ele>163.08</ele>
        <time>2024-05-15T12:04:21Z</time>
      </trkpt>
      <trkpt lat="44.45348" lon="1.84762">
        <ele>163.08</ele>
        <time>2024-05-15T12:04:30Z</time>
      </trkpt>
      <trkpt lat="44.45337" lon="1.84762">
        <ele>163.56</ele>
        <time>2024-05-15T12:04:42Z</time>
      </trkpt>
      <trkpt lat="44.45326" lon="1.84764">
        <ele>164.52</ele>
        <time>2024-05-15T12:04:51Z</time>
      </trkpt>
      <trkpt lat="44.45315" lon="1.84758">
        <ele>164.52</ele>
        <time>2024-05-15T12:05:01Z</time>
      </trkpt>
      <trkpt lat="44.45305" lon="1.84759">
        <ele>164.52</ele>
        <time>2024-05-15T12:05:11Z</time>
      </trkpt>
      <trkpt lat="44.45295" lon="1.84761">
        <ele>164.52</ele>
        <time>2024-05-15T12:05:21Z</time>
      </trkpt>
      <trkpt lat="44.45285" lon="1.84761">
        <ele>164.52</ele>
        <time>2024-05-15T12:05:32Z</time>
      </trkpt>
      <trkpt lat="44.45274" lon="1.84762">
        <ele>164.52</ele>
        <time>2024-05-15T12:05:44Z</time>
      </trkpt>
      <trkpt lat="44.45263" lon="1.84763">
        <ele>164.52</ele>
        <time>2024-05-15T12:05:55Z</time>
      </trkpt>
      <trkpt lat="44.45252" lon="1.84767">
        <ele>164.52</ele>
        <time>2024-05-15T12:06:05Z</time>
      </trkpt>
      <trkpt lat="44.45244" lon="1.84773">
        <ele>164.52</ele>
        <time>2024-05-15T12:06:14Z</time>
      </trkpt>
      <trkpt lat="44.45235" lon="1.8478">
        <ele>164.52</ele>
        <time>2024-05-15T12:06:24Z</time>
      </trkpt>
      <trkpt lat="44.45229" lon="1.84793">
        <ele>165.48</ele>
        <time>2024-05-15T12:06:35Z</time>
      </trkpt>
      <trkpt lat="44.45225" lon="1.84807">
        <ele>165.96</ele>
        <time>2024-05-15T12:06:46Z</time>
      </trkpt>
      <trkpt lat="44.45222" lon="1.84811">
        <ele>165.48</ele>
        <time>2024-05-15T12:08:11Z</time>
      </trkpt>
      <trkpt lat="44.45218" lon="1.84834">
        <ele>166.93</ele>
        <time>2024-05-15T12:09:00Z</time>
      </trkpt>
      <trkpt lat="44.45216" lon="1.84849">
        <ele>166.93</ele>
        <time>2024-05-15T12:09:08Z</time>
      </trkpt>
      <trkpt lat="44.45215" lon="1.84862">
        <ele>167.41</ele>
        <time>2024-05-15T12:09:16Z</time>
      </trkpt>
      <trkpt lat="44.45217" lon="1.84875">
        <ele>167.41</ele>
        <time>2024-05-15T12:09:26Z</time>
      </trkpt>
      <trkpt lat="44.45214" lon="1.84895">
        <ele>163.56</ele>
        <time>2024-05-15T12:10:14Z</time>
      </trkpt>
      <trkpt lat="44.45215" lon="1.84915">
        <ele>166.45</ele>
        <time>2024-05-15T12:10:48Z</time>
      </trkpt>
      <trkpt lat="44.45224" lon="1.84926">
        <ele>166.45</ele>
        <time>2024-05-15T12:11:00Z</time>
      </trkpt>
      <trkpt lat="44.45232" lon="1.84938">
        <ele>166.45</ele>
        <time>2024-05-15T12:11:11Z</time>
      </trkpt>
      <trkpt lat="44.45237" lon="1.84953">
        <ele>166.45</ele>
        <time>2024-05-15T12:11:22Z</time>
      </trkpt>
      <trkpt lat="44.45242" lon="1.84965">
        <ele>166.93</ele>
        <time>2024-05-15T12:11:31Z</time>
      </trkpt>
      <trkpt lat="44.45247" lon="1.8498">
        <ele>166.93</ele>
        <time>2024-05-15T12:11:41Z</time>
      </trkpt>
      <trkpt lat="44.45247" lon="1.84995">
        <ele>166.93</ele>
        <time>2024-05-15T12:11:50Z</time>
      </trkpt>
      <trkpt lat="44.45245" lon="1.85008">
        <ele>166.45</ele>
        <time>2024-05-15T12:12:00Z</time>
      </trkpt>
      <trkpt lat="44.45241" lon="1.85022">
        <ele>166.45</ele>
        <time>2024-05-15T12:12:11Z</time>
      </trkpt>
      <trkpt lat="44.45238" lon="1.85038">
        <ele>166.45</ele>
        <time>2024-05-15T12:12:23Z</time>
      </trkpt>
      <trkpt lat="44.45233" lon="1.85054">
        <ele>166.93</ele>
        <time>2024-05-15T12:12:35Z</time>
      </trkpt>
      <trkpt lat="44.45229" lon="1.85069">
        <ele>166.93</ele>
        <time>2024-05-15T12:12:46Z</time>
      </trkpt>
      <trkpt lat="44.45224" lon="1.85085">
        <ele>166.93</ele>
        <time>2024-05-15T12:12:57Z</time>
      </trkpt>
      <trkpt lat="44.45213" lon="1.85096">
        <ele>167.41</ele>
        <time>2024-05-15T12:13:09Z</time>
      </trkpt>
      <trkpt lat="44.45201" lon="1.851">
        <ele>167.41</ele>
        <time>2024-05-15T12:13:19Z</time>
      </trkpt>
      <trkpt lat="44.45189" lon="1.851">
        <ele>167.41</ele>
        <time>2024-05-15T12:13:29Z</time>
      </trkpt>
      <trkpt lat="44.45177" lon="1.85098">
        <ele>167.41</ele>
        <time>2024-05-15T12:13:38Z</time>
      </trkpt>
      <trkpt lat="44.45168" lon="1.8509">
        <ele>167.41</ele>
        <time>2024-05-15T12:13:49Z</time>
      </trkpt>
      <trkpt lat="44.45156" lon="1.85082">
        <ele>166.93</ele>
        <time>2024-05-15T12:14:00Z</time>
      </trkpt>
      <trkpt lat="44.45147" lon="1.85074">
        <ele>166.93</ele>
        <time>2024-05-15T12:14:12Z</time>
      </trkpt>
      <trkpt lat="44.45137" lon="1.85062">
        <ele>168.85</ele>
        <time>2024-05-15T12:14:25Z</time>
      </trkpt>
      <trkpt lat="44.45127" lon="1.85058">
        <ele>169.81</ele>
        <time>2024-05-15T12:14:37Z</time>
      </trkpt>
      <trkpt lat="44.45114" lon="1.85058">
        <ele>171.25</ele>
        <time>2024-05-15T12:14:54Z</time>
      </trkpt>
      <trkpt lat="44.45103" lon="1.85064">
        <ele>171.25</ele>
        <time>2024-05-15T12:15:06Z</time>
      </trkpt>
      <trkpt lat="44.4509" lon="1.85072">
        <ele>171.73</ele>
        <time>2024-05-15T12:15:21Z</time>
      </trkpt>
      <trkpt lat="44.45084" lon="1.85082">
        <ele>171.73</ele>
        <time>2024-05-15T12:15:31Z</time>
      </trkpt>
      <trkpt lat="44.4508" lon="1.85097">
        <ele>171.73</ele>
        <time>2024-05-15T12:15:43Z</time>
      </trkpt>
      <trkpt lat="44.45077" lon="1.85113">
        <ele>170.29</ele>
        <time>2024-05-15T12:15:55Z</time>
      </trkpt>
      <trkpt lat="44.45073" lon="1.85132">
        <ele>168.85</ele>
        <time>2024-05-15T12:16:09Z</time>
      </trkpt>
      <trkpt lat="44.45065" lon="1.85145">
        <ele>168.37</ele>
        <time>2024-05-15T12:16:23Z</time>
      </trkpt>
      <trkpt lat="44.45057" lon="1.85159">
        <ele>169.81</ele>
        <time>2024-05-15T12:16:35Z</time>
      </trkpt>
      <trkpt lat="44.45049" lon="1.85172">
        <ele>170.29</ele>
        <time>2024-05-15T12:16:45Z</time>
      </trkpt>
      <trkpt lat="44.45041" lon="1.85182">
        <ele>170.77</ele>
        <time>2024-05-15T12:16:55Z</time>
      </trkpt>
      <trkpt lat="44.4503" lon="1.85188">
        <ele>170.77</ele>
        <time>2024-05-15T12:17:06Z</time>
      </trkpt>
      <trkpt lat="44.45018" lon="1.85188">
        <ele>170.77</ele>
        <time>2024-05-15T12:17:16Z</time>
      </trkpt>
      <trkpt lat="44.45008" lon="1.85185">
        <ele>170.77</ele>
        <time>2024-05-15T12:17:25Z</time>
      </trkpt>
      <trkpt lat="44.44998" lon="1.8518">
        <ele>169.33</ele>
        <time>2024-05-15T12:17:34Z</time>
      </trkpt>
      <trkpt lat="44.44988" lon="1.85174">
        <ele>169.33</ele>
        <time>2024-05-15T12:17:43Z</time>
      </trkpt>
      <trkpt lat="44.4498" lon="1.85166">
        <ele>169.33</ele>
        <time>2024-05-15T12:17:52Z</time>
      </trkpt>
      <trkpt lat="44.44976" lon="1.85153">
        <ele>169.33</ele>
        <time>2024-05-15T12:18:02Z</time>
      </trkpt>
      <trkpt lat="44.44976" lon="1.85138">
        <ele>169.33</ele>
        <time>2024-05-15T12:18:12Z</time>
      </trkpt>
      <trkpt lat="44.44975" lon="1.85124">
        <ele>170.77</ele>
        <time>2024-05-15T12:18:21Z</time>
      </trkpt>
      <trkpt lat="44.44974" lon="1.8511">
        <ele>170.77</ele>
        <time>2024-05-15T12:18:30Z</time>
      </trkpt>
      <trkpt lat="44.44976" lon="1.85097">
        <ele>171.25</ele>
        <time>2024-05-15T12:18:56Z</time>
      </trkpt>
      <trkpt lat="44.44979" lon="1.85083">
        <ele>171.73</ele>
        <time>2024-05-15T12:19:07Z</time>
      </trkpt>
      <trkpt lat="44.44987" lon="1.85063">
        <ele>172.21</ele>
        <time>2024-05-15T12:20:01Z</time>
      </trkpt>
      <trkpt lat="44.44992" lon="1.8505">
        <ele>172.69</ele>
        <time>2024-05-15T12:20:12Z</time>
      </trkpt>
      <trkpt lat="44.44997" lon="1.85036">
        <ele>174.14</ele>
        <time>2024-05-15T12:20:23Z</time>
      </trkpt>
      <trkpt lat="44.45003" lon="1.85023">
        <ele>174.14</ele>
        <time>2024-05-15T12:20:34Z</time>
      </trkpt>
      <trkpt lat="44.45003" lon="1.85009">
        <ele>174.14</ele>
        <time>2024-05-15T12:20:45Z</time>
      </trkpt>
      <trkpt lat="44.45002" lon="1.84993">
        <ele>173.17</ele>
        <time>2024-05-15T12:20:56Z</time>
      </trkpt>
      <trkpt lat="44.45001" lon="1.8498">
        <ele>173.17</ele>
        <time>2024-05-15T12:21:11Z</time>
      </trkpt>
      <trkpt lat="44.44995" lon="1.84969">
        <ele>174.62</ele>
        <time>2024-05-15T12:23:14Z</time>
      </trkpt>
      <trkpt lat="44.44987" lon="1.8496">
        <ele>173.17</ele>
        <time>2024-05-15T12:23:24Z</time>
      </trkpt>
      <trkpt lat="44.44979" lon="1.84951">
        <ele>173.17</ele>
        <time>2024-05-15T12:23:33Z</time>
      </trkpt>
      <trkpt lat="44.44971" lon="1.84943">
        <ele>173.17</ele>
        <time>2024-05-15T12:23:41Z</time>
      </trkpt>
      <trkpt lat="44.44962" lon="1.84936">
        <ele>173.17</ele>
        <time>2024-05-15T12:23:49Z</time>
      </trkpt>
      <trkpt lat="44.44955" lon="1.84927">
        <ele>173.17</ele>
        <time>2024-05-15T12:23:58Z</time>
      </trkpt>
      <trkpt lat="44.44949" lon="1.84914">
        <ele>173.17</ele>
        <time>2024-05-15T12:24:08Z</time>
      </trkpt>
      <trkpt lat="44.44943" lon="1.84902">
        <ele>175.1</ele>
        <time>2024-05-15T12:24:18Z</time>
      </trkpt>
      <trkpt lat="44.44934" lon="1.84894">
        <ele>175.58</ele>
        <time>2024-05-15T12:24:35Z</time>
      </trkpt>
      <trkpt lat="44.44925" lon="1.84885">
        <ele>175.58</ele>
        <time>2024-05-15T12:24:45Z</time>
      </trkpt>
      <trkpt lat="44.44918" lon="1.84874">
        <ele>176.06</ele>
        <time>2024-05-15T12:24:55Z</time>
      </trkpt>
      <trkpt lat="44.44912" lon="1.84863">
        <ele>176.54</ele>
        <time>2024-05-15T12:25:04Z</time>
      </trkpt>
      <trkpt lat="44.44904" lon="1.84853">
        <ele>177.02</ele>
        <time>2024-05-15T12:25:13Z</time>
      </trkpt>
      <trkpt lat="44.44897" lon="1.84844">
        <ele>177.02</ele>
        <time>2024-05-15T12:25:22Z</time>
      </trkpt>
      <trkpt lat="44.44889" lon="1.84835">
        <ele>176.54</ele>
        <time>2024-05-15T12:25:31Z</time>
      </trkpt>
      <trkpt lat="44.4488" lon="1.84826">
        <ele>176.54</ele>
        <time>2024-05-15T12:25:40Z</time>
      </trkpt>
      <trkpt lat="44.44873" lon="1.84816">
        <ele>177.02</ele>
        <time>2024-05-15T12:25:49Z</time>
      </trkpt>
      <trkpt lat="44.44869" lon="1.84803">
        <ele>177.5</ele>
        <time>2024-05-15T12:25:59Z</time>
      </trkpt>
      <trkpt lat="44.44864" lon="1.8479">
        <ele>177.98</ele>
        <time>2024-05-15T12:26:09Z</time>
      </trkpt>
      <trkpt lat="44.44858" lon="1.84778">
        <ele>177.98</ele>
        <time>2024-05-15T12:26:18Z</time>
      </trkpt>
      <trkpt lat="44.44852" lon="1.84767">
        <ele>178.46</ele>
        <time>2024-05-15T12:26:27Z</time>
      </trkpt>
      <trkpt lat="44.44842" lon="1.84755">
        <ele>176.06</ele>
        <time>2024-05-15T12:26:52Z</time>
      </trkpt>
      <trkpt lat="44.44845" lon="1.84741">
        <ele>175.58</ele>
        <time>2024-05-15T12:27:10Z</time>
      </trkpt>
      <trkpt lat="44.4485" lon="1.84723">
        <ele>175.58</ele>
        <time>2024-05-15T12:27:23Z</time>
      </trkpt>
      <trkpt lat="44.44849" lon="1.84707">
        <ele>175.58</ele>
        <time>2024-05-15T12:27:34Z</time>
      </trkpt>
      <trkpt lat="44.4484" lon="1.84693">
        <ele>175.58</ele>
        <time>2024-05-15T12:27:51Z</time>
      </trkpt>
      <trkpt lat="44.44831" lon="1.84696">
        <ele>175.1</ele>
        <time>2024-05-15T12:29:20Z</time>
      </trkpt>
      <trkpt lat="44.44817" lon="1.84686">
        <ele>175.58</ele>
        <time>2024-05-15T12:29:45Z</time>
      </trkpt>
      <trkpt lat="44.44806" lon="1.84676">
        <ele>177.5</ele>
        <time>2024-05-15T12:30:10Z</time>
      </trkpt>
      <trkpt lat="44.448" lon="1.84666">
        <ele>177.98</ele>
        <time>2024-05-15T12:30:39Z</time>
      </trkpt>
      <trkpt lat="44.44791" lon="1.84658">
        <ele>177.98</ele>
        <time>2024-05-15T12:30:49Z</time>
      </trkpt>
      <trkpt lat="44.44782" lon="1.84649">
        <ele>179.9</ele>
        <time>2024-05-15T12:31:00Z</time>
      </trkpt>
      <trkpt lat="44.44776" lon="1.84639">
        <ele>179.9</ele>
        <time>2024-05-15T12:31:09Z</time>
      </trkpt>
      <trkpt lat="44.44769" lon="1.84631">
        <ele>180.38</ele>
        <time>2024-05-15T12:31:19Z</time>
      </trkpt>
      <trkpt lat="44.44763" lon="1.84619">
        <ele>180.87</ele>
        <time>2024-05-15T12:31:31Z</time>
      </trkpt>
      <trkpt lat="44.44758" lon="1.84608">
        <ele>179.42</ele>
        <time>2024-05-15T12:31:40Z</time>
      </trkpt>
      <trkpt lat="44.44755" lon="1.84596">
        <ele>179.42</ele>
        <time>2024-05-15T12:31:50Z</time>
      </trkpt>
      <trkpt lat="44.44752" lon="1.84583">
        <ele>179.42</ele>
        <time>2024-05-15T12:32:02Z</time>
      </trkpt>
      <trkpt lat="44.44746" lon="1.84572">
        <ele>179.42</ele>
        <time>2024-05-15T12:32:13Z</time>
      </trkpt>
      <trkpt lat="44.44742" lon="1.84557">
        <ele>181.35</ele>
        <time>2024-05-15T12:32:24Z</time>
      </trkpt>
      <trkpt lat="44.44737" lon="1.84544">
        <ele>182.31</ele>
        <time>2024-05-15T12:32:34Z</time>
      </trkpt>
      <trkpt lat="44.44732" lon="1.84533">
        <ele>183.75</ele>
        <time>2024-05-15T12:32:46Z</time>
      </trkpt>
      <trkpt lat="44.44725" lon="1.84521">
        <ele>184.71</ele>
        <time>2024-05-15T12:32:57Z</time>
      </trkpt>
      <trkpt lat="44.44716" lon="1.84518">
        <ele>184.71</ele>
        <time>2024-05-15T12:33:08Z</time>
      </trkpt>
      <trkpt lat="44.44707" lon="1.8452">
        <ele>184.71</ele>
        <time>2024-05-15T12:33:19Z</time>
      </trkpt>
      <trkpt lat="44.44697" lon="1.84526">
        <ele>185.19</ele>
        <time>2024-05-15T12:33:29Z</time>
      </trkpt>
      <trkpt lat="44.4469" lon="1.84535">
        <ele>185.67</ele>
        <time>2024-05-15T12:33:39Z</time>
      </trkpt>
      <trkpt lat="44.44681" lon="1.84539">
        <ele>185.67</ele>
        <time>2024-05-15T12:33:49Z</time>
      </trkpt>
      <trkpt lat="44.4467" lon="1.84541">
        <ele>185.67</ele>
        <time>2024-05-15T12:33:59Z</time>
      </trkpt>
      <trkpt lat="44.44661" lon="1.84545">
        <ele>186.15</ele>
        <time>2024-05-15T12:34:09Z</time>
      </trkpt>
      <trkpt lat="44.44651" lon="1.84549">
        <ele>186.15</ele>
        <time>2024-05-15T12:34:20Z</time>
      </trkpt>
      <trkpt lat="44.4464" lon="1.84552">
        <ele>186.15</ele>
        <time>2024-05-15T12:34:30Z</time>
      </trkpt>
      <trkpt lat="44.4463" lon="1.84554">
        <ele>184.71</ele>
        <time>2024-05-15T12:34:41Z</time>
      </trkpt>
      <trkpt lat="44.44619" lon="1.84553">
        <ele>184.71</ele>
        <time>2024-05-15T12:34:52Z</time>
      </trkpt>
      <trkpt lat="44.44605" lon="1.84554">
        <ele>186.15</ele>
        <time>2024-05-15T12:35:05Z</time>
      </trkpt>
      <trkpt lat="44.44593" lon="1.8455">
        <ele>187.11</ele>
        <time>2024-05-15T12:35:20Z</time>
      </trkpt>
      <trkpt lat="44.44584" lon="1.84547">
        <ele>188.08</ele>
        <time>2024-05-15T12:35:32Z</time>
      </trkpt>
      <trkpt lat="44.4457" lon="1.84548">
        <ele>189.04</ele>
        <time>2024-05-15T12:35:48Z</time>
      </trkpt>
      <trkpt lat="44.44556" lon="1.84553">
        <ele>189.52</ele>
        <time>2024-05-15T12:36:03Z</time>
      </trkpt>
      <trkpt lat="44.44544" lon="1.84557">
        <ele>187.59</ele>
        <time>2024-05-15T12:36:17Z</time>
      </trkpt>
      <trkpt lat="44.44533" lon="1.84562">
        <ele>187.59</ele>
        <time>2024-05-15T12:36:28Z</time>
      </trkpt>
      <trkpt lat="44.44517" lon="1.84568">
        <ele>189.04</ele>
        <time>2024-05-15T12:36:59Z</time>
      </trkpt>
      <trkpt lat="44.44505" lon="1.84575">
        <ele>189.52</ele>
        <time>2024-05-15T12:37:12Z</time>
      </trkpt>
      <trkpt lat="44.44495" lon="1.84588">
        <ele>187.11</ele>
        <time>2024-05-15T12:37:24Z</time>
      </trkpt>
      <trkpt lat="44.44489" lon="1.84601">
        <ele>186.15</ele>
        <time>2024-05-15T12:37:35Z</time>
      </trkpt>
      <trkpt lat="44.44481" lon="1.84613">
        <ele>185.67</ele>
        <time>2024-05-15T12:37:46Z</time>
      </trkpt>
      <trkpt lat="44.44472" lon="1.84624">
        <ele>184.23</ele>
        <time>2024-05-15T12:37:57Z</time>
      </trkpt>
      <trkpt lat="44.44464" lon="1.84635">
        <ele>183.75</ele>
        <time>2024-05-15T12:38:07Z</time>
      </trkpt>
      <trkpt lat="44.44454" lon="1.84648">
        <ele>183.75</ele>
        <time>2024-05-15T12:38:19Z</time>
      </trkpt>
      <trkpt lat="44.44448" lon="1.84662">
        <ele>183.75</ele>
        <time>2024-05-15T12:38:31Z</time>
      </trkpt>
      <trkpt lat="44.44446" lon="1.84679">
        <ele>183.75</ele>
        <time>2024-05-15T12:38:43Z</time>
      </trkpt>
      <trkpt lat="44.44446" lon="1.84703">
        <ele>182.79</ele>
        <time>2024-05-15T12:39:14Z</time>
      </trkpt>
      <trkpt lat="44.44443" lon="1.84718">
        <ele>185.67</ele>
        <time>2024-05-15T12:39:32Z</time>
      </trkpt>
      <trkpt lat="44.44441" lon="1.84735">
        <ele>186.15</ele>
        <time>2024-05-15T12:39:45Z</time>
      </trkpt>
      <trkpt lat="44.44441" lon="1.8475">
        <ele>186.15</ele>
        <time>2024-05-15T12:39:58Z</time>
      </trkpt>
      <trkpt lat="44.44439" lon="1.84767">
        <ele>186.15</ele>
        <time>2024-05-15T12:40:13Z</time>
      </trkpt>
      <trkpt lat="44.44438" lon="1.84783">
        <ele>186.15</ele>
        <time>2024-05-15T12:40:24Z</time>
      </trkpt>
      <trkpt lat="44.44435" lon="1.84799">
        <ele>187.11</ele>
        <time>2024-05-15T12:40:37Z</time>
      </trkpt>
      <trkpt lat="44.44429" lon="1.84813">
        <ele>187.11</ele>
        <time>2024-05-15T12:40:50Z</time>
      </trkpt>
      <trkpt lat="44.44419" lon="1.84818">
        <ele>187.11</ele>
        <time>2024-05-15T12:41:01Z</time>
      </trkpt>
      <trkpt lat="44.44409" lon="1.84825">
        <ele>187.59</ele>
        <time>2024-05-15T12:41:12Z</time>
      </trkpt>
      <trkpt lat="44.44399" lon="1.84831">
        <ele>188.08</ele>
        <time>2024-05-15T12:41:23Z</time>
      </trkpt>
      <trkpt lat="44.44389" lon="1.84839">
        <ele>189.04</ele>
        <time>2024-05-15T12:41:35Z</time>
      </trkpt>
      <trkpt lat="44.4438" lon="1.84849">
        <ele>189.52</ele>
        <time>2024-05-15T12:41:47Z</time>
      </trkpt>
      <trkpt lat="44.44372" lon="1.84863">
        <ele>189.52</ele>
        <time>2024-05-15T12:41:59Z</time>
      </trkpt>
      <trkpt lat="44.44367" lon="1.84877">
        <ele>189.52</ele>
        <time>2024-05-15T12:42:10Z</time>
      </trkpt>
      <trkpt lat="44.44366" lon="1.84892">
        <ele>189.52</ele>
        <time>2024-05-15T12:42:21Z</time>
      </trkpt>
      <trkpt lat="44.44366" lon="1.84909">
        <ele>187.59</ele>
        <time>2024-05-15T12:42:34Z</time>
      </trkpt>
      <trkpt lat="44.44366" lon="1.84926">
        <ele>186.63</ele>
        <time>2024-05-15T12:42:46Z</time>
      </trkpt>
      <trkpt lat="44.44379" lon="1.8495">
        <ele>185.67</ele>
        <time>2024-05-15T12:43:53Z</time>
      </trkpt>
      <trkpt lat="44.44377" lon="1.84978">
        <ele>185.19</ele>
        <time>2024-05-15T12:44:46Z</time>
      </trkpt>
      <trkpt lat="44.44377" lon="1.84994">
        <ele>185.19</ele>
        <time>2024-05-15T12:44:57Z</time>
      </trkpt>
      <trkpt lat="44.44381" lon="1.85008">
        <ele>185.19</ele>
        <time>2024-05-15T12:45:08Z</time>
      </trkpt>
      <trkpt lat="44.44384" lon="1.85023">
        <ele>186.63</ele>
        <time>2024-05-15T12:45:18Z</time>
      </trkpt>
      <trkpt lat="44.44383" lon="1.85041">
        <ele>187.59</ele>
        <time>2024-05-15T12:45:36Z</time>
      </trkpt>
      <trkpt lat="44.44383" lon="1.85055">
        <ele>187.59</ele>
        <time>2024-05-15T12:45:46Z</time>
      </trkpt>
      <trkpt lat="44.4438" lon="1.8507">
        <ele>188.08</ele>
        <time>2024-05-15T12:45:55Z</time>
      </trkpt>
      <trkpt lat="44.44373" lon="1.85082">
        <ele>188.08</ele>
        <time>2024-05-15T12:46:06Z</time>
      </trkpt>
      <trkpt lat="44.44362" lon="1.85092">
        <ele>188.08</ele>
        <time>2024-05-15T12:46:22Z</time>
      </trkpt>
      <trkpt lat="44.44346" lon="1.85097">
        <ele>187.59</ele>
        <time>2024-05-15T12:46:40Z</time>
      </trkpt>
      <trkpt lat="44.44334" lon="1.85094">
        <ele>187.59</ele>
        <time>2024-05-15T12:46:54Z</time>
      </trkpt>
      <trkpt lat="44.44321" lon="1.85092">
        <ele>187.59</ele>
        <time>2024-05-15T12:47:08Z</time>
      </trkpt>
      <trkpt lat="44.44309" lon="1.85096">
        <ele>186.15</ele>
        <time>2024-05-15T12:47:24Z</time>
      </trkpt>
      <trkpt lat="44.44297" lon="1.85092">
        <ele>187.59</ele>
        <time>2024-05-15T12:47:41Z</time>
      </trkpt>
      <trkpt lat="44.44286" lon="1.85092">
        <ele>189.04</ele>
        <time>2024-05-15T12:47:55Z</time>
      </trkpt>
      <trkpt lat="44.44272" lon="1.85094">
        <ele>191.44</ele>
        <time>2024-05-15T12:48:29Z</time>
      </trkpt>
      <trkpt lat="44.4426" lon="1.85097">
        <ele>193.84</ele>
        <time>2024-05-15T12:48:45Z</time>
      </trkpt>
      <trkpt lat="44.44249" lon="1.85102">
        <ele>195.28</ele>
        <time>2024-05-15T12:49:01Z</time>
      </trkpt>
      <trkpt lat="44.44239" lon="1.85107">
        <ele>196.73</ele>
        <time>2024-05-15T12:49:14Z</time>
      </trkpt>
      <trkpt lat="44.4423" lon="1.85114">
        <ele>198.65</ele>
        <time>2024-05-15T12:49:28Z</time>
      </trkpt>
      <trkpt lat="44.44218" lon="1.85117">
        <ele>200.09</ele>
        <time>2024-05-15T12:49:43Z</time>
      </trkpt>
      <trkpt lat="44.44203" lon="1.85122">
        <ele>202.98</ele>
        <time>2024-05-15T12:50:01Z</time>
      </trkpt>
      <trkpt lat="44.44191" lon="1.85127">
        <ele>204.42</ele>
        <time>2024-05-15T12:50:16Z</time>
      </trkpt>
      <trkpt lat="44.44179" lon="1.8513">
        <ele>205.38</ele>
        <time>2024-05-15T12:50:30Z</time>
      </trkpt>
      <trkpt lat="44.44168" lon="1.8513">
        <ele>205.86</ele>
        <time>2024-05-15T12:50:43Z</time>
      </trkpt>
      <trkpt lat="44.44154" lon="1.8513">
        <ele>206.82</ele>
        <time>2024-05-15T12:50:55Z</time>
      </trkpt>
      <trkpt lat="44.44142" lon="1.85128">
        <ele>207.78</ele>
        <time>2024-05-15T12:51:09Z</time>
      </trkpt>
      <trkpt lat="44.44129" lon="1.85127">
        <ele>209.22</ele>
        <time>2024-05-15T12:51:25Z</time>
      </trkpt>
      <trkpt lat="44.44118" lon="1.85127">
        <ele>211.15</ele>
        <time>2024-05-15T12:51:39Z</time>
      </trkpt>
      <trkpt lat="44.44104" lon="1.85121">
        <ele>213.07</ele>
        <time>2024-05-15T12:51:56Z</time>
      </trkpt>
      <trkpt lat="44.44093" lon="1.85115">
        <ele>213.07</ele>
        <time>2024-05-15T12:52:11Z</time>
      </trkpt>
      <trkpt lat="44.44082" lon="1.85102">
        <ele>213.07</ele>
        <time>2024-05-15T12:52:26Z</time>
      </trkpt>
      <trkpt lat="44.44071" lon="1.85088">
        <ele>211.63</ele>
        <time>2024-05-15T12:52:39Z</time>
      </trkpt>
      <trkpt lat="44.44059" lon="1.85078">
        <ele>211.15</ele>
        <time>2024-05-15T12:52:52Z</time>
      </trkpt>
      <trkpt lat="44.44043" lon="1.85073">
        <ele>212.11</ele>
        <time>2024-05-15T12:53:06Z</time>
      </trkpt>
      <trkpt lat="44.44031" lon="1.85075">
        <ele>214.03</ele>
        <time>2024-05-15T12:53:21Z</time>
      </trkpt>
      <trkpt lat="44.4402" lon="1.8508">
        <ele>216.43</ele>
        <time>2024-05-15T12:53:38Z</time>
      </trkpt>
      <trkpt lat="44.44012" lon="1.85092">
        <ele>217.88</ele>
        <time>2024-05-15T12:53:53Z</time>
      </trkpt>
      <trkpt lat="44.44009" lon="1.85109">
        <ele>218.36</ele>
        <time>2024-05-15T12:55:44Z</time>
      </trkpt>
      <trkpt lat="44.44011" lon="1.85123">
        <ele>218.84</ele>
        <time>2024-05-15T12:55:56Z</time>
      </trkpt>
      <trkpt lat="44.4401" lon="1.8514">
        <ele>218.84</ele>
        <time>2024-05-15T12:56:06Z</time>
      </trkpt>
      <trkpt lat="44.44011" lon="1.85158">
        <ele>218.84</ele>
        <time>2024-05-15T12:56:17Z</time>
      </trkpt>
      <trkpt lat="44.44012" lon="1.85172">
        <ele>218.84</ele>
        <time>2024-05-15T12:56:27Z</time>
      </trkpt>
      <trkpt lat="44.44006" lon="1.85183">
        <ele>217.4</ele>
        <time>2024-05-15T12:56:41Z</time>
      </trkpt>
      <trkpt lat="44.43998" lon="1.85174">
        <ele>214.99</ele>
        <time>2024-05-15T12:56:58Z</time>
      </trkpt>
      <trkpt lat="44.43996" lon="1.85157">
        <ele>212.59</ele>
        <time>2024-05-15T12:57:12Z</time>
      </trkpt>
      <trkpt lat="44.4399" lon="1.85142">
        <ele>211.15</ele>
        <time>2024-05-15T12:57:22Z</time>
      </trkpt>
      <trkpt lat="44.43982" lon="1.85128">
        <ele>209.22</ele>
        <time>2024-05-15T12:57:38Z</time>
      </trkpt>
      <trkpt lat="44.43974" lon="1.85118">
        <ele>208.26</ele>
        <time>2024-05-15T12:57:49Z</time>
      </trkpt>
      <trkpt lat="44.43967" lon="1.85106">
        <ele>206.82</ele>
        <time>2024-05-15T12:57:59Z</time>
      </trkpt>
      <trkpt lat="44.43962" lon="1.85093">
        <ele>205.38</ele>
        <time>2024-05-15T12:58:10Z</time>
      </trkpt>
      <trkpt lat="44.43961" lon="1.85077">
        <ele>203.46</ele>
        <time>2024-05-15T12:58:21Z</time>
      </trkpt>
      <trkpt lat="44.43968" lon="1.85063">
        <ele>202.01</ele>
        <time>2024-05-15T12:58:34Z</time>
      </trkpt>
      <trkpt lat="44.43973" lon="1.85049">
        <ele>201.05</ele>
        <time>2024-05-15T12:58:51Z</time>
      </trkpt>
      <trkpt lat="44.43971" lon="1.85033">
        <ele>199.13</ele>
        <time>2024-05-15T12:59:01Z</time>
      </trkpt>
      <trkpt lat="44.43971" lon="1.85017">
        <ele>198.65</ele>
        <time>2024-05-15T12:59:10Z</time>
      </trkpt>
      <trkpt lat="44.43972" lon="1.85003">
        <ele>197.69</ele>
        <time>2024-05-15T12:59:20Z</time>
      </trkpt>
      <trkpt lat="44.43974" lon="1.84989">
        <ele>196.73</ele>
        <time>2024-05-15T12:59:30Z</time>
      </trkpt>
      <trkpt lat="44.4398" lon="1.84975">
        <ele>195.77</ele>
        <time>2024-05-15T12:59:40Z</time>
      </trkpt>
      <trkpt lat="44.43989" lon="1.8497">
        <ele>195.28</ele>
        <time>2024-05-15T12:59:50Z</time>
      </trkpt>
      <trkpt lat="44.43996" lon="1.84962">
        <ele>193.84</ele>
        <time>2024-05-15T13:00:05Z</time>
      </trkpt>
      <trkpt lat="44.43988" lon="1.84956">
        <ele>192.4</ele>
        <time>2024-05-15T13:00:22Z</time>
      </trkpt>
      <trkpt lat="44.43976" lon="1.84959">
        <ele>195.28</ele>
        <time>2024-05-15T13:00:38Z</time>
      </trkpt>
      <trkpt lat="44.43967" lon="1.84966">
        <ele>195.28</ele>
        <time>2024-05-15T13:00:48Z</time>
      </trkpt>
      <trkpt lat="44.43956" lon="1.84971">
        <ele>195.77</ele>
        <time>2024-05-15T13:01:00Z</time>
      </trkpt>
      <trkpt lat="44.43944" lon="1.84972">
        <ele>196.25</ele>
        <time>2024-05-15T13:01:12Z</time>
      </trkpt>
      <trkpt lat="44.43933" lon="1.84972">
        <ele>197.21</ele>
        <time>2024-05-15T13:01:24Z</time>
      </trkpt>
      <trkpt lat="44.43922" lon="1.84977">
        <ele>197.69</ele>
        <time>2024-05-15T13:01:35Z</time>
      </trkpt>
      <trkpt lat="44.43909" lon="1.84985">
        <ele>196.25</ele>
        <time>2024-05-15T13:01:45Z</time>
      </trkpt>
      <trkpt lat="44.439" lon="1.8499">
        <ele>196.25</ele>
        <time>2024-05-15T13:01:54Z</time>
      </trkpt>
      <trkpt lat="44.4389" lon="1.84997">
        <ele>196.25</ele>
        <time>2024-05-15T13:02:03Z</time>
      </trkpt>
      <trkpt lat="44.4388" lon="1.84999">
        <ele>196.25</ele>
        <time>2024-05-15T13:02:13Z</time>
      </trkpt>
      <trkpt lat="44.4387" lon="1.84997">
        <ele>197.21</ele>
        <time>2024-05-15T13:02:24Z</time>
      </trkpt>
      <trkpt lat="44.43861" lon="1.84997">
        <ele>197.69</ele>
        <time>2024-05-15T13:02:33Z</time>
      </trkpt>
      <trkpt lat="44.43852" lon="1.84996">
        <ele>197.69</ele>
        <time>2024-05-15T13:02:41Z</time>
      </trkpt>
      <trkpt lat="44.43843" lon="1.84993">
        <ele>197.69</ele>
        <time>2024-05-15T13:02:50Z</time>
      </trkpt>
      <trkpt lat="44.43833" lon="1.84984">
        <ele>199.13</ele>
        <time>2024-05-15T13:03:02Z</time>
      </trkpt>
      <trkpt lat="44.43823" lon="1.84975">
        <ele>200.09</ele>
        <time>2024-05-15T13:03:17Z</time>
      </trkpt>
      <trkpt lat="44.43812" lon="1.84974">
        <ele>200.09</ele>
        <time>2024-05-15T13:03:27Z</time>
      </trkpt>
      <trkpt lat="44.43803" lon="1.84965">
        <ele>200.09</ele>
        <time>2024-05-15T13:03:40Z</time>
      </trkpt>
      <trkpt lat="44.43792" lon="1.84963">
        <ele>197.69</ele>
        <time>2024-05-15T13:03:50Z</time>
      </trkpt>
      <trkpt lat="44.43783" lon="1.84964">
        <ele>197.21</ele>
        <time>2024-05-15T13:03:58Z</time>
      </trkpt>
      <trkpt lat="44.43771" lon="1.84962">
        <ele>197.21</ele>
        <time>2024-05-15T13:04:09Z</time>
      </trkpt>
      <trkpt lat="44.43758" lon="1.8496">
        <ele>197.69</ele>
        <time>2024-05-15T13:04:38Z</time>
      </trkpt>
      <trkpt lat="44.43748" lon="1.84959">
        <ele>199.13</ele>
        <time>2024-05-15T13:04:47Z</time>
      </trkpt>
      <trkpt lat="44.43738" lon="1.84956">
        <ele>200.09</ele>
        <time>2024-05-15T13:04:59Z</time>
      </trkpt>
      <trkpt lat="44.43727" lon="1.84952">
        <ele>200.57</ele>
        <time>2024-05-15T13:05:09Z</time>
      </trkpt>
      <trkpt lat="44.43715" lon="1.8495">
        <ele>201.53</ele>
        <time>2024-05-15T13:05:21Z</time>
      </trkpt>
      <trkpt lat="44.43705" lon="1.84953">
        <ele>201.53</ele>
        <time>2024-05-15T13:05:32Z</time>
      </trkpt>
      <trkpt lat="44.43695" lon="1.84955">
        <ele>200.57</ele>
        <time>2024-05-15T13:05:43Z</time>
      </trkpt>
      <trkpt lat="44.43676" lon="1.84961">
        <ele>200.57</ele>
        <time>2024-05-15T13:05:59Z</time>
      </trkpt>
      <trkpt lat="44.43664" lon="1.84968">
        <ele>200.57</ele>
        <time>2024-05-15T13:06:08Z</time>
      </trkpt>
      <trkpt lat="44.43654" lon="1.84973">
        <ele>200.09</ele>
        <time>2024-05-15T13:06:17Z</time>
      </trkpt>
      <trkpt lat="44.43645" lon="1.84977">
        <ele>200.09</ele>
        <time>2024-05-15T13:06:26Z</time>
      </trkpt>
      <trkpt lat="44.43638" lon="1.84985">
        <ele>198.65</ele>
        <time>2024-05-15T13:06:36Z</time>
      </trkpt>
      <trkpt lat="44.43629" lon="1.84989">
        <ele>198.65</ele>
        <time>2024-05-15T13:06:50Z</time>
      </trkpt>
      <trkpt lat="44.4362" lon="1.84992">
        <ele>199.61</ele>
        <time>2024-05-15T13:07:00Z</time>
      </trkpt>
      <trkpt lat="44.4361" lon="1.84994">
        <ele>199.61</ele>
        <time>2024-05-15T13:07:09Z</time>
      </trkpt>
      <trkpt lat="44.436" lon="1.84995">
        <ele>199.61</ele>
        <time>2024-05-15T13:07:19Z</time>
      </trkpt>
      <trkpt lat="44.43591" lon="1.84999">
        <ele>200.09</ele>
        <time>2024-05-15T13:07:28Z</time>
      </trkpt>
      <trkpt lat="44.43583" lon="1.85007">
        <ele>200.09</ele>
        <time>2024-05-15T13:18:17Z</time>
      </trkpt>
      <trkpt lat="44.43576" lon="1.85018">
        <ele>201.05</ele>
        <time>2024-05-15T13:18:32Z</time>
      </trkpt>
      <trkpt lat="44.43567" lon="1.85026">
        <ele>201.05</ele>
        <time>2024-05-15T13:18:40Z</time>
      </trkpt>
      <trkpt lat="44.43558" lon="1.85027">
        <ele>201.05</ele>
        <time>2024-05-15T13:18:48Z</time>
      </trkpt>
      <trkpt lat="44.43554" lon="1.8504">
        <ele>201.05</ele>
        <time>2024-05-15T13:18:58Z</time>
      </trkpt>
      <trkpt lat="44.43546" lon="1.85055">
        <ele>201.05</ele>
        <time>2024-05-15T13:19:14Z</time>
      </trkpt>
      <trkpt lat="44.43536" lon="1.85055">
        <ele>202.98</ele>
        <time>2024-05-15T13:19:30Z</time>
      </trkpt>
      <trkpt lat="44.43532" lon="1.85054">
        <ele>205.7</ele>
      </trkpt>
      <trkpt lat="44.43527" lon="1.85058">
        <ele>206.3</ele>
      </trkpt>
      <trkpt lat="44.43527" lon="1.85064">
        <ele>205.38</ele>
        <time>2024-05-15T13:19:43Z</time>
      </trkpt>
      <trkpt lat="44.43535" lon="1.85084">
        <ele>205.9</ele>
        <time>2024-05-15T13:20:02Z</time>
      </trkpt>
      <trkpt lat="44.4354" lon="1.85086">
        <ele>205.2</ele>
        <time>2024-05-15T13:20:18Z</time>
      </trkpt>
      <trkpt lat="44.43545" lon="1.85096">
        <ele>202.98</ele>
        <time>2024-05-15T13:20:41Z</time>
      </trkpt>
      <trkpt lat="44.43551" lon="1.8511">
        <ele>202.98</ele>
        <time>2024-05-15T13:20:49Z</time>
      </trkpt>
      <trkpt lat="44.43553" lon="1.85125">
        <ele>202.98</ele>
        <time>2024-05-15T13:20:58Z</time>
      </trkpt>
      <trkpt lat="44.43558" lon="1.8514">
        <ele>202.98</ele>
        <time>2024-05-15T13:21:08Z</time>
      </trkpt>
      <trkpt lat="44.43563" lon="1.85154">
        <ele>202.98</ele>
        <time>2024-05-15T13:21:17Z</time>
      </trkpt>
      <trkpt lat="44.43568" lon="1.85168">
        <ele>202.98</ele>
        <time>2024-05-15T13:21:26Z</time>
      </trkpt>
      <trkpt lat="44.43575" lon="1.85179">
        <ele>202.98</ele>
        <time>2024-05-15T13:21:36Z</time>
      </trkpt>
      <trkpt lat="44.43572" lon="1.85193">
        <ele>202.98</ele>
        <time>2024-05-15T13:21:45Z</time>
      </trkpt>
      <trkpt lat="44.43568" lon="1.85209">
        <ele>203.94</ele>
        <time>2024-05-15T13:21:54Z</time>
      </trkpt>
      <trkpt lat="44.43565" lon="1.85225">
        <ele>204.42</ele>
        <time>2024-05-15T13:22:04Z</time>
      </trkpt>
      <trkpt lat="44.43561" lon="1.85238">
        <ele>204.42</ele>
        <time>2024-05-15T13:22:13Z</time>
      </trkpt>
      <trkpt lat="44.4356" lon="1.85251">
        <ele>204.42</ele>
        <time>2024-05-15T13:22:23Z</time>
      </trkpt>
      <trkpt lat="44.43553" lon="1.85268">
        <ele>204.42</ele>
        <time>2024-05-15T13:22:46Z</time>
      </trkpt>
      <trkpt lat="44.43544" lon="1.8527">
        <ele>204.9</ele>
        <time>2024-05-15T13:25:00Z</time>
      </trkpt>
      <trkpt lat="44.43533" lon="1.85275">
        <ele>204.9</ele>
        <time>2024-05-15T13:25:10Z</time>
      </trkpt>
      <trkpt lat="44.43523" lon="1.85281">
        <ele>204.9</ele>
        <time>2024-05-15T13:25:20Z</time>
      </trkpt>
      <trkpt lat="44.43515" lon="1.85293">
        <ele>204.9</ele>
        <time>2024-05-15T13:25:35Z</time>
      </trkpt>
      <trkpt lat="44.43502" lon="1.853">
        <ele>203.94</ele>
        <time>2024-05-15T13:25:57Z</time>
      </trkpt>
      <trkpt lat="44.43493" lon="1.85311">
        <ele>207.3</ele>
        <time>2024-05-15T13:26:14Z</time>
      </trkpt>
      <trkpt lat="44.4348" lon="1.8532">
        <ele>208.26</ele>
        <time>2024-05-15T13:26:29Z</time>
      </trkpt>
      <trkpt lat="44.43468" lon="1.85325">
        <ele>208.74</ele>
        <time>2024-05-15T13:26:42Z</time>
      </trkpt>
      <trkpt lat="44.43457" lon="1.85333">
        <ele>209.7</ele>
        <time>2024-05-15T13:26:54Z</time>
      </trkpt>
      <trkpt lat="44.43444" lon="1.85338">
        <ele>210.67</ele>
        <time>2024-05-15T13:27:08Z</time>
      </trkpt>
      <trkpt lat="44.43431" lon="1.85342">
        <ele>210.67</ele>
        <time>2024-05-15T13:27:20Z</time>
      </trkpt>
      <trkpt lat="44.43418" lon="1.85343">
        <ele>209.22</ele>
        <time>2024-05-15T13:27:34Z</time>
      </trkpt>
      <trkpt lat="44.43408" lon="1.85351">
        <ele>210.67</ele>
        <time>2024-05-15T13:27:59Z</time>
      </trkpt>
      <trkpt lat="44.43398" lon="1.85349">
        <ele>209.22</ele>
        <time>2024-05-15T13:28:10Z</time>
      </trkpt>
      <trkpt lat="44.43387" lon="1.85352">
        <ele>209.22</ele>
        <time>2024-05-15T13:28:22Z</time>
      </trkpt>
      <trkpt lat="44.43378" lon="1.85343">
        <ele>207.78</ele>
        <time>2024-05-15T13:28:40Z</time>
      </trkpt>
      <trkpt lat="44.43365" lon="1.85323">
        <ele>205.38</ele>
        <time>2024-05-15T13:30:46Z</time>
      </trkpt>
      <trkpt lat="44.43372" lon="1.85334">
        <ele>206.82</ele>
        <time>2024-05-15T13:31:04Z</time>
      </trkpt>
      <trkpt lat="44.43377" lon="1.85347">
        <ele>208.74</ele>
        <time>2024-05-15T13:31:19Z</time>
      </trkpt>
      <trkpt lat="44.43373" lon="1.85359">
        <ele>210.19</ele>
        <time>2024-05-15T13:31:33Z</time>
      </trkpt>
      <trkpt lat="44.43366" lon="1.85368">
        <ele>210.67</ele>
        <time>2024-05-15T13:31:44Z</time>
      </trkpt>
      <trkpt lat="44.43355" lon="1.85377">
        <ele>210.67</ele>
        <time>2024-05-15T13:31:56Z</time>
      </trkpt>
      <trkpt lat="44.43346" lon="1.85388">
        <ele>208.74</ele>
        <time>2024-05-15T13:32:08Z</time>
      </trkpt>
      <trkpt lat="44.43338" lon="1.85403">
        <ele>209.22</ele>
        <time>2024-05-15T13:32:31Z</time>
      </trkpt>
      <trkpt lat="44.43331" lon="1.85418">
        <ele>210.67</ele>
        <time>2024-05-15T13:32:44Z</time>
      </trkpt>
      <trkpt lat="44.43326" lon="1.85434">
        <ele>210.67</ele>
        <time>2024-05-15T13:32:56Z</time>
      </trkpt>
      <trkpt lat="44.4332" lon="1.85447">
        <ele>211.15</ele>
        <time>2024-05-15T13:33:09Z</time>
      </trkpt>
      <trkpt lat="44.43311" lon="1.85457">
        <ele>211.15</ele>
        <time>2024-05-15T13:33:21Z</time>
      </trkpt>
      <trkpt lat="44.43304" lon="1.85468">
        <ele>211.15</ele>
        <time>2024-05-15T13:33:40Z</time>
      </trkpt>
      <trkpt lat="44.43295" lon="1.8548">
        <ele>212.11</ele>
        <time>2024-05-15T13:33:53Z</time>
      </trkpt>
      <trkpt lat="44.43288" lon="1.85493">
        <ele>212.59</ele>
        <time>2024-05-15T13:34:04Z</time>
      </trkpt>
      <trkpt lat="44.43281" lon="1.85511">
        <ele>213.55</ele>
        <time>2024-05-15T13:34:17Z</time>
      </trkpt>
      <trkpt lat="44.43274" lon="1.85525">
        <ele>214.99</ele>
        <time>2024-05-15T13:34:30Z</time>
      </trkpt>
      <trkpt lat="44.43267" lon="1.85537">
        <ele>215.95</ele>
        <time>2024-05-15T13:34:42Z</time>
      </trkpt>
      <trkpt lat="44.43258" lon="1.85547">
        <ele>217.4</ele>
        <time>2024-05-15T13:34:56Z</time>
      </trkpt>
      <trkpt lat="44.43249" lon="1.85554">
        <ele>217.88</ele>
        <time>2024-05-15T13:35:07Z</time>
      </trkpt>
      <trkpt lat="44.43239" lon="1.85562">
        <ele>218.84</ele>
        <time>2024-05-15T13:35:19Z</time>
      </trkpt>
      <trkpt lat="44.4323" lon="1.8557">
        <ele>219.8</ele>
        <time>2024-05-15T13:35:30Z</time>
      </trkpt>
      <trkpt lat="44.43221" lon="1.85576">
        <ele>220.28</ele>
        <time>2024-05-15T13:36:02Z</time>
      </trkpt>
      <trkpt lat="44.4322" lon="1.85573">
        <ele>220.76</ele>
        <time>2024-05-15T13:36:15Z</time>
      </trkpt>
      <trkpt lat="44.43214" lon="1.85561">
        <ele>222.68</ele>
        <time>2024-05-15T13:36:32Z</time>
      </trkpt>
      <trkpt lat="44.43205" lon="1.85554">
        <ele>224.12</ele>
        <time>2024-05-15T13:36:45Z</time>
      </trkpt>
      <trkpt lat="44.43197" lon="1.85544">
        <ele>225.09</ele>
        <time>2024-05-15T13:36:56Z</time>
      </trkpt>
      <trkpt lat="44.43189" lon="1.85535">
        <ele>225.57</ele>
        <time>2024-05-15T13:37:07Z</time>
      </trkpt>
      <trkpt lat="44.4318" lon="1.85526">
        <ele>226.53</ele>
        <time>2024-05-15T13:37:18Z</time>
      </trkpt>
      <trkpt lat="44.43171" lon="1.85518">
        <ele>227.49</ele>
        <time>2024-05-15T13:37:29Z</time>
      </trkpt>
      <trkpt lat="44.43163" lon="1.85511">
        <ele>227.97</ele>
        <time>2024-05-15T13:37:40Z</time>
      </trkpt>
      <trkpt lat="44.43154" lon="1.85502">
        <ele>228.93</ele>
        <time>2024-05-15T13:37:52Z</time>
      </trkpt>
      <trkpt lat="44.43145" lon="1.85494">
        <ele>230.37</ele>
        <time>2024-05-15T13:38:03Z</time>
      </trkpt>
      <trkpt lat="44.43136" lon="1.85485">
        <ele>230.85</ele>
        <time>2024-05-15T13:38:16Z</time>
      </trkpt>
      <trkpt lat="44.43127" lon="1.85477">
        <ele>232.78</ele>
        <time>2024-05-15T13:38:29Z</time>
      </trkpt>
      <trkpt lat="44.43118" lon="1.85465">
        <ele>233.26</ele>
        <time>2024-05-15T13:38:43Z</time>
      </trkpt>
      <trkpt lat="44.43106" lon="1.85456">
        <ele>235.66</ele>
        <time>2024-05-15T13:39:01Z</time>
      </trkpt>
      <trkpt lat="44.43096" lon="1.85446">
        <ele>237.58</ele>
        <time>2024-05-15T13:39:14Z</time>
      </trkpt>
      <trkpt lat="44.43088" lon="1.85433">
        <ele>239.51</ele>
        <time>2024-05-15T13:39:35Z</time>
      </trkpt>
      <trkpt lat="44.4308" lon="1.85421">
        <ele>241.43</ele>
        <time>2024-05-15T13:39:51Z</time>
      </trkpt>
      <trkpt lat="44.43075" lon="1.85402">
        <ele>243.35</ele>
        <time>2024-05-15T13:40:13Z</time>
      </trkpt>
      <trkpt lat="44.43072" lon="1.85386">
        <ele>245.75</ele>
        <time>2024-05-15T13:40:31Z</time>
      </trkpt>
      <trkpt lat="44.4307" lon="1.85369">
        <ele>248.16</ele>
        <time>2024-05-15T13:40:47Z</time>
      </trkpt>
      <trkpt lat="44.43067" lon="1.85346">
        <ele>251.04</ele>
        <time>2024-05-15T13:41:15Z</time>
      </trkpt>
      <trkpt lat="44.43062" lon="1.85328">
        <ele>252.96</ele>
        <time>2024-05-15T13:41:36Z</time>
      </trkpt>
      <trkpt lat="44.43055" lon="1.85311">
        <ele>255.37</ele>
        <time>2024-05-15T13:41:57Z</time>
      </trkpt>
      <trkpt lat="44.43047" lon="1.85297">
        <ele>257.29</ele>
        <time>2024-05-15T13:42:14Z</time>
      </trkpt>
      <trkpt lat="44.43038" lon="1.85286">
        <ele>259.21</ele>
        <time>2024-05-15T13:42:30Z</time>
      </trkpt>
      <trkpt lat="44.43029" lon="1.85273">
        <ele>261.14</ele>
        <time>2024-05-15T13:42:48Z</time>
      </trkpt>
      <trkpt lat="44.4302" lon="1.85259">
        <ele>263.06</ele>
        <time>2024-05-15T13:43:04Z</time>
      </trkpt>
      <trkpt lat="44.43012" lon="1.85248">
        <ele>264.5</ele>
        <time>2024-05-15T13:43:18Z</time>
      </trkpt>
      <trkpt lat="44.43005" lon="1.85235">
        <ele>265.94</ele>
        <time>2024-05-15T13:43:33Z</time>
      </trkpt>
      <trkpt lat="44.42998" lon="1.85224">
        <ele>267.38</ele>
        <time>2024-05-15T13:43:47Z</time>
      </trkpt>
      <trkpt lat="44.42988" lon="1.85209">
        <ele>268.83</ele>
        <time>2024-05-15T13:44:03Z</time>
      </trkpt>
      <trkpt lat="44.4298" lon="1.85198">
        <ele>270.27</ele>
        <time>2024-05-15T13:44:16Z</time>
      </trkpt>
      <trkpt lat="44.42973" lon="1.85186">
        <ele>271.23</ele>
        <time>2024-05-15T13:44:30Z</time>
      </trkpt>
      <trkpt lat="44.42967" lon="1.85174">
        <ele>272.67</ele>
        <time>2024-05-15T13:44:45Z</time>
      </trkpt>
      <trkpt lat="44.4296" lon="1.85161">
        <ele>274.59</ele>
        <time>2024-05-15T13:45:02Z</time>
      </trkpt>
      <trkpt lat="44.42951" lon="1.85148">
        <ele>276.04</ele>
        <time>2024-05-15T13:45:18Z</time>
      </trkpt>
      <trkpt lat="44.42946" lon="1.85131">
        <ele>278.44</ele>
        <time>2024-05-15T13:45:34Z</time>
      </trkpt>
      <trkpt lat="44.42943" lon="1.85115">
        <ele>279.88</ele>
        <time>2024-05-15T13:45:50Z</time>
      </trkpt>
      <trkpt lat="44.42935" lon="1.851">
        <ele>281.32</ele>
        <time>2024-05-15T13:46:07Z</time>
      </trkpt>
      <trkpt lat="44.4293" lon="1.85084">
        <ele>282.77</ele>
        <time>2024-05-15T13:46:24Z</time>
      </trkpt>
      <trkpt lat="44.42923" lon="1.8507">
        <ele>283.25</ele>
        <time>2024-05-15T13:46:38Z</time>
      </trkpt>
      <trkpt lat="44.42916" lon="1.85058">
        <ele>284.69</ele>
        <time>2024-05-15T13:46:51Z</time>
      </trkpt>
      <trkpt lat="44.42908" lon="1.85047">
        <ele>285.17</ele>
        <time>2024-05-15T13:47:03Z</time>
      </trkpt>
      <trkpt lat="44.429" lon="1.85037">
        <ele>286.13</ele>
        <time>2024-05-15T13:47:15Z</time>
      </trkpt>
      <trkpt lat="44.4289" lon="1.85024">
        <ele>287.09</ele>
        <time>2024-05-15T13:47:28Z</time>
      </trkpt>
      <trkpt lat="44.4288" lon="1.85013">
        <ele>287.57</ele>
        <time>2024-05-15T13:47:40Z</time>
      </trkpt>
      <trkpt lat="44.42871" lon="1.85001">
        <ele>288.05</ele>
        <time>2024-05-15T13:47:54Z</time>
      </trkpt>
      <trkpt lat="44.4286" lon="1.84989">
        <ele>288.53</ele>
        <time>2024-05-15T13:48:09Z</time>
      </trkpt>
      <trkpt lat="44.4285" lon="1.84978">
        <ele>289.01</ele>
        <time>2024-05-15T13:48:21Z</time>
      </trkpt>
      <trkpt lat="44.4284" lon="1.84967">
        <ele>289.49</ele>
        <time>2024-05-15T13:48:32Z</time>
      </trkpt>
      <trkpt lat="44.42831" lon="1.84953">
        <ele>289.97</ele>
        <time>2024-05-15T13:48:44Z</time>
      </trkpt>
      <trkpt lat="44.42823" lon="1.8494">
        <ele>290.46</ele>
        <time>2024-05-15T13:48:57Z</time>
      </trkpt>
      <trkpt lat="44.42815" lon="1.84926">
        <ele>291.42</ele>
        <time>2024-05-15T13:49:10Z</time>
      </trkpt>
      <trkpt lat="44.42806" lon="1.84913">
        <ele>292.38</ele>
        <time>2024-05-15T13:49:25Z</time>
      </trkpt>
      <trkpt lat="44.42797" lon="1.84902">
        <ele>293.82</ele>
        <time>2024-05-15T13:49:40Z</time>
      </trkpt>
      <trkpt lat="44.42787" lon="1.84891">
        <ele>295.26</ele>
        <time>2024-05-15T13:49:54Z</time>
      </trkpt>
      <trkpt lat="44.4278" lon="1.84877">
        <ele>296.7</ele>
        <time>2024-05-15T13:50:09Z</time>
      </trkpt>
      <trkpt lat="44.42774" lon="1.84862">
        <ele>298.15</ele>
        <time>2024-05-15T13:50:26Z</time>
      </trkpt>
      <trkpt lat="44.42767" lon="1.84842">
        <ele>298.63</ele>
        <time>2024-05-15T13:50:43Z</time>
      </trkpt>
      <trkpt lat="44.4276" lon="1.84825">
        <ele>300.07</ele>
        <time>2024-05-15T13:50:56Z</time>
      </trkpt>
      <trkpt lat="44.42754" lon="1.84811">
        <ele>300.55</ele>
        <time>2024-05-15T13:51:09Z</time>
      </trkpt>
      <trkpt lat="44.42749" lon="1.84796">
        <ele>301.51</ele>
        <time>2024-05-15T13:51:23Z</time>
      </trkpt>
      <trkpt lat="44.42743" lon="1.84781">
        <ele>301.99</ele>
        <time>2024-05-15T13:51:38Z</time>
      </trkpt>
      <trkpt lat="44.42735" lon="1.84768">
        <ele>303.43</ele>
        <time>2024-05-15T13:51:51Z</time>
      </trkpt>
      <trkpt lat="44.42728" lon="1.84755">
        <ele>304.39</ele>
        <time>2024-05-15T13:52:05Z</time>
      </trkpt>
      <trkpt lat="44.4272" lon="1.84739">
        <ele>306.32</ele>
        <time>2024-05-15T13:52:23Z</time>
      </trkpt>
      <trkpt lat="44.42711" lon="1.84724">
        <ele>307.28</ele>
        <time>2024-05-15T13:52:37Z</time>
      </trkpt>
      <trkpt lat="44.42703" lon="1.8471">
        <ele>308.72</ele>
        <time>2024-05-15T13:52:53Z</time>
      </trkpt>
      <trkpt lat="44.42693" lon="1.84691">
        <ele>311.12</ele>
        <time>2024-05-15T13:53:16Z</time>
      </trkpt>
      <trkpt lat="44.42677" lon="1.84674">
        <ele>313.05</ele>
        <time>2024-05-15T13:53:46Z</time>
      </trkpt>
      <trkpt lat="44.42658" lon="1.8465">
        <ele>315.93</ele>
        <time>2024-05-15T13:54:15Z</time>
      </trkpt>
      <trkpt lat="44.42644" lon="1.84629">
        <ele>318.33</ele>
        <time>2024-05-15T13:54:43Z</time>
      </trkpt>
      <trkpt lat="44.42626" lon="1.84605">
        <ele>321.22</ele>
        <time>2024-05-15T13:55:20Z</time>
      </trkpt>
      <trkpt lat="44.42623" lon="1.84558">
        <ele>326.02</ele>
        <time>2024-05-15T13:56:07Z</time>
      </trkpt>
      <trkpt lat="44.42615" lon="1.84522">
        <ele>329.87</ele>
        <time>2024-05-15T13:57:57Z</time>
      </trkpt>
      <trkpt lat="44.42609" lon="1.84506">
        <ele>331.79</ele>
        <time>2024-05-15T13:58:14Z</time>
      </trkpt>
      <trkpt lat="44.42604" lon="1.84491">
        <ele>333.71</ele>
        <time>2024-05-15T13:58:28Z</time>
      </trkpt>
      <trkpt lat="44.42601" lon="1.84475">
        <ele>335.64</ele>
        <time>2024-05-15T13:58:45Z</time>
      </trkpt>
      <trkpt lat="44.42596" lon="1.84454">
        <ele>337.56</ele>
        <time>2024-05-15T13:59:06Z</time>
      </trkpt>
      <trkpt lat="44.42591" lon="1.84435">
        <ele>340.44</ele>
        <time>2024-05-15T13:59:25Z</time>
      </trkpt>
      <trkpt lat="44.42585" lon="1.84421">
        <ele>341.89</ele>
        <time>2024-05-15T13:59:39Z</time>
      </trkpt>
      <trkpt lat="44.42581" lon="1.84403">
        <ele>343.81</ele>
        <time>2024-05-15T13:59:56Z</time>
      </trkpt>
      <trkpt lat="44.42579" lon="1.84385">
        <ele>344.77</ele>
        <time>2024-05-15T14:00:09Z</time>
      </trkpt>
      <trkpt lat="44.4258" lon="1.84368">
        <ele>345.73</ele>
        <time>2024-05-15T14:00:22Z</time>
      </trkpt>
      <trkpt lat="44.42581" lon="1.84352">
        <ele>346.69</ele>
        <time>2024-05-15T14:00:36Z</time>
      </trkpt>
      <trkpt lat="44.42584" lon="1.84334">
        <ele>347.65</ele>
        <time>2024-05-15T14:00:53Z</time>
      </trkpt>
      <trkpt lat="44.42585" lon="1.84315">
        <ele>348.62</ele>
        <time>2024-05-15T14:01:05Z</time>
      </trkpt>
      <trkpt lat="44.42588" lon="1.84298">
        <ele>349.1</ele>
        <time>2024-05-15T14:01:17Z</time>
      </trkpt>
      <trkpt lat="44.42592" lon="1.84282">
        <ele>350.06</ele>
        <time>2024-05-15T14:01:30Z</time>
      </trkpt>
      <trkpt lat="44.42597" lon="1.84268">
        <ele>351.02</ele>
        <time>2024-05-15T14:01:41Z</time>
      </trkpt>
      <trkpt lat="44.42602" lon="1.84255">
        <ele>351.98</ele>
        <time>2024-05-15T14:01:52Z</time>
      </trkpt>
      <trkpt lat="44.42606" lon="1.8424">
        <ele>353.42</ele>
        <time>2024-05-15T14:02:05Z</time>
      </trkpt>
      <trkpt lat="44.42609" lon="1.84225">
        <ele>353.9</ele>
        <time>2024-05-15T14:02:17Z</time>
      </trkpt>
      <trkpt lat="44.42607" lon="1.8421">
        <ele>354.38</ele>
        <time>2024-05-15T14:02:28Z</time>
      </trkpt>
      <trkpt lat="44.42604" lon="1.84196">
        <ele>354.86</ele>
        <time>2024-05-15T14:02:39Z</time>
      </trkpt>
      <trkpt lat="44.42599" lon="1.84182">
        <ele>355.34</ele>
        <time>2024-05-15T14:02:50Z</time>
      </trkpt>
      <trkpt lat="44.42591" lon="1.8417">
        <ele>354.38</ele>
        <time>2024-05-15T14:03:02Z</time>
      </trkpt>
      <trkpt lat="44.42583" lon="1.84158">
        <ele>354.38</ele>
        <time>2024-05-15T14:03:13Z</time>
      </trkpt>
      <trkpt lat="44.42575" lon="1.84147">
        <ele>353.9</ele>
        <time>2024-05-15T14:03:23Z</time>
      </trkpt>
      <trkpt lat="44.42566" lon="1.84136">
        <ele>353.9</ele>
        <time>2024-05-15T14:03:35Z</time>
      </trkpt>
      <trkpt lat="44.42557" lon="1.84125">
        <ele>353.9</ele>
        <time>2024-05-15T14:03:45Z</time>
      </trkpt>
      <trkpt lat="44.42549" lon="1.84115">
        <ele>353.9</ele>
        <time>2024-05-15T14:03:56Z</time>
      </trkpt>
      <trkpt lat="44.42539" lon="1.84104">
        <ele>354.38</ele>
        <time>2024-05-15T14:04:06Z</time>
      </trkpt>
      <trkpt lat="44.42531" lon="1.84093">
        <ele>355.83</ele>
        <time>2024-05-15T14:04:16Z</time>
      </trkpt>
      <trkpt lat="44.42522" lon="1.84081">
        <ele>356.31</ele>
        <time>2024-05-15T14:04:26Z</time>
      </trkpt>
      <trkpt lat="44.42513" lon="1.84071">
        <ele>356.79</ele>
        <time>2024-05-15T14:04:36Z</time>
      </trkpt>
      <trkpt lat="44.42502" lon="1.84058">
        <ele>357.27</ele>
        <time>2024-05-15T14:04:48Z</time>
      </trkpt>
      <trkpt lat="44.42494" lon="1.84047">
        <ele>357.75</ele>
        <time>2024-05-15T14:04:59Z</time>
      </trkpt>
      <trkpt lat="44.42485" lon="1.84034">
        <ele>358.23</ele>
        <time>2024-05-15T14:05:11Z</time>
      </trkpt>
      <trkpt lat="44.42476" lon="1.84022">
        <ele>358.71</ele>
        <time>2024-05-15T14:05:21Z</time>
      </trkpt>
      <trkpt lat="44.42468" lon="1.8401">
        <ele>358.71</ele>
        <time>2024-05-15T14:05:32Z</time>
      </trkpt>
      <trkpt lat="44.42461" lon="1.84001">
        <ele>359.19</ele>
        <time>2024-05-15T14:05:41Z</time>
      </trkpt>
      <trkpt lat="44.42452" lon="1.83993">
        <ele>359.19</ele>
        <time>2024-05-15T14:05:49Z</time>
      </trkpt>
      <trkpt lat="44.42444" lon="1.83986">
        <ele>359.19</ele>
        <time>2024-05-15T14:05:57Z</time>
      </trkpt>
      <trkpt lat="44.42435" lon="1.8398">
        <ele>359.19</ele>
        <time>2024-05-15T14:06:06Z</time>
      </trkpt>
      <trkpt lat="44.42425" lon="1.83975">
        <ele>359.19</ele>
        <time>2024-05-15T14:06:15Z</time>
      </trkpt>
      <trkpt lat="44.42415" lon="1.83971">
        <ele>359.19</ele>
        <time>2024-05-15T14:06:25Z</time>
      </trkpt>
      <trkpt lat="44.42405" lon="1.83965">
        <ele>359.19</ele>
        <time>2024-05-15T14:06:34Z</time>
      </trkpt>
      <trkpt lat="44.42395" lon="1.83961">
        <ele>359.19</ele>
        <time>2024-05-15T14:06:43Z</time>
      </trkpt>
      <trkpt lat="44.42383" lon="1.83956">
        <ele>359.67</ele>
        <time>2024-05-15T14:06:52Z</time>
      </trkpt>
      <trkpt lat="44.42372" lon="1.83951">
        <ele>359.67</ele>
        <time>2024-05-15T14:07:03Z</time>
      </trkpt>
      <trkpt lat="44.42362" lon="1.83947">
        <ele>359.67</ele>
        <time>2024-05-15T14:07:12Z</time>
      </trkpt>
      <trkpt lat="44.42351" lon="1.83942">
        <ele>359.67</ele>
        <time>2024-05-15T14:07:22Z</time>
      </trkpt>
      <trkpt lat="44.4234" lon="1.83939">
        <ele>359.67</ele>
        <time>2024-05-15T14:07:32Z</time>
      </trkpt>
      <trkpt lat="44.42327" lon="1.83933">
        <ele>360.15</ele>
        <time>2024-05-15T14:07:42Z</time>
      </trkpt>
      <trkpt lat="44.42317" lon="1.83927">
        <ele>360.15</ele>
        <time>2024-05-15T14:07:51Z</time>
      </trkpt>
      <trkpt lat="44.42307" lon="1.83925">
        <ele>360.63</ele>
        <time>2024-05-15T14:08:06Z</time>
      </trkpt>
      <trkpt lat="44.42298" lon="1.83924">
        <ele>361.59</ele>
        <time>2024-05-15T14:08:14Z</time>
      </trkpt>
      <trkpt lat="44.42288" lon="1.83922">
        <ele>361.59</ele>
        <time>2024-05-15T14:08:23Z</time>
      </trkpt>
      <trkpt lat="44.42278" lon="1.83917">
        <ele>362.07</ele>
        <time>2024-05-15T14:08:32Z</time>
      </trkpt>
      <trkpt lat="44.42268" lon="1.83913">
        <ele>362.55</ele>
        <time>2024-05-15T14:08:42Z</time>
      </trkpt>
      <trkpt lat="44.42257" lon="1.83908">
        <ele>363.04</ele>
        <time>2024-05-15T14:08:52Z</time>
      </trkpt>
      <trkpt lat="44.42244" lon="1.83905">
        <ele>363.52</ele>
        <time>2024-05-15T14:09:02Z</time>
      </trkpt>
      <trkpt lat="44.42234" lon="1.83901">
        <ele>364</ele>
        <time>2024-05-15T14:09:12Z</time>
      </trkpt>
      <trkpt lat="44.42223" lon="1.83896">
        <ele>364.48</ele>
        <time>2024-05-15T14:09:24Z</time>
      </trkpt>
      <trkpt lat="44.42211" lon="1.83891">
        <ele>365.44</ele>
        <time>2024-05-15T14:09:35Z</time>
      </trkpt>
      <trkpt lat="44.42198" lon="1.8389">
        <ele>366.4</ele>
        <time>2024-05-15T14:09:49Z</time>
      </trkpt>
      <trkpt lat="44.42187" lon="1.83893">
        <ele>366.88</ele>
        <time>2024-05-15T14:09:59Z</time>
      </trkpt>
      <trkpt lat="44.42177" lon="1.83896">
        <ele>367.36</ele>
        <time>2024-05-15T14:10:08Z</time>
      </trkpt>
      <trkpt lat="44.42167" lon="1.83901">
        <ele>367.84</ele>
        <time>2024-05-15T14:10:18Z</time>
      </trkpt>
      <trkpt lat="44.42157" lon="1.83905">
        <ele>368.32</ele>
        <time>2024-05-15T14:10:29Z</time>
      </trkpt>
      <trkpt lat="44.42147" lon="1.8391">
        <ele>368.8</ele>
        <time>2024-05-15T14:10:39Z</time>
      </trkpt>
      <trkpt lat="44.42138" lon="1.83915">
        <ele>369.28</ele>
        <time>2024-05-15T14:10:49Z</time>
      </trkpt>
      <trkpt lat="44.42127" lon="1.8392">
        <ele>370.24</ele>
        <time>2024-05-15T14:11:00Z</time>
      </trkpt>
      <trkpt lat="44.42118" lon="1.83925">
        <ele>370.24</ele>
        <time>2024-05-15T14:11:09Z</time>
      </trkpt>
      <trkpt lat="44.42108" lon="1.83929">
        <ele>370.73</ele>
        <time>2024-05-15T14:11:19Z</time>
      </trkpt>
      <trkpt lat="44.42098" lon="1.83935">
        <ele>371.21</ele>
        <time>2024-05-15T14:11:30Z</time>
      </trkpt>
      <trkpt lat="44.42089" lon="1.83943">
        <ele>371.69</ele>
        <time>2024-05-15T14:11:40Z</time>
      </trkpt>
      <trkpt lat="44.4208" lon="1.83949">
        <ele>372.65</ele>
        <time>2024-05-15T14:11:49Z</time>
      </trkpt>
      <trkpt lat="44.4207" lon="1.83955">
        <ele>373.13</ele>
        <time>2024-05-15T14:11:59Z</time>
      </trkpt>
      <trkpt lat="44.42061" lon="1.83958">
        <ele>374.57</ele>
        <time>2024-05-15T14:12:09Z</time>
      </trkpt>
      <trkpt lat="44.4205" lon="1.83957">
        <ele>376.01</ele>
        <time>2024-05-15T14:12:20Z</time>
      </trkpt>
      <trkpt lat="44.42042" lon="1.83949">
        <ele>376.01</ele>
        <time>2024-05-15T14:12:29Z</time>
      </trkpt>
      <trkpt lat="44.42038" lon="1.83935">
        <ele>376.49</ele>
        <time>2024-05-15T14:12:38Z</time>
      </trkpt>
      <trkpt lat="44.42037" lon="1.83922">
        <ele>376.49</ele>
        <time>2024-05-15T14:12:47Z</time>
      </trkpt>
      <trkpt lat="44.42036" lon="1.83909">
        <ele>376.49</ele>
        <time>2024-05-15T14:12:56Z</time>
      </trkpt>
      <trkpt lat="44.42034" lon="1.83895">
        <ele>375.05</ele>
        <time>2024-05-15T14:13:03Z</time>
      </trkpt>
      <trkpt lat="44.42035" lon="1.83882">
        <ele>375.05</ele>
        <time>2024-05-15T14:13:11Z</time>
      </trkpt>
      <trkpt lat="44.42038" lon="1.8387">
        <ele>374.57</ele>
        <time>2024-05-15T14:13:20Z</time>
      </trkpt>
      <trkpt lat="44.42042" lon="1.83856">
        <ele>374.09</ele>
        <time>2024-05-15T14:13:29Z</time>
      </trkpt>
      <trkpt lat="44.42046" lon="1.83843">
        <ele>373.13</ele>
        <time>2024-05-15T14:13:38Z</time>
      </trkpt>
      <trkpt lat="44.42045" lon="1.8383">
        <ele>372.65</ele>
        <time>2024-05-15T14:13:47Z</time>
      </trkpt>
      <trkpt lat="44.42041" lon="1.83818">
        <ele>372.17</ele>
        <time>2024-05-15T14:13:55Z</time>
      </trkpt>
      <trkpt lat="44.42036" lon="1.83806">
        <ele>371.69</ele>
        <time>2024-05-15T14:14:04Z</time>
      </trkpt>
      <trkpt lat="44.4203" lon="1.83795">
        <ele>371.21</ele>
        <time>2024-05-15T14:14:12Z</time>
      </trkpt>
      <trkpt lat="44.42026" lon="1.83782">
        <ele>371.21</ele>
        <time>2024-05-15T14:14:22Z</time>
      </trkpt>
      <trkpt lat="44.42021" lon="1.83767">
        <ele>370.73</ele>
        <time>2024-05-15T14:14:31Z</time>
      </trkpt>
      <trkpt lat="44.42018" lon="1.83752">
        <ele>370.73</ele>
        <time>2024-05-15T14:14:40Z</time>
      </trkpt>
      <trkpt lat="44.42015" lon="1.83737">
        <ele>370.73</ele>
        <time>2024-05-15T14:14:50Z</time>
      </trkpt>
      <trkpt lat="44.42013" lon="1.83722">
        <ele>370.73</ele>
        <time>2024-05-15T14:14:59Z</time>
      </trkpt>
      <trkpt lat="44.42011" lon="1.83708">
        <ele>370.24</ele>
        <time>2024-05-15T14:15:08Z</time>
      </trkpt>
      <trkpt lat="44.4201" lon="1.83694">
        <ele>370.73</ele>
        <time>2024-05-15T14:15:17Z</time>
      </trkpt>
      <trkpt lat="44.42006" lon="1.83681">
        <ele>370.24</ele>
        <time>2024-05-15T14:15:27Z</time>
      </trkpt>
      <trkpt lat="44.42" lon="1.83669">
        <ele>370.24</ele>
        <time>2024-05-15T14:15:37Z</time>
      </trkpt>
      <trkpt lat="44.41992" lon="1.83654">
        <ele>372.17</ele>
        <time>2024-05-15T14:15:50Z</time>
      </trkpt>
      <trkpt lat="44.41985" lon="1.83642">
        <ele>371.69</ele>
        <time>2024-05-15T14:15:59Z</time>
      </trkpt>
      <trkpt lat="44.41981" lon="1.83629">
        <ele>372.17</ele>
        <time>2024-05-15T14:16:08Z</time>
      </trkpt>
      <trkpt lat="44.41977" lon="1.83616">
        <ele>372.17</ele>
        <time>2024-05-15T14:16:18Z</time>
      </trkpt>
      <trkpt lat="44.41975" lon="1.83602">
        <ele>372.17</ele>
        <time>2024-05-15T14:16:28Z</time>
      </trkpt>
      <trkpt lat="44.4197" lon="1.83588">
        <ele>370.73</ele>
        <time>2024-05-15T14:16:38Z</time>
      </trkpt>
      <trkpt lat="44.41967" lon="1.83575">
        <ele>370.24</ele>
        <time>2024-05-15T14:16:47Z</time>
      </trkpt>
      <trkpt lat="44.41964" lon="1.83561">
        <ele>369.76</ele>
        <time>2024-05-15T14:16:55Z</time>
      </trkpt>
      <trkpt lat="44.41961" lon="1.83547">
        <ele>368.8</ele>
        <time>2024-05-15T14:17:04Z</time>
      </trkpt>
      <trkpt lat="44.41963" lon="1.83534">
        <ele>368.8</ele>
        <time>2024-05-15T14:17:13Z</time>
      </trkpt>
      <trkpt lat="44.41968" lon="1.83522">
        <ele>367.84</ele>
        <time>2024-05-15T14:17:22Z</time>
      </trkpt>
      <trkpt lat="44.41968" lon="1.83509">
        <ele>366.88</ele>
        <time>2024-05-15T14:17:32Z</time>
      </trkpt>
      <trkpt lat="44.41962" lon="1.83499">
        <ele>367.36</ele>
        <time>2024-05-15T14:18:04Z</time>
      </trkpt>
    </trkseg>
  </trk>
</gpx>